<?xml version="1.0" encoding="UTF-8" standalone="no" ?>
<gpx xmlns="http://www.topografix.com/GPX/1/1" xmlns:xsi="http://www.w3.org/2001/XMLSchema-instance" xsi:schemaLocation="http://www.topografix.com/GPX/1/1 http://www.topografix.com/GPX/1/1/gpx.xsd" version="1.1" creator="VisuGPX - https://www.visugpx.com">
  <metadata>
    <name>durance cyclo</name>
    <desc><![CDATA[Quelques circuits le long de la durance]]></desc>
  </metadata>
  <trk>
    <name><![CDATA[N°65  valenty/Lazer/Upaix/Mison]]></name>
    <trkseg>
      <trkpt lat="44.36755" lon="5.92378">
        <ele>591.3481445</ele>
        <time>2016-03-10T09:57:04Z</time>
      </trkpt>
      <trkpt lat="44.36757" lon="5.92384">
        <ele>592.3095703</ele>
        <time>2016-03-10T09:57:07Z</time>
      </trkpt>
      <trkpt lat="44.36758" lon="5.92383">
        <ele>590.8674316</ele>
        <time>2016-03-10T09:57:09Z</time>
      </trkpt>
      <trkpt lat="44.3676" lon="5.92382">
        <ele>587.9833984</ele>
        <time>2016-03-10T09:57:26Z</time>
      </trkpt>
      <trkpt lat="44.36761" lon="5.9238">
        <ele>584.6188965</ele>
        <time>2016-03-10T09:57:34Z</time>
      </trkpt>
      <trkpt lat="44.36759" lon="5.9238">
        <ele>581.7348633</ele>
        <time>2016-03-10T09:57:44Z</time>
      </trkpt>
      <trkpt lat="44.36759" lon="5.9238">
        <ele>578.8510742</ele>
        <time>2016-03-10T09:58:00Z</time>
      </trkpt>
      <trkpt lat="44.3676" lon="5.9238">
        <ele>577.4091797</ele>
        <time>2016-03-10T09:58:14Z</time>
      </trkpt>
      <trkpt lat="44.3676" lon="5.9238">
        <ele>577.4091797</ele>
        <time>2016-03-10T09:58:28Z</time>
      </trkpt>
      <trkpt lat="44.36759" lon="5.92386">
        <ele>574.5251465</ele>
        <time>2016-03-10T09:59:18Z</time>
      </trkpt>
      <trkpt lat="44.36757" lon="5.9239">
        <ele>573.083252</ele>
        <time>2016-03-10T10:00:23Z</time>
      </trkpt>
      <trkpt lat="44.36757" lon="5.9239">
        <ele>575.4863281</ele>
        <time>2016-03-10T10:00:35Z</time>
      </trkpt>
      <trkpt lat="44.36757" lon="5.9239">
        <ele>573.5639648</ele>
        <time>2016-03-10T10:00:37Z</time>
      </trkpt>
      <trkpt lat="44.36756" lon="5.9239">
        <ele>574.0444336</ele>
        <time>2016-03-10T10:00:55Z</time>
      </trkpt>
      <trkpt lat="44.36756" lon="5.92387">
        <ele>574.5251465</ele>
        <time>2016-03-10T10:01:08Z</time>
      </trkpt>
      <trkpt lat="44.36757" lon="5.92387">
        <ele>574.0444336</ele>
        <time>2016-03-10T10:01:30Z</time>
      </trkpt>
      <trkpt lat="44.3676" lon="5.92391">
        <ele>575.0058594</ele>
        <time>2016-03-10T10:02:59Z</time>
      </trkpt>
      <trkpt lat="44.3676" lon="5.92391">
        <ele>575.967041</ele>
        <time>2016-03-10T10:03:22Z</time>
      </trkpt>
      <trkpt lat="44.3676" lon="5.92391">
        <ele>574.0444336</ele>
        <time>2016-03-10T10:03:25Z</time>
      </trkpt>
      <trkpt lat="44.36759" lon="5.92393">
        <ele>573.5639648</ele>
        <time>2016-03-10T10:03:48Z</time>
      </trkpt>
      <trkpt lat="44.36759" lon="5.92392">
        <ele>574.0444336</ele>
        <time>2016-03-10T10:04:04Z</time>
      </trkpt>
      <trkpt lat="44.36754" lon="5.92392">
        <ele>574.0444336</ele>
        <time>2016-03-10T10:04:07Z</time>
      </trkpt>
      <trkpt lat="44.36709" lon="5.92385">
        <ele>575.0058594</ele>
        <time>2016-03-10T10:04:23Z</time>
      </trkpt>
      <trkpt lat="44.36667" lon="5.92415">
        <ele>574.5251465</ele>
        <time>2016-03-10T10:04:37Z</time>
      </trkpt>
      <trkpt lat="44.36623" lon="5.92425">
        <ele>572.6025391</ele>
        <time>2016-03-10T10:04:49Z</time>
      </trkpt>
      <trkpt lat="44.36604" lon="5.92413">
        <ele>572.6025391</ele>
        <time>2016-03-10T10:04:54Z</time>
      </trkpt>
      <trkpt lat="44.36564" lon="5.92372">
        <ele>573.5639648</ele>
        <time>2016-03-10T10:05:06Z</time>
      </trkpt>
      <trkpt lat="44.3655" lon="5.92344">
        <ele>573.5639648</ele>
        <time>2016-03-10T10:05:13Z</time>
      </trkpt>
      <trkpt lat="44.36553" lon="5.92336">
        <ele>575.4863281</ele>
        <time>2016-03-10T10:05:17Z</time>
      </trkpt>
      <trkpt lat="44.36555" lon="5.92341">
        <ele>575.0058594</ele>
        <time>2016-03-10T10:05:19Z</time>
      </trkpt>
      <trkpt lat="44.36592" lon="5.92382">
        <ele>578.3703613</ele>
        <time>2016-03-10T10:05:36Z</time>
      </trkpt>
      <trkpt lat="44.36636" lon="5.92406">
        <ele>579.331543</ele>
        <time>2016-03-10T10:05:53Z</time>
      </trkpt>
      <trkpt lat="44.36679" lon="5.92379">
        <ele>581.2543945</ele>
        <time>2016-03-10T10:06:10Z</time>
      </trkpt>
      <trkpt lat="44.36704" lon="5.92324">
        <ele>581.2543945</ele>
        <time>2016-03-10T10:06:26Z</time>
      </trkpt>
      <trkpt lat="44.36741" lon="5.92276">
        <ele>582.6962891</ele>
        <time>2016-03-10T10:06:43Z</time>
      </trkpt>
      <trkpt lat="44.36791" lon="5.92281">
        <ele>584.1381836</ele>
        <time>2016-03-10T10:07:00Z</time>
      </trkpt>
      <trkpt lat="44.36819" lon="5.92228">
        <ele>583.6574707</ele>
        <time>2016-03-10T10:07:16Z</time>
      </trkpt>
      <trkpt lat="44.36841" lon="5.92188">
        <ele>583.1767578</ele>
        <time>2016-03-10T10:07:25Z</time>
      </trkpt>
      <trkpt lat="44.36895" lon="5.92088">
        <ele>581.7348633</ele>
        <time>2016-03-10T10:07:44Z</time>
      </trkpt>
      <trkpt lat="44.36908" lon="5.92064">
        <ele>581.7348633</ele>
        <time>2016-03-10T10:07:48Z</time>
      </trkpt>
      <trkpt lat="44.36918" lon="5.92039">
        <ele>580.7736816</ele>
        <time>2016-03-10T10:07:52Z</time>
      </trkpt>
      <trkpt lat="44.36925" lon="5.92012">
        <ele>581.2543945</ele>
        <time>2016-03-10T10:07:56Z</time>
      </trkpt>
      <trkpt lat="44.36924" lon="5.91928">
        <ele>581.2543945</ele>
        <time>2016-03-10T10:08:12Z</time>
      </trkpt>
      <trkpt lat="44.36926" lon="5.91856">
        <ele>583.6574707</ele>
        <time>2016-03-10T10:08:29Z</time>
      </trkpt>
      <trkpt lat="44.36938" lon="5.9178">
        <ele>584.6188965</ele>
        <time>2016-03-10T10:08:49Z</time>
      </trkpt>
      <trkpt lat="44.36955" lon="5.91698">
        <ele>587.9833984</ele>
        <time>2016-03-10T10:09:11Z</time>
      </trkpt>
      <trkpt lat="44.3698" lon="5.91648">
        <ele>590.3869629</ele>
        <time>2016-03-10T10:09:28Z</time>
      </trkpt>
      <trkpt lat="44.36991" lon="5.91643">
        <ele>591.8288574</ele>
        <time>2016-03-10T10:09:33Z</time>
      </trkpt>
      <trkpt lat="44.37002" lon="5.91637">
        <ele>594.2321777</ele>
        <time>2016-03-10T10:09:39Z</time>
      </trkpt>
      <trkpt lat="44.37042" lon="5.91616">
        <ele>594.7126465</ele>
        <time>2016-03-10T10:09:57Z</time>
      </trkpt>
      <trkpt lat="44.37075" lon="5.91598">
        <ele>595.1933594</ele>
        <time>2016-03-10T10:10:11Z</time>
      </trkpt>
      <trkpt lat="44.37108" lon="5.91565">
        <ele>597.1159668</ele>
        <time>2016-03-10T10:10:29Z</time>
      </trkpt>
      <trkpt lat="44.37126" lon="5.9152">
        <ele>598.5578613</ele>
        <time>2016-03-10T10:10:44Z</time>
      </trkpt>
      <trkpt lat="44.37139" lon="5.91481">
        <ele>601.4418945</ele>
        <time>2016-03-10T10:10:59Z</time>
      </trkpt>
      <trkpt lat="44.37143" lon="5.91476">
        <ele>601.9226074</ele>
        <time>2016-03-10T10:11:01Z</time>
      </trkpt>
      <trkpt lat="44.37156" lon="5.91415">
        <ele>604.3261719</ele>
        <time>2016-03-10T10:11:17Z</time>
      </trkpt>
      <trkpt lat="44.37156" lon="5.91379">
        <ele>606.729248</ele>
        <time>2016-03-10T10:11:29Z</time>
      </trkpt>
      <trkpt lat="44.37164" lon="5.91348">
        <ele>607.2099609</ele>
        <time>2016-03-10T10:11:38Z</time>
      </trkpt>
      <trkpt lat="44.37169" lon="5.91331">
        <ele>609.1325684</ele>
        <time>2016-03-10T10:11:44Z</time>
      </trkpt>
      <trkpt lat="44.37184" lon="5.91291">
        <ele>610.09375</ele>
        <time>2016-03-10T10:11:56Z</time>
      </trkpt>
      <trkpt lat="44.37223" lon="5.91255">
        <ele>612.9777832</ele>
        <time>2016-03-10T10:12:14Z</time>
      </trkpt>
      <trkpt lat="44.37252" lon="5.91234">
        <ele>614.9003906</ele>
        <time>2016-03-10T10:12:31Z</time>
      </trkpt>
      <trkpt lat="44.37277" lon="5.91186">
        <ele>617.3037109</ele>
        <time>2016-03-10T10:12:51Z</time>
      </trkpt>
      <trkpt lat="44.37297" lon="5.91127">
        <ele>619.7070313</ele>
        <time>2016-03-10T10:13:10Z</time>
      </trkpt>
      <trkpt lat="44.37295" lon="5.91078">
        <ele>622.5910645</ele>
        <time>2016-03-10T10:13:27Z</time>
      </trkpt>
      <trkpt lat="44.37279" lon="5.91016">
        <ele>624.5136719</ele>
        <time>2016-03-10T10:13:48Z</time>
      </trkpt>
      <trkpt lat="44.37274" lon="5.90976">
        <ele>625.9555664</ele>
        <time>2016-03-10T10:14:00Z</time>
      </trkpt>
      <trkpt lat="44.37277" lon="5.90954">
        <ele>626.9169922</ele>
        <time>2016-03-10T10:14:08Z</time>
      </trkpt>
      <trkpt lat="44.3728" lon="5.90903">
        <ele>629.8007813</ele>
        <time>2016-03-10T10:14:26Z</time>
      </trkpt>
      <trkpt lat="44.37279" lon="5.90866">
        <ele>632.2041016</ele>
        <time>2016-03-10T10:14:39Z</time>
      </trkpt>
      <trkpt lat="44.37262" lon="5.90807">
        <ele>634.126709</ele>
        <time>2016-03-10T10:14:58Z</time>
      </trkpt>
      <trkpt lat="44.37247" lon="5.90779">
        <ele>636.0495605</ele>
        <time>2016-03-10T10:15:10Z</time>
      </trkpt>
      <trkpt lat="44.37228" lon="5.90766">
        <ele>637.4914551</ele>
        <time>2016-03-10T10:15:21Z</time>
      </trkpt>
      <trkpt lat="44.37217" lon="5.90761">
        <ele>637.972168</ele>
        <time>2016-03-10T10:15:26Z</time>
      </trkpt>
      <trkpt lat="44.37184" lon="5.90751">
        <ele>638.4528809</ele>
        <time>2016-03-10T10:15:38Z</time>
      </trkpt>
      <trkpt lat="44.37179" lon="5.90731">
        <ele>639.4140625</ele>
        <time>2016-03-10T10:15:44Z</time>
      </trkpt>
      <trkpt lat="44.37197" lon="5.90669">
        <ele>639.8947754</ele>
        <time>2016-03-10T10:16:01Z</time>
      </trkpt>
      <trkpt lat="44.37206" lon="5.9065">
        <ele>639.8947754</ele>
        <time>2016-03-10T10:16:07Z</time>
      </trkpt>
      <trkpt lat="44.37223" lon="5.90628">
        <ele>641.8173828</ele>
        <time>2016-03-10T10:16:18Z</time>
      </trkpt>
      <trkpt lat="44.37234" lon="5.90616">
        <ele>642.2980957</ele>
        <time>2016-03-10T10:16:23Z</time>
      </trkpt>
      <trkpt lat="44.37244" lon="5.90579">
        <ele>640.855957</ele>
        <time>2016-03-10T10:16:32Z</time>
      </trkpt>
      <trkpt lat="44.37248" lon="5.90564">
        <ele>641.8173828</ele>
        <time>2016-03-10T10:16:35Z</time>
      </trkpt>
      <trkpt lat="44.37252" lon="5.90528">
        <ele>641.3366699</ele>
        <time>2016-03-10T10:16:40Z</time>
      </trkpt>
      <trkpt lat="44.37265" lon="5.90477">
        <ele>639.4140625</ele>
        <time>2016-03-10T10:16:46Z</time>
      </trkpt>
      <trkpt lat="44.37266" lon="5.90459">
        <ele>637.972168</ele>
        <time>2016-03-10T10:16:48Z</time>
      </trkpt>
      <trkpt lat="44.37262" lon="5.90433">
        <ele>637.4914551</ele>
        <time>2016-03-10T10:16:51Z</time>
      </trkpt>
      <trkpt lat="44.37264" lon="5.9039">
        <ele>636.0495605</ele>
        <time>2016-03-10T10:16:55Z</time>
      </trkpt>
      <trkpt lat="44.37287" lon="5.90324">
        <ele>632.6848145</ele>
        <time>2016-03-10T10:17:01Z</time>
      </trkpt>
      <trkpt lat="44.37307" lon="5.90269">
        <ele>630.2814941</ele>
        <time>2016-03-10T10:17:06Z</time>
      </trkpt>
      <trkpt lat="44.37315" lon="5.90252">
        <ele>626.4362793</ele>
        <time>2016-03-10T10:17:08Z</time>
      </trkpt>
      <trkpt lat="44.37318" lon="5.90241">
        <ele>626.4362793</ele>
        <time>2016-03-10T10:17:09Z</time>
      </trkpt>
      <trkpt lat="44.37333" lon="5.90217">
        <ele>624.5136719</ele>
        <time>2016-03-10T10:17:13Z</time>
      </trkpt>
      <trkpt lat="44.37361" lon="5.90241">
        <ele>624.032959</ele>
        <time>2016-03-10T10:17:17Z</time>
      </trkpt>
      <trkpt lat="44.37397" lon="5.90288">
        <ele>622.5910645</ele>
        <time>2016-03-10T10:17:25Z</time>
      </trkpt>
      <trkpt lat="44.37418" lon="5.90293">
        <ele>621.6296387</ele>
        <time>2016-03-10T10:17:32Z</time>
      </trkpt>
      <trkpt lat="44.3742" lon="5.90288">
        <ele>621.1491699</ele>
        <time>2016-03-10T10:17:34Z</time>
      </trkpt>
      <trkpt lat="44.37411" lon="5.90269">
        <ele>620.1877441</ele>
        <time>2016-03-10T10:17:39Z</time>
      </trkpt>
      <trkpt lat="44.37356" lon="5.90195">
        <ele>619.2263184</ele>
        <time>2016-03-10T10:17:53Z</time>
      </trkpt>
      <trkpt lat="44.37321" lon="5.90154">
        <ele>618.2648926</ele>
        <time>2016-03-10T10:17:59Z</time>
      </trkpt>
      <trkpt lat="44.37304" lon="5.90135">
        <ele>617.7841797</ele>
        <time>2016-03-10T10:18:02Z</time>
      </trkpt>
      <trkpt lat="44.37209" lon="5.90004">
        <ele>614.4196777</ele>
        <time>2016-03-10T10:18:19Z</time>
      </trkpt>
      <trkpt lat="44.37193" lon="5.89982">
        <ele>611.5358887</ele>
        <time>2016-03-10T10:18:24Z</time>
      </trkpt>
      <trkpt lat="44.37179" lon="5.89963">
        <ele>611.5358887</ele>
        <time>2016-03-10T10:18:30Z</time>
      </trkpt>
      <trkpt lat="44.37126" lon="5.89943">
        <ele>611.0551758</ele>
        <time>2016-03-10T10:18:46Z</time>
      </trkpt>
      <trkpt lat="44.37103" lon="5.89965">
        <ele>611.5358887</ele>
        <time>2016-03-10T10:18:55Z</time>
      </trkpt>
      <trkpt lat="44.37067" lon="5.90002">
        <ele>614.4196777</ele>
        <time>2016-03-10T10:19:10Z</time>
      </trkpt>
      <trkpt lat="44.37037" lon="5.90009">
        <ele>616.822998</ele>
        <time>2016-03-10T10:19:22Z</time>
      </trkpt>
      <trkpt lat="44.36984" lon="5.89993">
        <ele>617.7841797</ele>
        <time>2016-03-10T10:19:40Z</time>
      </trkpt>
      <trkpt lat="44.36921" lon="5.89958">
        <ele>614.9003906</ele>
        <time>2016-03-10T10:19:52Z</time>
      </trkpt>
      <trkpt lat="44.36842" lon="5.89897">
        <ele>612.0166016</ele>
        <time>2016-03-10T10:20:03Z</time>
      </trkpt>
      <trkpt lat="44.36798" lon="5.89839">
        <ele>612.0166016</ele>
        <time>2016-03-10T10:20:11Z</time>
      </trkpt>
      <trkpt lat="44.3678" lon="5.89791">
        <ele>612.9777832</ele>
        <time>2016-03-10T10:20:23Z</time>
      </trkpt>
      <trkpt lat="44.36749" lon="5.89726">
        <ele>613.4584961</ele>
        <time>2016-03-10T10:20:39Z</time>
      </trkpt>
      <trkpt lat="44.36683" lon="5.89625">
        <ele>612.9777832</ele>
        <time>2016-03-10T10:20:59Z</time>
      </trkpt>
      <trkpt lat="44.36636" lon="5.89551">
        <ele>611.0551758</ele>
        <time>2016-03-10T10:21:12Z</time>
      </trkpt>
      <trkpt lat="44.36598" lon="5.89493">
        <ele>611.5358887</ele>
        <time>2016-03-10T10:21:24Z</time>
      </trkpt>
      <trkpt lat="44.36591" lon="5.8948">
        <ele>611.5358887</ele>
        <time>2016-03-10T10:21:27Z</time>
      </trkpt>
      <trkpt lat="44.3656" lon="5.89421">
        <ele>612.0166016</ele>
        <time>2016-03-10T10:21:39Z</time>
      </trkpt>
      <trkpt lat="44.36553" lon="5.89391">
        <ele>611.5358887</ele>
        <time>2016-03-10T10:21:44Z</time>
      </trkpt>
      <trkpt lat="44.36533" lon="5.89294">
        <ele>612.0166016</ele>
        <time>2016-03-10T10:22:01Z</time>
      </trkpt>
      <trkpt lat="44.36512" lon="5.8923">
        <ele>613.9389648</ele>
        <time>2016-03-10T10:22:21Z</time>
      </trkpt>
      <trkpt lat="44.36495" lon="5.89183">
        <ele>616.3422852</ele>
        <time>2016-03-10T10:22:37Z</time>
      </trkpt>
      <trkpt lat="44.36468" lon="5.89117">
        <ele>616.822998</ele>
        <time>2016-03-10T10:22:57Z</time>
      </trkpt>
      <trkpt lat="44.36441" lon="5.89045">
        <ele>619.7070313</ele>
        <time>2016-03-10T10:23:20Z</time>
      </trkpt>
      <trkpt lat="44.36414" lon="5.88975">
        <ele>620.1877441</ele>
        <time>2016-03-10T10:23:39Z</time>
      </trkpt>
      <trkpt lat="44.36385" lon="5.88894">
        <ele>620.1877441</ele>
        <time>2016-03-10T10:23:54Z</time>
      </trkpt>
      <trkpt lat="44.36356" lon="5.88832">
        <ele>622.5910645</ele>
        <time>2016-03-10T10:24:14Z</time>
      </trkpt>
      <trkpt lat="44.36339" lon="5.88769">
        <ele>624.032959</ele>
        <time>2016-03-10T10:24:34Z</time>
      </trkpt>
      <trkpt lat="44.36346" lon="5.88706">
        <ele>624.9943848</ele>
        <time>2016-03-10T10:24:50Z</time>
      </trkpt>
      <trkpt lat="44.36368" lon="5.88648">
        <ele>624.032959</ele>
        <time>2016-03-10T10:25:02Z</time>
      </trkpt>
      <trkpt lat="44.3637" lon="5.88577">
        <ele>624.032959</ele>
        <time>2016-03-10T10:25:14Z</time>
      </trkpt>
      <trkpt lat="44.36373" lon="5.88479">
        <ele>623.0717773</ele>
        <time>2016-03-10T10:25:30Z</time>
      </trkpt>
      <trkpt lat="44.36364" lon="5.88398">
        <ele>623.0717773</ele>
        <time>2016-03-10T10:25:39Z</time>
      </trkpt>
      <trkpt lat="44.36351" lon="5.88362">
        <ele>622.1103516</ele>
        <time>2016-03-10T10:25:43Z</time>
      </trkpt>
      <trkpt lat="44.36325" lon="5.88298">
        <ele>622.1103516</ele>
        <time>2016-03-10T10:25:54Z</time>
      </trkpt>
      <trkpt lat="44.36316" lon="5.88246">
        <ele>624.5136719</ele>
        <time>2016-03-10T10:26:09Z</time>
      </trkpt>
      <trkpt lat="44.36305" lon="5.88197">
        <ele>625.4748535</ele>
        <time>2016-03-10T10:26:22Z</time>
      </trkpt>
      <trkpt lat="44.36302" lon="5.88182">
        <ele>625.9555664</ele>
        <time>2016-03-10T10:26:26Z</time>
      </trkpt>
      <trkpt lat="44.36291" lon="5.88154">
        <ele>626.4362793</ele>
        <time>2016-03-10T10:26:35Z</time>
      </trkpt>
      <trkpt lat="44.3627" lon="5.88071">
        <ele>625.4748535</ele>
        <time>2016-03-10T10:26:53Z</time>
      </trkpt>
      <trkpt lat="44.36253" lon="5.88011">
        <ele>625.9555664</ele>
        <time>2016-03-10T10:27:08Z</time>
      </trkpt>
      <trkpt lat="44.36238" lon="5.87956">
        <ele>628.8395996</ele>
        <time>2016-03-10T10:27:25Z</time>
      </trkpt>
      <trkpt lat="44.3624" lon="5.87902">
        <ele>631.2429199</ele>
        <time>2016-03-10T10:27:41Z</time>
      </trkpt>
      <trkpt lat="44.36234" lon="5.87833">
        <ele>630.2814941</ele>
        <time>2016-03-10T10:27:57Z</time>
      </trkpt>
      <trkpt lat="44.36221" lon="5.87791">
        <ele>630.762207</ele>
        <time>2016-03-10T10:28:07Z</time>
      </trkpt>
      <trkpt lat="44.36219" lon="5.87773">
        <ele>631.7233887</ele>
        <time>2016-03-10T10:28:12Z</time>
      </trkpt>
      <trkpt lat="44.36215" lon="5.87763">
        <ele>631.7233887</ele>
        <time>2016-03-10T10:28:15Z</time>
      </trkpt>
      <trkpt lat="44.36213" lon="5.87752">
        <ele>631.7233887</ele>
        <time>2016-03-10T10:28:18Z</time>
      </trkpt>
      <trkpt lat="44.36212" lon="5.87702">
        <ele>633.6459961</ele>
        <time>2016-03-10T10:28:32Z</time>
      </trkpt>
      <trkpt lat="44.3621" lon="5.87651">
        <ele>635.5686035</ele>
        <time>2016-03-10T10:28:48Z</time>
      </trkpt>
      <trkpt lat="44.36202" lon="5.87612">
        <ele>636.5302734</ele>
        <time>2016-03-10T10:29:02Z</time>
      </trkpt>
      <trkpt lat="44.36192" lon="5.87583">
        <ele>637.972168</ele>
        <time>2016-03-10T10:29:12Z</time>
      </trkpt>
      <trkpt lat="44.36191" lon="5.87575">
        <ele>638.4528809</ele>
        <time>2016-03-10T10:29:15Z</time>
      </trkpt>
      <trkpt lat="44.36187" lon="5.87546">
        <ele>638.9335938</ele>
        <time>2016-03-10T10:29:26Z</time>
      </trkpt>
      <trkpt lat="44.36179" lon="5.87506">
        <ele>640.3754883</ele>
        <time>2016-03-10T10:29:39Z</time>
      </trkpt>
      <trkpt lat="44.36181" lon="5.87465">
        <ele>642.2980957</ele>
        <time>2016-03-10T10:29:52Z</time>
      </trkpt>
      <trkpt lat="44.362" lon="5.87401">
        <ele>644.2207031</ele>
        <time>2016-03-10T10:30:12Z</time>
      </trkpt>
      <trkpt lat="44.36202" lon="5.87358">
        <ele>646.1433105</ele>
        <time>2016-03-10T10:30:27Z</time>
      </trkpt>
      <trkpt lat="44.36176" lon="5.8732">
        <ele>648.065918</ele>
        <time>2016-03-10T10:30:46Z</time>
      </trkpt>
      <trkpt lat="44.36157" lon="5.87298">
        <ele>650.4692383</ele>
        <time>2016-03-10T10:30:59Z</time>
      </trkpt>
      <trkpt lat="44.36142" lon="5.87268">
        <ele>652.3918457</ele>
        <time>2016-03-10T10:31:12Z</time>
      </trkpt>
      <trkpt lat="44.3614" lon="5.87251">
        <ele>653.3532715</ele>
        <time>2016-03-10T10:31:20Z</time>
      </trkpt>
      <trkpt lat="44.36135" lon="5.87244">
        <ele>653.3532715</ele>
        <time>2016-03-10T10:31:24Z</time>
      </trkpt>
      <trkpt lat="44.36131" lon="5.87194">
        <ele>655.7565918</ele>
        <time>2016-03-10T10:31:44Z</time>
      </trkpt>
      <trkpt lat="44.36126" lon="5.87158">
        <ele>657.1984863</ele>
        <time>2016-03-10T10:31:57Z</time>
      </trkpt>
      <trkpt lat="44.36124" lon="5.87153">
        <ele>657.1984863</ele>
        <time>2016-03-10T10:31:59Z</time>
      </trkpt>
      <trkpt lat="44.36117" lon="5.87116">
        <ele>658.6403809</ele>
        <time>2016-03-10T10:32:14Z</time>
      </trkpt>
      <trkpt lat="44.36108" lon="5.87069">
        <ele>661.0437012</ele>
        <time>2016-03-10T10:32:33Z</time>
      </trkpt>
      <trkpt lat="44.36097" lon="5.87014">
        <ele>663.9274902</ele>
        <time>2016-03-10T10:32:57Z</time>
      </trkpt>
      <trkpt lat="44.36082" lon="5.86978">
        <ele>666.3308105</ele>
        <time>2016-03-10T10:33:15Z</time>
      </trkpt>
      <trkpt lat="44.36062" lon="5.86934">
        <ele>669.2150879</ele>
        <time>2016-03-10T10:33:37Z</time>
      </trkpt>
      <trkpt lat="44.36028" lon="5.86859">
        <ele>671.6181641</ele>
        <time>2016-03-10T10:34:12Z</time>
      </trkpt>
      <trkpt lat="44.36" lon="5.86803">
        <ele>674.0214844</ele>
        <time>2016-03-10T10:34:38Z</time>
      </trkpt>
      <trkpt lat="44.35974" lon="5.86753">
        <ele>674.9829102</ele>
        <time>2016-03-10T10:35:00Z</time>
      </trkpt>
      <trkpt lat="44.35948" lon="5.86696">
        <ele>676.4248047</ele>
        <time>2016-03-10T10:35:22Z</time>
      </trkpt>
      <trkpt lat="44.3594" lon="5.86658">
        <ele>676.9055176</ele>
        <time>2016-03-10T10:35:34Z</time>
      </trkpt>
      <trkpt lat="44.35931" lon="5.86602">
        <ele>678.828125</ele>
        <time>2016-03-10T10:35:51Z</time>
      </trkpt>
      <trkpt lat="44.35918" lon="5.86536">
        <ele>678.828125</ele>
        <time>2016-03-10T10:36:11Z</time>
      </trkpt>
      <trkpt lat="44.35901" lon="5.86478">
        <ele>679.3085938</ele>
        <time>2016-03-10T10:36:29Z</time>
      </trkpt>
      <trkpt lat="44.35882" lon="5.86399">
        <ele>679.7893066</ele>
        <time>2016-03-10T10:36:51Z</time>
      </trkpt>
      <trkpt lat="44.35871" lon="5.86336">
        <ele>680.2700195</ele>
        <time>2016-03-10T10:37:08Z</time>
      </trkpt>
      <trkpt lat="44.35831" lon="5.86245">
        <ele>678.828125</ele>
        <time>2016-03-10T10:37:28Z</time>
      </trkpt>
      <trkpt lat="44.35805" lon="5.86146">
        <ele>678.3474121</ele>
        <time>2016-03-10T10:37:45Z</time>
      </trkpt>
      <trkpt lat="44.35786" lon="5.86043">
        <ele>676.9055176</ele>
        <time>2016-03-10T10:38:03Z</time>
      </trkpt>
      <trkpt lat="44.35785" lon="5.86034">
        <ele>676.9055176</ele>
        <time>2016-03-10T10:38:12Z</time>
      </trkpt>
      <trkpt lat="44.35773" lon="5.86018">
        <ele>676.9055176</ele>
        <time>2016-03-10T10:40:10Z</time>
      </trkpt>
      <trkpt lat="44.35732" lon="5.85952">
        <ele>675.9440918</ele>
        <time>2016-03-10T10:40:24Z</time>
      </trkpt>
      <trkpt lat="44.35729" lon="5.85946">
        <ele>675.9440918</ele>
        <time>2016-03-10T10:40:25Z</time>
      </trkpt>
      <trkpt lat="44.35669" lon="5.85847">
        <ele>673.0603027</ele>
        <time>2016-03-10T10:40:41Z</time>
      </trkpt>
      <trkpt lat="44.35603" lon="5.85751">
        <ele>670.6569824</ele>
        <time>2016-03-10T10:40:55Z</time>
      </trkpt>
      <trkpt lat="44.35549" lon="5.85692">
        <ele>669.2150879</ele>
        <time>2016-03-10T10:41:04Z</time>
      </trkpt>
      <trkpt lat="44.35531" lon="5.85672">
        <ele>667.2922363</ele>
        <time>2016-03-10T10:41:07Z</time>
      </trkpt>
      <trkpt lat="44.35479" lon="5.85617">
        <ele>666.8115234</ele>
        <time>2016-03-10T10:41:16Z</time>
      </trkpt>
      <trkpt lat="44.35452" lon="5.85586">
        <ele>663.9274902</ele>
        <time>2016-03-10T10:41:21Z</time>
      </trkpt>
      <trkpt lat="44.3543" lon="5.85562">
        <ele>663.9274902</ele>
        <time>2016-03-10T10:41:25Z</time>
      </trkpt>
      <trkpt lat="44.354" lon="5.85528">
        <ele>661.0437012</ele>
        <time>2016-03-10T10:41:31Z</time>
      </trkpt>
      <trkpt lat="44.35347" lon="5.85473">
        <ele>659.1210938</ele>
        <time>2016-03-10T10:41:41Z</time>
      </trkpt>
      <trkpt lat="44.35327" lon="5.85452">
        <ele>656.7177734</ele>
        <time>2016-03-10T10:41:46Z</time>
      </trkpt>
      <trkpt lat="44.3532" lon="5.85453">
        <ele>656.7177734</ele>
        <time>2016-03-10T10:41:54Z</time>
      </trkpt>
      <trkpt lat="44.35317" lon="5.85482">
        <ele>656.7177734</ele>
        <time>2016-03-10T10:42:07Z</time>
      </trkpt>
      <trkpt lat="44.35317" lon="5.85537">
        <ele>656.7177734</ele>
        <time>2016-03-10T10:42:20Z</time>
      </trkpt>
      <trkpt lat="44.35315" lon="5.85621">
        <ele>657.6791992</ele>
        <time>2016-03-10T10:42:37Z</time>
      </trkpt>
      <trkpt lat="44.353" lon="5.8572">
        <ele>657.1984863</ele>
        <time>2016-03-10T10:42:56Z</time>
      </trkpt>
      <trkpt lat="44.35298" lon="5.85731">
        <ele>657.1984863</ele>
        <time>2016-03-10T10:42:58Z</time>
      </trkpt>
      <trkpt lat="44.35273" lon="5.85866">
        <ele>657.6791992</ele>
        <time>2016-03-10T10:43:23Z</time>
      </trkpt>
      <trkpt lat="44.35245" lon="5.86015">
        <ele>656.7177734</ele>
        <time>2016-03-10T10:43:47Z</time>
      </trkpt>
      <trkpt lat="44.35241" lon="5.86041">
        <ele>656.2370605</ele>
        <time>2016-03-10T10:43:51Z</time>
      </trkpt>
      <trkpt lat="44.35222" lon="5.86164">
        <ele>657.1984863</ele>
        <time>2016-03-10T10:44:11Z</time>
      </trkpt>
      <trkpt lat="44.35215" lon="5.86256">
        <ele>656.7177734</ele>
        <time>2016-03-10T10:44:26Z</time>
      </trkpt>
      <trkpt lat="44.35181" lon="5.8635">
        <ele>657.1984863</ele>
        <time>2016-03-10T10:44:43Z</time>
      </trkpt>
      <trkpt lat="44.35171" lon="5.86366">
        <ele>657.6791992</ele>
        <time>2016-03-10T10:44:47Z</time>
      </trkpt>
      <trkpt lat="44.35128" lon="5.86425">
        <ele>657.6791992</ele>
        <time>2016-03-10T10:45:02Z</time>
      </trkpt>
      <trkpt lat="44.3509" lon="5.8648">
        <ele>657.6791992</ele>
        <time>2016-03-10T10:45:13Z</time>
      </trkpt>
      <trkpt lat="44.35073" lon="5.86509">
        <ele>656.2370605</ele>
        <time>2016-03-10T10:45:17Z</time>
      </trkpt>
      <trkpt lat="44.35043" lon="5.86558">
        <ele>653.8339844</ele>
        <time>2016-03-10T10:45:24Z</time>
      </trkpt>
      <trkpt lat="44.34982" lon="5.86655">
        <ele>651.4304199</ele>
        <time>2016-03-10T10:45:40Z</time>
      </trkpt>
      <trkpt lat="44.34963" lon="5.86679">
        <ele>651.4304199</ele>
        <time>2016-03-10T10:45:45Z</time>
      </trkpt>
      <trkpt lat="44.34948" lon="5.86693">
        <ele>651.4304199</ele>
        <time>2016-03-10T10:45:49Z</time>
      </trkpt>
      <trkpt lat="44.34916" lon="5.86713">
        <ele>651.9111328</ele>
        <time>2016-03-10T10:45:57Z</time>
      </trkpt>
      <trkpt lat="44.34888" lon="5.86744">
        <ele>650.949707</ele>
        <time>2016-03-10T10:46:05Z</time>
      </trkpt>
      <trkpt lat="44.34839" lon="5.86828">
        <ele>650.4692383</ele>
        <time>2016-03-10T10:46:21Z</time>
      </trkpt>
      <trkpt lat="44.34831" lon="5.86843">
        <ele>649.9885254</ele>
        <time>2016-03-10T10:46:24Z</time>
      </trkpt>
      <trkpt lat="44.34781" lon="5.86908">
        <ele>650.4692383</ele>
        <time>2016-03-10T10:46:41Z</time>
      </trkpt>
      <trkpt lat="44.34713" lon="5.86926">
        <ele>651.9111328</ele>
        <time>2016-03-10T10:47:00Z</time>
      </trkpt>
      <trkpt lat="44.34656" lon="5.86918">
        <ele>653.3532715</ele>
        <time>2016-03-10T10:47:18Z</time>
      </trkpt>
      <trkpt lat="44.34635" lon="5.86874">
        <ele>654.3146973</ele>
        <time>2016-03-10T10:47:30Z</time>
      </trkpt>
      <trkpt lat="44.34607" lon="5.86825">
        <ele>654.3146973</ele>
        <time>2016-03-10T10:47:44Z</time>
      </trkpt>
      <trkpt lat="44.34559" lon="5.86808">
        <ele>654.795166</ele>
        <time>2016-03-10T10:48:00Z</time>
      </trkpt>
      <trkpt lat="44.34529" lon="5.86805">
        <ele>656.2370605</ele>
        <time>2016-03-10T10:48:13Z</time>
      </trkpt>
      <trkpt lat="44.34498" lon="5.86816">
        <ele>658.1599121</ele>
        <time>2016-03-10T10:48:31Z</time>
      </trkpt>
      <trkpt lat="44.34479" lon="5.86828">
        <ele>660.0822754</ele>
        <time>2016-03-10T10:48:43Z</time>
      </trkpt>
      <trkpt lat="44.34456" lon="5.86841">
        <ele>662.4855957</ele>
        <time>2016-03-10T10:48:58Z</time>
      </trkpt>
      <trkpt lat="44.3444" lon="5.86847">
        <ele>664.4082031</ele>
        <time>2016-03-10T10:49:10Z</time>
      </trkpt>
      <trkpt lat="44.34426" lon="5.86854">
        <ele>665.3696289</ele>
        <time>2016-03-10T10:49:20Z</time>
      </trkpt>
      <trkpt lat="44.34424" lon="5.86855">
        <ele>665.3696289</ele>
        <time>2016-03-10T10:49:21Z</time>
      </trkpt>
      <trkpt lat="44.34406" lon="5.86858">
        <ele>667.2922363</ele>
        <time>2016-03-10T10:49:32Z</time>
      </trkpt>
      <trkpt lat="44.34382" lon="5.86852">
        <ele>669.2150879</ele>
        <time>2016-03-10T10:49:48Z</time>
      </trkpt>
      <trkpt lat="44.3435" lon="5.86837">
        <ele>672.098877</ele>
        <time>2016-03-10T10:50:10Z</time>
      </trkpt>
      <trkpt lat="44.34328" lon="5.86828">
        <ele>674.0214844</ele>
        <time>2016-03-10T10:50:26Z</time>
      </trkpt>
      <trkpt lat="44.34319" lon="5.86827">
        <ele>674.5021973</ele>
        <time>2016-03-10T10:50:32Z</time>
      </trkpt>
      <trkpt lat="44.34312" lon="5.86832">
        <ele>675.4633789</ele>
        <time>2016-03-10T10:50:38Z</time>
      </trkpt>
      <trkpt lat="44.34308" lon="5.8684">
        <ele>675.9440918</ele>
        <time>2016-03-10T10:50:42Z</time>
      </trkpt>
      <trkpt lat="44.34306" lon="5.86846">
        <ele>675.9440918</ele>
        <time>2016-03-10T10:50:45Z</time>
      </trkpt>
      <trkpt lat="44.3432" lon="5.86875">
        <ele>676.9055176</ele>
        <time>2016-03-10T10:51:01Z</time>
      </trkpt>
      <trkpt lat="44.34337" lon="5.86893">
        <ele>677.8666992</ele>
        <time>2016-03-10T10:51:13Z</time>
      </trkpt>
      <trkpt lat="44.3435" lon="5.86908">
        <ele>679.3085938</ele>
        <time>2016-03-10T10:51:22Z</time>
      </trkpt>
      <trkpt lat="44.3436" lon="5.86913">
        <ele>679.7893066</ele>
        <time>2016-03-10T10:51:29Z</time>
      </trkpt>
      <trkpt lat="44.34387" lon="5.86922">
        <ele>682.192627</ele>
        <time>2016-03-10T10:51:47Z</time>
      </trkpt>
      <trkpt lat="44.34393" lon="5.8692">
        <ele>683.1538086</ele>
        <time>2016-03-10T10:51:51Z</time>
      </trkpt>
      <trkpt lat="44.3442" lon="5.86929">
        <ele>685.0769043</ele>
        <time>2016-03-10T10:52:10Z</time>
      </trkpt>
      <trkpt lat="44.3443" lon="5.8694">
        <ele>686.5187988</ele>
        <time>2016-03-10T10:52:22Z</time>
      </trkpt>
      <trkpt lat="44.34431" lon="5.86941">
        <ele>686.5187988</ele>
        <time>2016-03-10T10:53:01Z</time>
      </trkpt>
      <trkpt lat="44.34433" lon="5.86952">
        <ele>686.9992676</ele>
        <time>2016-03-10T10:53:06Z</time>
      </trkpt>
      <trkpt lat="44.34438" lon="5.86964">
        <ele>687.4799805</ele>
        <time>2016-03-10T10:53:10Z</time>
      </trkpt>
      <trkpt lat="44.34453" lon="5.87011">
        <ele>689.8833008</ele>
        <time>2016-03-10T10:53:26Z</time>
      </trkpt>
      <trkpt lat="44.34449" lon="5.8707">
        <ele>689.8833008</ele>
        <time>2016-03-10T10:53:40Z</time>
      </trkpt>
      <trkpt lat="44.34435" lon="5.87166">
        <ele>689.8833008</ele>
        <time>2016-03-10T10:53:57Z</time>
      </trkpt>
      <trkpt lat="44.34423" lon="5.87232">
        <ele>690.3640137</ele>
        <time>2016-03-10T10:54:11Z</time>
      </trkpt>
      <trkpt lat="44.34417" lon="5.87239">
        <ele>690.3640137</ele>
        <time>2016-03-10T10:54:13Z</time>
      </trkpt>
      <trkpt lat="44.34345" lon="5.87269">
        <ele>687.4799805</ele>
        <time>2016-03-10T10:54:26Z</time>
      </trkpt>
      <trkpt lat="44.3433" lon="5.87272">
        <ele>686.0380859</ele>
        <time>2016-03-10T10:54:28Z</time>
      </trkpt>
      <trkpt lat="44.34306" lon="5.87277">
        <ele>685.0769043</ele>
        <time>2016-03-10T10:54:31Z</time>
      </trkpt>
      <trkpt lat="44.34215" lon="5.87327">
        <ele>682.6733398</ele>
        <time>2016-03-10T10:54:44Z</time>
      </trkpt>
      <trkpt lat="44.34185" lon="5.87342">
        <ele>682.192627</ele>
        <time>2016-03-10T10:54:49Z</time>
      </trkpt>
      <trkpt lat="44.34148" lon="5.87339">
        <ele>679.3085938</ele>
        <time>2016-03-10T10:54:55Z</time>
      </trkpt>
      <trkpt lat="44.3411" lon="5.8732">
        <ele>676.4248047</ele>
        <time>2016-03-10T10:55:02Z</time>
      </trkpt>
      <trkpt lat="44.34048" lon="5.87298">
        <ele>675.9440918</ele>
        <time>2016-03-10T10:55:11Z</time>
      </trkpt>
      <trkpt lat="44.33999" lon="5.87304">
        <ele>674.0214844</ele>
        <time>2016-03-10T10:55:17Z</time>
      </trkpt>
      <trkpt lat="44.33982" lon="5.87303">
        <ele>673.5410156</ele>
        <time>2016-03-10T10:55:19Z</time>
      </trkpt>
      <trkpt lat="44.33947" lon="5.87298">
        <ele>672.5795898</ele>
        <time>2016-03-10T10:55:23Z</time>
      </trkpt>
      <trkpt lat="44.33864" lon="5.87255">
        <ele>669.2150879</ele>
        <time>2016-03-10T10:55:33Z</time>
      </trkpt>
      <trkpt lat="44.33796" lon="5.87236">
        <ele>666.8115234</ele>
        <time>2016-03-10T10:55:41Z</time>
      </trkpt>
      <trkpt lat="44.33765" lon="5.87239">
        <ele>665.8503418</ele>
        <time>2016-03-10T10:55:45Z</time>
      </trkpt>
      <trkpt lat="44.33749" lon="5.87244">
        <ele>663.9274902</ele>
        <time>2016-03-10T10:55:47Z</time>
      </trkpt>
      <trkpt lat="44.33693" lon="5.87259">
        <ele>663.9274902</ele>
        <time>2016-03-10T10:55:54Z</time>
      </trkpt>
      <trkpt lat="44.33671" lon="5.87257">
        <ele>661.5244141</ele>
        <time>2016-03-10T10:55:58Z</time>
      </trkpt>
      <trkpt lat="44.33671" lon="5.87258">
        <ele>660.0822754</ele>
        <time>2016-03-10T10:56:00Z</time>
      </trkpt>
      <trkpt lat="44.33653" lon="5.8724">
        <ele>658.1599121</ele>
        <time>2016-03-10T10:56:35Z</time>
      </trkpt>
      <trkpt lat="44.33652" lon="5.8724">
        <ele>657.6791992</ele>
        <time>2016-03-10T10:56:47Z</time>
      </trkpt>
      <trkpt lat="44.33669" lon="5.87264">
        <ele>658.6403809</ele>
        <time>2016-03-10T10:56:58Z</time>
      </trkpt>
      <trkpt lat="44.33666" lon="5.87295">
        <ele>659.1210938</ele>
        <time>2016-03-10T10:57:07Z</time>
      </trkpt>
      <trkpt lat="44.33644" lon="5.87326">
        <ele>661.0437012</ele>
        <time>2016-03-10T10:57:21Z</time>
      </trkpt>
      <trkpt lat="44.33626" lon="5.87344">
        <ele>663.9274902</ele>
        <time>2016-03-10T10:57:32Z</time>
      </trkpt>
      <trkpt lat="44.3362" lon="5.87348">
        <ele>664.4082031</ele>
        <time>2016-03-10T10:57:35Z</time>
      </trkpt>
      <trkpt lat="44.33612" lon="5.87377">
        <ele>667.2922363</ele>
        <time>2016-03-10T10:57:47Z</time>
      </trkpt>
      <trkpt lat="44.33611" lon="5.8742">
        <ele>669.2150879</ele>
        <time>2016-03-10T10:58:02Z</time>
      </trkpt>
      <trkpt lat="44.33611" lon="5.87423">
        <ele>669.2150879</ele>
        <time>2016-03-10T10:58:03Z</time>
      </trkpt>
      <trkpt lat="44.33611" lon="5.87428">
        <ele>669.2150879</ele>
        <time>2016-03-10T10:58:05Z</time>
      </trkpt>
      <trkpt lat="44.33614" lon="5.8747">
        <ele>673.0603027</ele>
        <time>2016-03-10T10:58:20Z</time>
      </trkpt>
      <trkpt lat="44.33613" lon="5.87472">
        <ele>673.5410156</ele>
        <time>2016-03-10T10:58:21Z</time>
      </trkpt>
      <trkpt lat="44.33601" lon="5.87532">
        <ele>674.0214844</ele>
        <time>2016-03-10T10:58:41Z</time>
      </trkpt>
      <trkpt lat="44.33596" lon="5.87583">
        <ele>673.0603027</ele>
        <time>2016-03-10T10:58:56Z</time>
      </trkpt>
      <trkpt lat="44.33596" lon="5.87649">
        <ele>673.5410156</ele>
        <time>2016-03-10T10:59:13Z</time>
      </trkpt>
      <trkpt lat="44.33593" lon="5.87719">
        <ele>674.0214844</ele>
        <time>2016-03-10T10:59:27Z</time>
      </trkpt>
      <trkpt lat="44.33562" lon="5.87815">
        <ele>671.6181641</ele>
        <time>2016-03-10T10:59:40Z</time>
      </trkpt>
      <trkpt lat="44.33554" lon="5.8784">
        <ele>670.6569824</ele>
        <time>2016-03-10T10:59:43Z</time>
      </trkpt>
      <trkpt lat="44.33538" lon="5.87865">
        <ele>671.1376953</ele>
        <time>2016-03-10T10:59:47Z</time>
      </trkpt>
      <trkpt lat="44.3348" lon="5.87907">
        <ele>672.098877</ele>
        <time>2016-03-10T11:00:01Z</time>
      </trkpt>
      <trkpt lat="44.3347" lon="5.87917">
        <ele>671.1376953</ele>
        <time>2016-03-10T11:00:03Z</time>
      </trkpt>
      <trkpt lat="44.33456" lon="5.87935">
        <ele>671.1376953</ele>
        <time>2016-03-10T11:00:06Z</time>
      </trkpt>
      <trkpt lat="44.33431" lon="5.88006">
        <ele>670.1762695</ele>
        <time>2016-03-10T11:00:17Z</time>
      </trkpt>
      <trkpt lat="44.33424" lon="5.88044">
        <ele>670.1762695</ele>
        <time>2016-03-10T11:00:23Z</time>
      </trkpt>
      <trkpt lat="44.33421" lon="5.88065">
        <ele>670.1762695</ele>
        <time>2016-03-10T11:00:26Z</time>
      </trkpt>
      <trkpt lat="44.33377" lon="5.88146">
        <ele>669.2150879</ele>
        <time>2016-03-10T11:00:43Z</time>
      </trkpt>
      <trkpt lat="44.33348" lon="5.88217">
        <ele>671.1376953</ele>
        <time>2016-03-10T11:01:01Z</time>
      </trkpt>
      <trkpt lat="44.33337" lon="5.88237">
        <ele>672.5795898</ele>
        <time>2016-03-10T11:01:08Z</time>
      </trkpt>
      <trkpt lat="44.33329" lon="5.88242">
        <ele>672.5795898</ele>
        <time>2016-03-10T11:01:12Z</time>
      </trkpt>
      <trkpt lat="44.33288" lon="5.88254">
        <ele>671.6181641</ele>
        <time>2016-03-10T11:01:23Z</time>
      </trkpt>
      <trkpt lat="44.3325" lon="5.88251">
        <ele>671.6181641</ele>
        <time>2016-03-10T11:01:33Z</time>
      </trkpt>
      <trkpt lat="44.33183" lon="5.88273">
        <ele>670.1762695</ele>
        <time>2016-03-10T11:01:47Z</time>
      </trkpt>
      <trkpt lat="44.33138" lon="5.88297">
        <ele>667.7727051</ele>
        <time>2016-03-10T11:01:55Z</time>
      </trkpt>
      <trkpt lat="44.33127" lon="5.88304">
        <ele>668.2536621</ele>
        <time>2016-03-10T11:01:57Z</time>
      </trkpt>
      <trkpt lat="44.33109" lon="5.88318">
        <ele>665.3696289</ele>
        <time>2016-03-10T11:02:00Z</time>
      </trkpt>
      <trkpt lat="44.33096" lon="5.88324">
        <ele>666.3308105</ele>
        <time>2016-03-10T11:02:02Z</time>
      </trkpt>
      <trkpt lat="44.33015" lon="5.88343">
        <ele>665.3696289</ele>
        <time>2016-03-10T11:02:15Z</time>
      </trkpt>
      <trkpt lat="44.32898" lon="5.88313">
        <ele>663.4470215</ele>
        <time>2016-03-10T11:02:34Z</time>
      </trkpt>
      <trkpt lat="44.32829" lon="5.88291">
        <ele>662.9663086</ele>
        <time>2016-03-10T11:02:46Z</time>
      </trkpt>
      <trkpt lat="44.3274" lon="5.88229">
        <ele>662.4855957</ele>
        <time>2016-03-10T11:03:04Z</time>
      </trkpt>
      <trkpt lat="44.3271" lon="5.88201">
        <ele>660.5629883</ele>
        <time>2016-03-10T11:03:09Z</time>
      </trkpt>
      <trkpt lat="44.32664" lon="5.8817">
        <ele>657.6791992</ele>
        <time>2016-03-10T11:03:15Z</time>
      </trkpt>
      <trkpt lat="44.32572" lon="5.88143">
        <ele>656.2370605</ele>
        <time>2016-03-10T11:03:25Z</time>
      </trkpt>
      <trkpt lat="44.32552" lon="5.88145">
        <ele>654.3146973</ele>
        <time>2016-03-10T11:03:29Z</time>
      </trkpt>
      <trkpt lat="44.32534" lon="5.8815">
        <ele>655.2758789</ele>
        <time>2016-03-10T11:03:34Z</time>
      </trkpt>
      <trkpt lat="44.32461" lon="5.88174">
        <ele>654.3146973</ele>
        <time>2016-03-10T11:03:51Z</time>
      </trkpt>
      <trkpt lat="44.32412" lon="5.8819">
        <ele>654.795166</ele>
        <time>2016-03-10T11:04:06Z</time>
      </trkpt>
      <trkpt lat="44.32407" lon="5.88192">
        <ele>655.2758789</ele>
        <time>2016-03-10T11:04:08Z</time>
      </trkpt>
      <trkpt lat="44.32396" lon="5.88189">
        <ele>655.7565918</ele>
        <time>2016-03-10T11:04:14Z</time>
      </trkpt>
      <trkpt lat="44.3239" lon="5.88196">
        <ele>656.2370605</ele>
        <time>2016-03-10T11:04:20Z</time>
      </trkpt>
      <trkpt lat="44.32367" lon="5.88225">
        <ele>658.1599121</ele>
        <time>2016-03-10T11:04:36Z</time>
      </trkpt>
      <trkpt lat="44.32337" lon="5.8825">
        <ele>659.6018066</ele>
        <time>2016-03-10T11:04:54Z</time>
      </trkpt>
      <trkpt lat="44.32335" lon="5.88251">
        <ele>659.6018066</ele>
        <time>2016-03-10T11:04:55Z</time>
      </trkpt>
      <trkpt lat="44.32328" lon="5.88253">
        <ele>660.5629883</ele>
        <time>2016-03-10T11:04:59Z</time>
      </trkpt>
      <trkpt lat="44.32316" lon="5.88241">
        <ele>661.5244141</ele>
        <time>2016-03-10T11:05:07Z</time>
      </trkpt>
      <trkpt lat="44.32312" lon="5.88189">
        <ele>663.9274902</ele>
        <time>2016-03-10T11:05:26Z</time>
      </trkpt>
      <trkpt lat="44.3231" lon="5.88165">
        <ele>664.888916</ele>
        <time>2016-03-10T11:05:36Z</time>
      </trkpt>
      <trkpt lat="44.3231" lon="5.88157">
        <ele>665.3696289</ele>
        <time>2016-03-10T11:05:40Z</time>
      </trkpt>
      <trkpt lat="44.3231" lon="5.88147">
        <ele>665.8503418</ele>
        <time>2016-03-10T11:05:44Z</time>
      </trkpt>
      <trkpt lat="44.3231" lon="5.88138">
        <ele>666.3308105</ele>
        <time>2016-03-10T11:05:48Z</time>
      </trkpt>
      <trkpt lat="44.3231" lon="5.88126">
        <ele>666.8115234</ele>
        <time>2016-03-10T11:05:53Z</time>
      </trkpt>
      <trkpt lat="44.32307" lon="5.88113">
        <ele>667.7727051</ele>
        <time>2016-03-10T11:05:59Z</time>
      </trkpt>
      <trkpt lat="44.32302" lon="5.88108">
        <ele>667.7727051</ele>
        <time>2016-03-10T11:06:02Z</time>
      </trkpt>
      <trkpt lat="44.32295" lon="5.88108">
        <ele>668.734375</ele>
        <time>2016-03-10T11:06:06Z</time>
      </trkpt>
      <trkpt lat="44.3228" lon="5.88133">
        <ele>670.1762695</ele>
        <time>2016-03-10T11:06:19Z</time>
      </trkpt>
      <trkpt lat="44.32265" lon="5.88166">
        <ele>672.098877</ele>
        <time>2016-03-10T11:06:33Z</time>
      </trkpt>
      <trkpt lat="44.32236" lon="5.88196">
        <ele>672.5795898</ele>
        <time>2016-03-10T11:06:52Z</time>
      </trkpt>
      <trkpt lat="44.32228" lon="5.88172">
        <ele>674.9829102</ele>
        <time>2016-03-10T11:07:03Z</time>
      </trkpt>
      <trkpt lat="44.32223" lon="5.88114">
        <ele>676.9055176</ele>
        <time>2016-03-10T11:07:26Z</time>
      </trkpt>
      <trkpt lat="44.32212" lon="5.88071">
        <ele>678.828125</ele>
        <time>2016-03-10T11:07:44Z</time>
      </trkpt>
      <trkpt lat="44.32211" lon="5.88069">
        <ele>679.3085938</ele>
        <time>2016-03-10T11:07:45Z</time>
      </trkpt>
      <trkpt lat="44.32206" lon="5.88044">
        <ele>680.7507324</ele>
        <time>2016-03-10T11:07:58Z</time>
      </trkpt>
      <trkpt lat="44.322" lon="5.88013">
        <ele>682.192627</ele>
        <time>2016-03-10T11:08:12Z</time>
      </trkpt>
      <trkpt lat="44.32187" lon="5.87971">
        <ele>685.0769043</ele>
        <time>2016-03-10T11:08:30Z</time>
      </trkpt>
      <trkpt lat="44.32173" lon="5.87939">
        <ele>687.9606934</ele>
        <time>2016-03-10T11:08:46Z</time>
      </trkpt>
      <trkpt lat="44.32156" lon="5.87917">
        <ele>689.4025879</ele>
        <time>2016-03-10T11:09:01Z</time>
      </trkpt>
      <trkpt lat="44.32157" lon="5.8791">
        <ele>690.3640137</ele>
        <time>2016-03-10T11:09:04Z</time>
      </trkpt>
      <trkpt lat="44.32163" lon="5.87909">
        <ele>690.8444824</ele>
        <time>2016-03-10T11:09:08Z</time>
      </trkpt>
      <trkpt lat="44.3219" lon="5.87922">
        <ele>692.767334</ele>
        <time>2016-03-10T11:09:24Z</time>
      </trkpt>
      <trkpt lat="44.32211" lon="5.87902">
        <ele>694.2092285</ele>
        <time>2016-03-10T11:09:42Z</time>
      </trkpt>
      <trkpt lat="44.32206" lon="5.87868">
        <ele>697.0930176</ele>
        <time>2016-03-10T11:09:59Z</time>
      </trkpt>
      <trkpt lat="44.32196" lon="5.87844">
        <ele>698.5349121</ele>
        <time>2016-03-10T11:10:12Z</time>
      </trkpt>
      <trkpt lat="44.32178" lon="5.87809">
        <ele>700.4580078</ele>
        <time>2016-03-10T11:10:31Z</time>
      </trkpt>
      <trkpt lat="44.32152" lon="5.87771">
        <ele>703.8225098</ele>
        <time>2016-03-10T11:10:55Z</time>
      </trkpt>
      <trkpt lat="44.32143" lon="5.87747">
        <ele>705.2644043</ele>
        <time>2016-03-10T11:11:09Z</time>
      </trkpt>
      <trkpt lat="44.32136" lon="5.87734">
        <ele>706.2255859</ele>
        <time>2016-03-10T11:11:17Z</time>
      </trkpt>
      <trkpt lat="44.32129" lon="5.8774">
        <ele>707.6677246</ele>
        <time>2016-03-10T11:11:23Z</time>
      </trkpt>
      <trkpt lat="44.32116" lon="5.87773">
        <ele>709.590332</ele>
        <time>2016-03-10T11:11:40Z</time>
      </trkpt>
      <trkpt lat="44.3211" lon="5.87788">
        <ele>710.5515137</ele>
        <time>2016-03-10T11:11:47Z</time>
      </trkpt>
      <trkpt lat="44.32089" lon="5.8782">
        <ele>711.9936523</ele>
        <time>2016-03-10T11:12:03Z</time>
      </trkpt>
      <trkpt lat="44.32066" lon="5.87834">
        <ele>713.4355469</ele>
        <time>2016-03-10T11:12:17Z</time>
      </trkpt>
      <trkpt lat="44.32039" lon="5.87827">
        <ele>716.3195801</ele>
        <time>2016-03-10T11:12:33Z</time>
      </trkpt>
      <trkpt lat="44.32015" lon="5.87799">
        <ele>718.7229004</ele>
        <time>2016-03-10T11:12:50Z</time>
      </trkpt>
      <trkpt lat="44.32011" lon="5.87795">
        <ele>718.7229004</ele>
        <time>2016-03-10T11:12:53Z</time>
      </trkpt>
      <trkpt lat="44.31996" lon="5.87775">
        <ele>720.1647949</ele>
        <time>2016-03-10T11:13:06Z</time>
      </trkpt>
      <trkpt lat="44.31978" lon="5.87738">
        <ele>722.5681152</ele>
        <time>2016-03-10T11:13:24Z</time>
      </trkpt>
      <trkpt lat="44.3197" lon="5.87703">
        <ele>724.4907227</ele>
        <time>2016-03-10T11:13:40Z</time>
      </trkpt>
      <trkpt lat="44.31967" lon="5.87689">
        <ele>724.4907227</ele>
        <time>2016-03-10T11:13:46Z</time>
      </trkpt>
      <trkpt lat="44.31965" lon="5.8768">
        <ele>724.9714355</ele>
        <time>2016-03-10T11:13:50Z</time>
      </trkpt>
      <trkpt lat="44.31963" lon="5.87669">
        <ele>725.4519043</ele>
        <time>2016-03-10T11:13:55Z</time>
      </trkpt>
      <trkpt lat="44.31959" lon="5.87653">
        <ele>726.894043</ele>
        <time>2016-03-10T11:14:03Z</time>
      </trkpt>
      <trkpt lat="44.31959" lon="5.87638">
        <ele>727.8552246</ele>
        <time>2016-03-10T11:14:11Z</time>
      </trkpt>
      <trkpt lat="44.31957" lon="5.87622">
        <ele>728.8166504</ele>
        <time>2016-03-10T11:14:19Z</time>
      </trkpt>
      <trkpt lat="44.31954" lon="5.87597">
        <ele>731.2199707</ele>
        <time>2016-03-10T11:14:31Z</time>
      </trkpt>
      <trkpt lat="44.31953" lon="5.87588">
        <ele>731.7004395</ele>
        <time>2016-03-10T11:14:35Z</time>
      </trkpt>
      <trkpt lat="44.31953" lon="5.87584">
        <ele>732.1813965</ele>
        <time>2016-03-10T11:14:38Z</time>
      </trkpt>
      <trkpt lat="44.3195" lon="5.87559">
        <ele>733.623291</ele>
        <time>2016-03-10T11:14:50Z</time>
      </trkpt>
      <trkpt lat="44.31949" lon="5.87557">
        <ele>733.623291</ele>
        <time>2016-03-10T11:14:51Z</time>
      </trkpt>
      <trkpt lat="44.31949" lon="5.87551">
        <ele>734.1040039</ele>
        <time>2016-03-10T11:14:54Z</time>
      </trkpt>
      <trkpt lat="44.31956" lon="5.87527">
        <ele>736.987793</ele>
        <time>2016-03-10T11:15:09Z</time>
      </trkpt>
      <trkpt lat="44.31964" lon="5.87519">
        <ele>737.9492188</ele>
        <time>2016-03-10T11:15:15Z</time>
      </trkpt>
      <trkpt lat="44.31963" lon="5.87502">
        <ele>738.9106445</ele>
        <time>2016-03-10T11:15:23Z</time>
      </trkpt>
      <trkpt lat="44.31956" lon="5.87499">
        <ele>740.3525391</ele>
        <time>2016-03-10T11:15:31Z</time>
      </trkpt>
      <trkpt lat="44.31954" lon="5.87501">
        <ele>740.3525391</ele>
        <time>2016-03-10T11:15:33Z</time>
      </trkpt>
      <trkpt lat="44.3195" lon="5.87503">
        <ele>739.3911133</ele>
        <time>2016-03-10T11:15:48Z</time>
      </trkpt>
      <trkpt lat="44.31948" lon="5.87507">
        <ele>738.4299316</ele>
        <time>2016-03-10T11:16:13Z</time>
      </trkpt>
      <trkpt lat="44.31948" lon="5.87508">
        <ele>739.3911133</ele>
        <time>2016-03-10T11:16:44Z</time>
      </trkpt>
      <trkpt lat="44.31947" lon="5.87509">
        <ele>738.4299316</ele>
        <time>2016-03-10T11:17:21Z</time>
      </trkpt>
      <trkpt lat="44.31946" lon="5.87508">
        <ele>739.3911133</ele>
        <time>2016-03-10T11:17:39Z</time>
      </trkpt>
      <trkpt lat="44.31939" lon="5.87506">
        <ele>740.3525391</ele>
        <time>2016-03-10T11:18:01Z</time>
      </trkpt>
      <trkpt lat="44.31936" lon="5.87507">
        <ele>740.8330078</ele>
        <time>2016-03-10T11:18:11Z</time>
      </trkpt>
      <trkpt lat="44.31929" lon="5.87507">
        <ele>740.8330078</ele>
        <time>2016-03-10T11:18:15Z</time>
      </trkpt>
      <trkpt lat="44.31921" lon="5.87511">
        <ele>738.9106445</ele>
        <time>2016-03-10T11:18:19Z</time>
      </trkpt>
      <trkpt lat="44.31912" lon="5.87513">
        <ele>740.8330078</ele>
        <time>2016-03-10T11:18:23Z</time>
      </trkpt>
      <trkpt lat="44.31909" lon="5.87516">
        <ele>740.8330078</ele>
        <time>2016-03-10T11:18:25Z</time>
      </trkpt>
      <trkpt lat="44.31904" lon="5.87521">
        <ele>740.3525391</ele>
        <time>2016-03-10T11:18:28Z</time>
      </trkpt>
      <trkpt lat="44.31873" lon="5.87542">
        <ele>738.4299316</ele>
        <time>2016-03-10T11:18:42Z</time>
      </trkpt>
      <trkpt lat="44.31872" lon="5.87542">
        <ele>738.4299316</ele>
        <time>2016-03-10T11:18:53Z</time>
      </trkpt>
      <trkpt lat="44.31856" lon="5.87543">
        <ele>737.4685059</ele>
        <time>2016-03-10T11:18:58Z</time>
      </trkpt>
      <trkpt lat="44.31837" lon="5.87528">
        <ele>735.0654297</ele>
        <time>2016-03-10T11:19:03Z</time>
      </trkpt>
      <trkpt lat="44.31834" lon="5.87523">
        <ele>734.1040039</ele>
        <time>2016-03-10T11:19:04Z</time>
      </trkpt>
      <trkpt lat="44.31807" lon="5.87487">
        <ele>735.0654297</ele>
        <time>2016-03-10T11:19:15Z</time>
      </trkpt>
      <trkpt lat="44.31787" lon="5.87472">
        <ele>736.5073242</ele>
        <time>2016-03-10T11:19:24Z</time>
      </trkpt>
      <trkpt lat="44.3178" lon="5.87469">
        <ele>737.4685059</ele>
        <time>2016-03-10T11:19:30Z</time>
      </trkpt>
      <trkpt lat="44.31775" lon="5.87471">
        <ele>737.9492188</ele>
        <time>2016-03-10T11:19:33Z</time>
      </trkpt>
      <trkpt lat="44.31769" lon="5.87475">
        <ele>738.4299316</ele>
        <time>2016-03-10T11:19:35Z</time>
      </trkpt>
      <trkpt lat="44.31746" lon="5.87479">
        <ele>736.0266113</ele>
        <time>2016-03-10T11:19:43Z</time>
      </trkpt>
      <trkpt lat="44.31727" lon="5.87495">
        <ele>733.1425781</ele>
        <time>2016-03-10T11:19:49Z</time>
      </trkpt>
      <trkpt lat="44.31721" lon="5.87498">
        <ele>731.2199707</ele>
        <time>2016-03-10T11:20:01Z</time>
      </trkpt>
      <trkpt lat="44.3172" lon="5.87498">
        <ele>730.7392578</ele>
        <time>2016-03-10T11:20:25Z</time>
      </trkpt>
      <trkpt lat="44.31694" lon="5.87492">
        <ele>728.8166504</ele>
        <time>2016-03-10T11:20:33Z</time>
      </trkpt>
      <trkpt lat="44.31679" lon="5.87473">
        <ele>725.4519043</ele>
        <time>2016-03-10T11:20:38Z</time>
      </trkpt>
      <trkpt lat="44.31687" lon="5.87415">
        <ele>722.0874023</ele>
        <time>2016-03-10T11:20:49Z</time>
      </trkpt>
      <trkpt lat="44.31687" lon="5.87377">
        <ele>718.7229004</ele>
        <time>2016-03-10T11:20:53Z</time>
      </trkpt>
      <trkpt lat="44.31683" lon="5.87368">
        <ele>718.7229004</ele>
        <time>2016-03-10T11:20:54Z</time>
      </trkpt>
      <trkpt lat="44.31675" lon="5.87356">
        <ele>717.2810059</ele>
        <time>2016-03-10T11:20:56Z</time>
      </trkpt>
      <trkpt lat="44.31664" lon="5.87347">
        <ele>714.8774414</ele>
        <time>2016-03-10T11:20:58Z</time>
      </trkpt>
      <trkpt lat="44.31654" lon="5.87339">
        <ele>712.954834</ele>
        <time>2016-03-10T11:21:00Z</time>
      </trkpt>
      <trkpt lat="44.31641" lon="5.8732">
        <ele>711.5129395</ele>
        <time>2016-03-10T11:21:03Z</time>
      </trkpt>
      <trkpt lat="44.31636" lon="5.87288">
        <ele>706.7062988</ele>
        <time>2016-03-10T11:21:07Z</time>
      </trkpt>
      <trkpt lat="44.31636" lon="5.87281">
        <ele>706.7062988</ele>
        <time>2016-03-10T11:21:08Z</time>
      </trkpt>
      <trkpt lat="44.31637" lon="5.87269">
        <ele>705.2644043</ele>
        <time>2016-03-10T11:21:10Z</time>
      </trkpt>
      <trkpt lat="44.31646" lon="5.87215">
        <ele>702.3803711</ele>
        <time>2016-03-10T11:21:17Z</time>
      </trkpt>
      <trkpt lat="44.31649" lon="5.87191">
        <ele>702.3803711</ele>
        <time>2016-03-10T11:21:19Z</time>
      </trkpt>
      <trkpt lat="44.31651" lon="5.87151">
        <ele>698.0544434</ele>
        <time>2016-03-10T11:21:22Z</time>
      </trkpt>
      <trkpt lat="44.31655" lon="5.87125">
        <ele>695.651123</ele>
        <time>2016-03-10T11:21:24Z</time>
      </trkpt>
      <trkpt lat="44.31656" lon="5.87114">
        <ele>692.767334</ele>
        <time>2016-03-10T11:21:25Z</time>
      </trkpt>
      <trkpt lat="44.31653" lon="5.87082">
        <ele>688.9221191</ele>
        <time>2016-03-10T11:21:28Z</time>
      </trkpt>
      <trkpt lat="44.3165" lon="5.87071">
        <ele>688.9221191</ele>
        <time>2016-03-10T11:21:29Z</time>
      </trkpt>
      <trkpt lat="44.31639" lon="5.87051">
        <ele>687.4799805</ele>
        <time>2016-03-10T11:21:31Z</time>
      </trkpt>
      <trkpt lat="44.31624" lon="5.87036">
        <ele>686.0380859</ele>
        <time>2016-03-10T11:21:33Z</time>
      </trkpt>
      <trkpt lat="44.31569" lon="5.86996">
        <ele>684.1154785</ele>
        <time>2016-03-10T11:21:39Z</time>
      </trkpt>
      <trkpt lat="44.31558" lon="5.86989">
        <ele>684.1154785</ele>
        <time>2016-03-10T11:21:40Z</time>
      </trkpt>
      <trkpt lat="44.31518" lon="5.86961">
        <ele>679.3085938</ele>
        <time>2016-03-10T11:21:44Z</time>
      </trkpt>
      <trkpt lat="44.31508" lon="5.86955">
        <ele>679.3085938</ele>
        <time>2016-03-10T11:21:45Z</time>
      </trkpt>
      <trkpt lat="44.3149" lon="5.86942">
        <ele>676.4248047</ele>
        <time>2016-03-10T11:21:47Z</time>
      </trkpt>
      <trkpt lat="44.31481" lon="5.86935">
        <ele>671.6181641</ele>
        <time>2016-03-10T11:21:48Z</time>
      </trkpt>
      <trkpt lat="44.31472" lon="5.86929">
        <ele>671.6181641</ele>
        <time>2016-03-10T11:21:49Z</time>
      </trkpt>
      <trkpt lat="44.31454" lon="5.86916">
        <ele>666.3308105</ele>
        <time>2016-03-10T11:21:51Z</time>
      </trkpt>
      <trkpt lat="44.31436" lon="5.86897">
        <ele>664.888916</ele>
        <time>2016-03-10T11:21:54Z</time>
      </trkpt>
      <trkpt lat="44.31431" lon="5.86889">
        <ele>664.4082031</ele>
        <time>2016-03-10T11:21:55Z</time>
      </trkpt>
      <trkpt lat="44.31392" lon="5.86807">
        <ele>660.0822754</ele>
        <time>2016-03-10T11:22:05Z</time>
      </trkpt>
      <trkpt lat="44.31388" lon="5.86798">
        <ele>660.0822754</ele>
        <time>2016-03-10T11:22:06Z</time>
      </trkpt>
      <trkpt lat="44.31381" lon="5.86783">
        <ele>658.6403809</ele>
        <time>2016-03-10T11:22:08Z</time>
      </trkpt>
      <trkpt lat="44.31375" lon="5.86769">
        <ele>656.7177734</ele>
        <time>2016-03-10T11:22:10Z</time>
      </trkpt>
      <trkpt lat="44.31363" lon="5.86746">
        <ele>655.7565918</ele>
        <time>2016-03-10T11:22:13Z</time>
      </trkpt>
      <trkpt lat="44.31328" lon="5.86705">
        <ele>651.4304199</ele>
        <time>2016-03-10T11:22:19Z</time>
      </trkpt>
      <trkpt lat="44.31321" lon="5.86698">
        <ele>651.4304199</ele>
        <time>2016-03-10T11:22:20Z</time>
      </trkpt>
      <trkpt lat="44.31292" lon="5.8668">
        <ele>649.0270996</ele>
        <time>2016-03-10T11:22:24Z</time>
      </trkpt>
      <trkpt lat="44.31253" lon="5.86661">
        <ele>646.1433105</ele>
        <time>2016-03-10T11:22:29Z</time>
      </trkpt>
      <trkpt lat="44.31235" lon="5.86651">
        <ele>644.7011719</ele>
        <time>2016-03-10T11:22:31Z</time>
      </trkpt>
      <trkpt lat="44.31217" lon="5.86642">
        <ele>643.2592773</ele>
        <time>2016-03-10T11:22:33Z</time>
      </trkpt>
      <trkpt lat="44.31198" lon="5.86632">
        <ele>640.3754883</ele>
        <time>2016-03-10T11:22:35Z</time>
      </trkpt>
      <trkpt lat="44.31163" lon="5.86589">
        <ele>639.8947754</ele>
        <time>2016-03-10T11:22:40Z</time>
      </trkpt>
      <trkpt lat="44.31136" lon="5.86533">
        <ele>638.9335938</ele>
        <time>2016-03-10T11:22:45Z</time>
      </trkpt>
      <trkpt lat="44.31108" lon="5.86477">
        <ele>637.4914551</ele>
        <time>2016-03-10T11:22:50Z</time>
      </trkpt>
      <trkpt lat="44.31094" lon="5.86461">
        <ele>634.126709</ele>
        <time>2016-03-10T11:22:52Z</time>
      </trkpt>
      <trkpt lat="44.31078" lon="5.86451">
        <ele>632.6848145</ele>
        <time>2016-03-10T11:22:54Z</time>
      </trkpt>
      <trkpt lat="44.31061" lon="5.86446">
        <ele>631.2429199</ele>
        <time>2016-03-10T11:22:56Z</time>
      </trkpt>
      <trkpt lat="44.31034" lon="5.86443">
        <ele>629.8007813</ele>
        <time>2016-03-10T11:22:59Z</time>
      </trkpt>
      <trkpt lat="44.30988" lon="5.86438">
        <ele>627.8781738</ele>
        <time>2016-03-10T11:23:04Z</time>
      </trkpt>
      <trkpt lat="44.3093" lon="5.86428">
        <ele>624.9943848</ele>
        <time>2016-03-10T11:23:10Z</time>
      </trkpt>
      <trkpt lat="44.30904" lon="5.86423">
        <ele>623.0717773</ele>
        <time>2016-03-10T11:23:13Z</time>
      </trkpt>
      <trkpt lat="44.30887" lon="5.86418">
        <ele>621.6296387</ele>
        <time>2016-03-10T11:23:15Z</time>
      </trkpt>
      <trkpt lat="44.30878" lon="5.86415">
        <ele>621.1491699</ele>
        <time>2016-03-10T11:23:16Z</time>
      </trkpt>
      <trkpt lat="44.3085" lon="5.86391">
        <ele>620.1877441</ele>
        <time>2016-03-10T11:23:20Z</time>
      </trkpt>
      <trkpt lat="44.30839" lon="5.86375">
        <ele>618.7456055</ele>
        <time>2016-03-10T11:23:22Z</time>
      </trkpt>
      <trkpt lat="44.30796" lon="5.86306">
        <ele>617.3037109</ele>
        <time>2016-03-10T11:23:31Z</time>
      </trkpt>
      <trkpt lat="44.30756" lon="5.86242">
        <ele>614.4196777</ele>
        <time>2016-03-10T11:23:39Z</time>
      </trkpt>
      <trkpt lat="44.30745" lon="5.86226">
        <ele>613.4584961</ele>
        <time>2016-03-10T11:23:41Z</time>
      </trkpt>
      <trkpt lat="44.30734" lon="5.86209">
        <ele>612.0166016</ele>
        <time>2016-03-10T11:23:43Z</time>
      </trkpt>
      <trkpt lat="44.30723" lon="5.86192">
        <ele>610.5744629</ele>
        <time>2016-03-10T11:23:45Z</time>
      </trkpt>
      <trkpt lat="44.30694" lon="5.86147">
        <ele>607.6906738</ele>
        <time>2016-03-10T11:23:52Z</time>
      </trkpt>
      <trkpt lat="44.30681" lon="5.86136">
        <ele>605.7680664</ele>
        <time>2016-03-10T11:24:00Z</time>
      </trkpt>
      <trkpt lat="44.30681" lon="5.86136">
        <ele>604.3261719</ele>
        <time>2016-03-10T11:24:18Z</time>
      </trkpt>
      <trkpt lat="44.30679" lon="5.86135">
        <ele>605.7680664</ele>
        <time>2016-03-10T11:24:25Z</time>
      </trkpt>
      <trkpt lat="44.30672" lon="5.86136">
        <ele>605.2873535</ele>
        <time>2016-03-10T11:24:29Z</time>
      </trkpt>
      <trkpt lat="44.30671" lon="5.86165">
        <ele>605.2873535</ele>
        <time>2016-03-10T11:24:36Z</time>
      </trkpt>
      <trkpt lat="44.3067" lon="5.86222">
        <ele>607.6906738</ele>
        <time>2016-03-10T11:24:50Z</time>
      </trkpt>
      <trkpt lat="44.30678" lon="5.86277">
        <ele>610.09375</ele>
        <time>2016-03-10T11:25:06Z</time>
      </trkpt>
      <trkpt lat="44.30694" lon="5.86325">
        <ele>610.09375</ele>
        <time>2016-03-10T11:25:22Z</time>
      </trkpt>
      <trkpt lat="44.30705" lon="5.86347">
        <ele>610.09375</ele>
        <time>2016-03-10T11:25:30Z</time>
      </trkpt>
      <trkpt lat="44.30727" lon="5.86391">
        <ele>612.0166016</ele>
        <time>2016-03-10T11:25:46Z</time>
      </trkpt>
      <trkpt lat="44.3073" lon="5.86396">
        <ele>613.9389648</ele>
        <time>2016-03-10T11:25:48Z</time>
      </trkpt>
      <trkpt lat="44.3074" lon="5.86415">
        <ele>615.3811035</ele>
        <time>2016-03-10T11:25:55Z</time>
      </trkpt>
      <trkpt lat="44.30742" lon="5.8642">
        <ele>613.9389648</ele>
        <time>2016-03-10T11:25:57Z</time>
      </trkpt>
      <trkpt lat="44.30763" lon="5.86462">
        <ele>615.8618164</ele>
        <time>2016-03-10T11:26:13Z</time>
      </trkpt>
      <trkpt lat="44.30768" lon="5.86475">
        <ele>618.2648926</ele>
        <time>2016-03-10T11:26:18Z</time>
      </trkpt>
      <trkpt lat="44.30784" lon="5.86515">
        <ele>619.7070313</ele>
        <time>2016-03-10T11:26:34Z</time>
      </trkpt>
      <trkpt lat="44.30789" lon="5.86546">
        <ele>622.1103516</ele>
        <time>2016-03-10T11:26:46Z</time>
      </trkpt>
      <trkpt lat="44.30799" lon="5.86588">
        <ele>623.0717773</ele>
        <time>2016-03-10T11:27:01Z</time>
      </trkpt>
      <trkpt lat="44.30804" lon="5.86632">
        <ele>624.5136719</ele>
        <time>2016-03-10T11:27:18Z</time>
      </trkpt>
      <trkpt lat="44.30811" lon="5.86672">
        <ele>626.9169922</ele>
        <time>2016-03-10T11:27:33Z</time>
      </trkpt>
      <trkpt lat="44.30811" lon="5.86695">
        <ele>627.8781738</ele>
        <time>2016-03-10T11:27:42Z</time>
      </trkpt>
      <trkpt lat="44.30821" lon="5.86743">
        <ele>629.8007813</ele>
        <time>2016-03-10T11:28:00Z</time>
      </trkpt>
      <trkpt lat="44.30824" lon="5.86772">
        <ele>631.2429199</ele>
        <time>2016-03-10T11:28:11Z</time>
      </trkpt>
      <trkpt lat="44.30827" lon="5.86809">
        <ele>632.2041016</ele>
        <time>2016-03-10T11:28:25Z</time>
      </trkpt>
      <trkpt lat="44.30828" lon="5.86864">
        <ele>635.0881348</ele>
        <time>2016-03-10T11:28:44Z</time>
      </trkpt>
      <trkpt lat="44.30823" lon="5.86924">
        <ele>637.0107422</ele>
        <time>2016-03-10T11:29:05Z</time>
      </trkpt>
      <trkpt lat="44.3081" lon="5.86971">
        <ele>638.4528809</ele>
        <time>2016-03-10T11:29:21Z</time>
      </trkpt>
      <trkpt lat="44.30795" lon="5.87018">
        <ele>640.3754883</ele>
        <time>2016-03-10T11:29:36Z</time>
      </trkpt>
      <trkpt lat="44.30771" lon="5.87064">
        <ele>641.3366699</ele>
        <time>2016-03-10T11:29:53Z</time>
      </trkpt>
      <trkpt lat="44.30739" lon="5.8711">
        <ele>643.2592773</ele>
        <time>2016-03-10T11:30:11Z</time>
      </trkpt>
      <trkpt lat="44.307" lon="5.8717">
        <ele>644.7011719</ele>
        <time>2016-03-10T11:30:35Z</time>
      </trkpt>
      <trkpt lat="44.30658" lon="5.87239">
        <ele>648.065918</ele>
        <time>2016-03-10T11:31:02Z</time>
      </trkpt>
      <trkpt lat="44.30628" lon="5.87288">
        <ele>650.4692383</ele>
        <time>2016-03-10T11:31:22Z</time>
      </trkpt>
      <trkpt lat="44.30597" lon="5.87335">
        <ele>652.3918457</ele>
        <time>2016-03-10T11:31:42Z</time>
      </trkpt>
      <trkpt lat="44.30574" lon="5.87382">
        <ele>654.3146973</ele>
        <time>2016-03-10T11:32:00Z</time>
      </trkpt>
      <trkpt lat="44.30548" lon="5.87423">
        <ele>655.2758789</ele>
        <time>2016-03-10T11:32:17Z</time>
      </trkpt>
      <trkpt lat="44.30538" lon="5.87446">
        <ele>657.6791992</ele>
        <time>2016-03-10T11:32:26Z</time>
      </trkpt>
      <trkpt lat="44.30533" lon="5.87495">
        <ele>659.6018066</ele>
        <time>2016-03-10T11:32:44Z</time>
      </trkpt>
      <trkpt lat="44.30533" lon="5.87508">
        <ele>660.0822754</ele>
        <time>2016-03-10T11:32:49Z</time>
      </trkpt>
      <trkpt lat="44.30529" lon="5.87543">
        <ele>660.5629883</ele>
        <time>2016-03-10T11:33:02Z</time>
      </trkpt>
      <trkpt lat="44.30528" lon="5.87552">
        <ele>661.5244141</ele>
        <time>2016-03-10T11:33:13Z</time>
      </trkpt>
      <trkpt lat="44.30528" lon="5.87552">
        <ele>661.5244141</ele>
        <time>2016-03-10T11:33:41Z</time>
      </trkpt>
      <trkpt lat="44.3052" lon="5.87553">
        <ele>662.005127</ele>
        <time>2016-03-10T11:33:46Z</time>
      </trkpt>
      <trkpt lat="44.30496" lon="5.87532">
        <ele>664.4082031</ele>
        <time>2016-03-10T11:33:59Z</time>
      </trkpt>
      <trkpt lat="44.30475" lon="5.87516">
        <ele>664.4082031</ele>
        <time>2016-03-10T11:34:10Z</time>
      </trkpt>
      <trkpt lat="44.30444" lon="5.87515">
        <ele>666.3308105</ele>
        <time>2016-03-10T11:34:24Z</time>
      </trkpt>
      <trkpt lat="44.30395" lon="5.87524">
        <ele>665.8503418</ele>
        <time>2016-03-10T11:34:40Z</time>
      </trkpt>
      <trkpt lat="44.30326" lon="5.87541">
        <ele>663.9274902</ele>
        <time>2016-03-10T11:34:53Z</time>
      </trkpt>
      <trkpt lat="44.30235" lon="5.87563">
        <ele>662.9663086</ele>
        <time>2016-03-10T11:35:10Z</time>
      </trkpt>
      <trkpt lat="44.3022" lon="5.87568">
        <ele>662.9663086</ele>
        <time>2016-03-10T11:35:13Z</time>
      </trkpt>
      <trkpt lat="44.3019" lon="5.87594">
        <ele>661.5244141</ele>
        <time>2016-03-10T11:35:20Z</time>
      </trkpt>
      <trkpt lat="44.30173" lon="5.8762">
        <ele>660.5629883</ele>
        <time>2016-03-10T11:35:27Z</time>
      </trkpt>
      <trkpt lat="44.30146" lon="5.87638">
        <ele>661.5244141</ele>
        <time>2016-03-10T11:35:34Z</time>
      </trkpt>
      <trkpt lat="44.30112" lon="5.87634">
        <ele>663.9274902</ele>
        <time>2016-03-10T11:35:47Z</time>
      </trkpt>
      <trkpt lat="44.30112" lon="5.87636">
        <ele>663.4470215</ele>
        <time>2016-03-10T11:35:59Z</time>
      </trkpt>
      <trkpt lat="44.30145" lon="5.87637">
        <ele>662.4855957</ele>
        <time>2016-03-10T11:36:12Z</time>
      </trkpt>
      <trkpt lat="44.30148" lon="5.87637">
        <ele>662.4855957</ele>
        <time>2016-03-10T11:36:13Z</time>
      </trkpt>
      <trkpt lat="44.30153" lon="5.87634">
        <ele>661.0437012</ele>
        <time>2016-03-10T11:36:15Z</time>
      </trkpt>
      <trkpt lat="44.30156" lon="5.87647">
        <ele>661.0437012</ele>
        <time>2016-03-10T11:36:20Z</time>
      </trkpt>
      <trkpt lat="44.30148" lon="5.87658">
        <ele>659.6018066</ele>
        <time>2016-03-10T11:36:23Z</time>
      </trkpt>
      <trkpt lat="44.30126" lon="5.87677">
        <ele>657.6791992</ele>
        <time>2016-03-10T11:36:31Z</time>
      </trkpt>
      <trkpt lat="44.30094" lon="5.87697">
        <ele>655.2758789</ele>
        <time>2016-03-10T11:36:39Z</time>
      </trkpt>
      <trkpt lat="44.30067" lon="5.87712">
        <ele>652.8725586</ele>
        <time>2016-03-10T11:36:43Z</time>
      </trkpt>
      <trkpt lat="44.30031" lon="5.87735">
        <ele>649.9885254</ele>
        <time>2016-03-10T11:36:48Z</time>
      </trkpt>
      <trkpt lat="44.30002" lon="5.8775">
        <ele>650.949707</ele>
        <time>2016-03-10T11:36:52Z</time>
      </trkpt>
      <trkpt lat="44.29971" lon="5.87783">
        <ele>650.4692383</ele>
        <time>2016-03-10T11:36:57Z</time>
      </trkpt>
      <trkpt lat="44.29967" lon="5.87791">
        <ele>648.5463867</ele>
        <time>2016-03-10T11:36:58Z</time>
      </trkpt>
      <trkpt lat="44.29957" lon="5.87813">
        <ele>644.7011719</ele>
        <time>2016-03-10T11:37:01Z</time>
      </trkpt>
      <trkpt lat="44.29953" lon="5.87821">
        <ele>644.7011719</ele>
        <time>2016-03-10T11:37:02Z</time>
      </trkpt>
      <trkpt lat="44.29929" lon="5.87845">
        <ele>644.2207031</ele>
        <time>2016-03-10T11:37:07Z</time>
      </trkpt>
      <trkpt lat="44.29918" lon="5.87849">
        <ele>642.7788086</ele>
        <time>2016-03-10T11:37:09Z</time>
      </trkpt>
      <trkpt lat="44.29873" lon="5.87872">
        <ele>639.8947754</ele>
        <time>2016-03-10T11:37:16Z</time>
      </trkpt>
      <trkpt lat="44.29805" lon="5.87898">
        <ele>636.5302734</ele>
        <time>2016-03-10T11:37:26Z</time>
      </trkpt>
      <trkpt lat="44.298" lon="5.879">
        <ele>636.5302734</ele>
        <time>2016-03-10T11:37:27Z</time>
      </trkpt>
      <trkpt lat="44.29773" lon="5.87899">
        <ele>636.5302734</ele>
        <time>2016-03-10T11:37:32Z</time>
      </trkpt>
      <trkpt lat="44.29693" lon="5.87866">
        <ele>635.0881348</ele>
        <time>2016-03-10T11:37:47Z</time>
      </trkpt>
      <trkpt lat="44.29656" lon="5.87879">
        <ele>634.6074219</ele>
        <time>2016-03-10T11:37:58Z</time>
      </trkpt>
      <trkpt lat="44.29654" lon="5.8788">
        <ele>634.126709</ele>
        <time>2016-03-10T11:38:14Z</time>
      </trkpt>
      <trkpt lat="44.29632" lon="5.87836">
        <ele>633.6459961</ele>
        <time>2016-03-10T11:38:30Z</time>
      </trkpt>
      <trkpt lat="44.29607" lon="5.87774">
        <ele>635.5686035</ele>
        <time>2016-03-10T11:38:44Z</time>
      </trkpt>
      <trkpt lat="44.29605" lon="5.87768">
        <ele>634.6074219</ele>
        <time>2016-03-10T11:38:45Z</time>
      </trkpt>
      <trkpt lat="44.296" lon="5.87757">
        <ele>634.6074219</ele>
        <time>2016-03-10T11:38:47Z</time>
      </trkpt>
      <trkpt lat="44.29576" lon="5.87719">
        <ele>634.6074219</ele>
        <time>2016-03-10T11:38:56Z</time>
      </trkpt>
      <trkpt lat="44.29539" lon="5.87687">
        <ele>634.126709</ele>
        <time>2016-03-10T11:39:06Z</time>
      </trkpt>
      <trkpt lat="44.29435" lon="5.87638">
        <ele>634.6074219</ele>
        <time>2016-03-10T11:39:31Z</time>
      </trkpt>
      <trkpt lat="44.29371" lon="5.87604">
        <ele>637.972168</ele>
        <time>2016-03-10T11:39:50Z</time>
      </trkpt>
      <trkpt lat="44.2935" lon="5.87574">
        <ele>638.4528809</ele>
        <time>2016-03-10T11:40:04Z</time>
      </trkpt>
      <trkpt lat="44.29347" lon="5.87539">
        <ele>637.972168</ele>
        <time>2016-03-10T11:40:15Z</time>
      </trkpt>
      <trkpt lat="44.29343" lon="5.87522">
        <ele>637.4914551</ele>
        <time>2016-03-10T11:40:26Z</time>
      </trkpt>
      <trkpt lat="44.29331" lon="5.87498">
        <ele>636.5302734</ele>
        <time>2016-03-10T11:41:41Z</time>
      </trkpt>
      <trkpt lat="44.29327" lon="5.87491">
        <ele>636.5302734</ele>
        <time>2016-03-10T11:41:56Z</time>
      </trkpt>
      <trkpt lat="44.2933" lon="5.87493">
        <ele>636.5302734</ele>
        <time>2016-03-10T11:42:22Z</time>
      </trkpt>
      <trkpt lat="44.29314" lon="5.87497">
        <ele>637.0107422</ele>
        <time>2016-03-10T11:43:24Z</time>
      </trkpt>
      <trkpt lat="44.29309" lon="5.87491">
        <ele>636.5302734</ele>
        <time>2016-03-10T11:43:35Z</time>
      </trkpt>
      <trkpt lat="44.29283" lon="5.87457">
        <ele>637.0107422</ele>
        <time>2016-03-10T11:43:49Z</time>
      </trkpt>
      <trkpt lat="44.29238" lon="5.87404">
        <ele>636.5302734</ele>
        <time>2016-03-10T11:44:07Z</time>
      </trkpt>
      <trkpt lat="44.29194" lon="5.8738">
        <ele>636.5302734</ele>
        <time>2016-03-10T11:44:20Z</time>
      </trkpt>
      <trkpt lat="44.29162" lon="5.87355">
        <ele>637.0107422</ele>
        <time>2016-03-10T11:44:29Z</time>
      </trkpt>
      <trkpt lat="44.29108" lon="5.8731">
        <ele>636.5302734</ele>
        <time>2016-03-10T11:44:45Z</time>
      </trkpt>
      <trkpt lat="44.2908" lon="5.87287">
        <ele>635.5686035</ele>
        <time>2016-03-10T11:44:54Z</time>
      </trkpt>
      <trkpt lat="44.29052" lon="5.87255">
        <ele>636.5302734</ele>
        <time>2016-03-10T11:45:04Z</time>
      </trkpt>
      <trkpt lat="44.29009" lon="5.87209">
        <ele>635.5686035</ele>
        <time>2016-03-10T11:45:16Z</time>
      </trkpt>
      <trkpt lat="44.28989" lon="5.87188">
        <ele>636.0495605</ele>
        <time>2016-03-10T11:45:22Z</time>
      </trkpt>
      <trkpt lat="44.28973" lon="5.87165">
        <ele>634.6074219</ele>
        <time>2016-03-10T11:45:28Z</time>
      </trkpt>
      <trkpt lat="44.28938" lon="5.87121">
        <ele>635.0881348</ele>
        <time>2016-03-10T11:45:40Z</time>
      </trkpt>
      <trkpt lat="44.2888" lon="5.87079">
        <ele>636.0495605</ele>
        <time>2016-03-10T11:45:57Z</time>
      </trkpt>
      <trkpt lat="44.28846" lon="5.87057">
        <ele>636.5302734</ele>
        <time>2016-03-10T11:46:08Z</time>
      </trkpt>
      <trkpt lat="44.28814" lon="5.87024">
        <ele>636.0495605</ele>
        <time>2016-03-10T11:46:19Z</time>
      </trkpt>
      <trkpt lat="44.28759" lon="5.86976">
        <ele>637.4914551</ele>
        <time>2016-03-10T11:46:34Z</time>
      </trkpt>
      <trkpt lat="44.28699" lon="5.86931">
        <ele>638.4528809</ele>
        <time>2016-03-10T11:46:51Z</time>
      </trkpt>
      <trkpt lat="44.28688" lon="5.8692">
        <ele>638.4528809</ele>
        <time>2016-03-10T11:46:54Z</time>
      </trkpt>
      <trkpt lat="44.28616" lon="5.86848">
        <ele>638.4528809</ele>
        <time>2016-03-10T11:47:11Z</time>
      </trkpt>
      <trkpt lat="44.28541" lon="5.86782">
        <ele>637.972168</ele>
        <time>2016-03-10T11:47:27Z</time>
      </trkpt>
      <trkpt lat="44.28509" lon="5.86762">
        <ele>636.5302734</ele>
        <time>2016-03-10T11:47:33Z</time>
      </trkpt>
      <trkpt lat="44.28482" lon="5.8675">
        <ele>636.5302734</ele>
        <time>2016-03-10T11:47:38Z</time>
      </trkpt>
      <trkpt lat="44.28462" lon="5.86732">
        <ele>636.5302734</ele>
        <time>2016-03-10T11:47:42Z</time>
      </trkpt>
      <trkpt lat="44.28437" lon="5.8668">
        <ele>635.0881348</ele>
        <time>2016-03-10T11:47:49Z</time>
      </trkpt>
      <trkpt lat="44.28432" lon="5.86625">
        <ele>634.126709</ele>
        <time>2016-03-10T11:47:54Z</time>
      </trkpt>
      <trkpt lat="44.28437" lon="5.86593">
        <ele>631.7233887</ele>
        <time>2016-03-10T11:47:57Z</time>
      </trkpt>
      <trkpt lat="44.28438" lon="5.86572">
        <ele>631.2429199</ele>
        <time>2016-03-10T11:47:59Z</time>
      </trkpt>
      <trkpt lat="44.28414" lon="5.86468">
        <ele>629.8007813</ele>
        <time>2016-03-10T11:48:11Z</time>
      </trkpt>
      <trkpt lat="44.28411" lon="5.86461">
        <ele>630.2814941</ele>
        <time>2016-03-10T11:48:12Z</time>
      </trkpt>
      <trkpt lat="44.2841" lon="5.86401">
        <ele>631.2429199</ele>
        <time>2016-03-10T11:48:23Z</time>
      </trkpt>
      <trkpt lat="44.28408" lon="5.86363">
        <ele>633.1652832</ele>
        <time>2016-03-10T11:48:32Z</time>
      </trkpt>
      <trkpt lat="44.28381" lon="5.86302">
        <ele>633.6459961</ele>
        <time>2016-03-10T11:48:47Z</time>
      </trkpt>
      <trkpt lat="44.28358" lon="5.86246">
        <ele>634.6074219</ele>
        <time>2016-03-10T11:49:02Z</time>
      </trkpt>
      <trkpt lat="44.28334" lon="5.86195">
        <ele>635.0881348</ele>
        <time>2016-03-10T11:49:14Z</time>
      </trkpt>
      <trkpt lat="44.28265" lon="5.86114">
        <ele>634.126709</ele>
        <time>2016-03-10T11:49:33Z</time>
      </trkpt>
      <trkpt lat="44.28207" lon="5.86059">
        <ele>633.1652832</ele>
        <time>2016-03-10T11:49:46Z</time>
      </trkpt>
      <trkpt lat="44.28164" lon="5.85999">
        <ele>632.2041016</ele>
        <time>2016-03-10T11:49:59Z</time>
      </trkpt>
      <trkpt lat="44.28148" lon="5.85975">
        <ele>632.6848145</ele>
        <time>2016-03-10T11:50:10Z</time>
      </trkpt>
      <trkpt lat="44.28147" lon="5.85976">
        <ele>632.6848145</ele>
        <time>2016-03-10T11:50:23Z</time>
      </trkpt>
      <trkpt lat="44.28138" lon="5.85972">
        <ele>632.2041016</ele>
        <time>2016-03-10T11:50:27Z</time>
      </trkpt>
      <trkpt lat="44.28082" lon="5.85931">
        <ele>631.7233887</ele>
        <time>2016-03-10T11:50:43Z</time>
      </trkpt>
      <trkpt lat="44.28044" lon="5.85907">
        <ele>631.2429199</ele>
        <time>2016-03-10T11:50:52Z</time>
      </trkpt>
      <trkpt lat="44.28031" lon="5.85901">
        <ele>630.2814941</ele>
        <time>2016-03-10T11:50:54Z</time>
      </trkpt>
      <trkpt lat="44.27969" lon="5.85864">
        <ele>626.4362793</ele>
        <time>2016-03-10T11:51:06Z</time>
      </trkpt>
      <trkpt lat="44.27919" lon="5.85838">
        <ele>625.4748535</ele>
        <time>2016-03-10T11:51:17Z</time>
      </trkpt>
      <trkpt lat="44.27914" lon="5.85836">
        <ele>625.4748535</ele>
        <time>2016-03-10T11:51:18Z</time>
      </trkpt>
      <trkpt lat="44.27877" lon="5.85824">
        <ele>623.0717773</ele>
        <time>2016-03-10T11:51:25Z</time>
      </trkpt>
      <trkpt lat="44.27822" lon="5.858">
        <ele>621.6296387</ele>
        <time>2016-03-10T11:51:36Z</time>
      </trkpt>
      <trkpt lat="44.27802" lon="5.85785">
        <ele>622.1103516</ele>
        <time>2016-03-10T11:51:41Z</time>
      </trkpt>
      <trkpt lat="44.27766" lon="5.85747">
        <ele>623.0717773</ele>
        <time>2016-03-10T11:51:53Z</time>
      </trkpt>
      <trkpt lat="44.27734" lon="5.8569">
        <ele>621.6296387</ele>
        <time>2016-03-10T11:52:04Z</time>
      </trkpt>
      <trkpt lat="44.27729" lon="5.85683">
        <ele>621.6296387</ele>
        <time>2016-03-10T11:52:05Z</time>
      </trkpt>
      <trkpt lat="44.27692" lon="5.8563">
        <ele>619.2263184</ele>
        <time>2016-03-10T11:52:12Z</time>
      </trkpt>
      <trkpt lat="44.27665" lon="5.85606">
        <ele>617.7841797</ele>
        <time>2016-03-10T11:52:16Z</time>
      </trkpt>
      <trkpt lat="44.27556" lon="5.85535">
        <ele>614.9003906</ele>
        <time>2016-03-10T11:52:30Z</time>
      </trkpt>
      <trkpt lat="44.2755" lon="5.8553">
        <ele>614.9003906</ele>
        <time>2016-03-10T11:52:31Z</time>
      </trkpt>
      <trkpt lat="44.27501" lon="5.85444">
        <ele>612.4970703</ele>
        <time>2016-03-10T11:52:43Z</time>
      </trkpt>
      <trkpt lat="44.27479" lon="5.85392">
        <ele>611.0551758</ele>
        <time>2016-03-10T11:52:55Z</time>
      </trkpt>
      <trkpt lat="44.27477" lon="5.85388">
        <ele>610.5744629</ele>
        <time>2016-03-10T11:53:07Z</time>
      </trkpt>
      <trkpt lat="44.27477" lon="5.85387">
        <ele>612.4970703</ele>
        <time>2016-03-10T11:53:31Z</time>
      </trkpt>
      <trkpt lat="44.27472" lon="5.8538">
        <ele>610.5744629</ele>
        <time>2016-03-10T11:53:35Z</time>
      </trkpt>
      <trkpt lat="44.27452" lon="5.85352">
        <ele>610.5744629</ele>
        <time>2016-03-10T11:53:41Z</time>
      </trkpt>
      <trkpt lat="44.27438" lon="5.85337">
        <ele>609.6132813</ele>
        <time>2016-03-10T11:53:44Z</time>
      </trkpt>
      <trkpt lat="44.27427" lon="5.85321">
        <ele>609.1325684</ele>
        <time>2016-03-10T11:53:47Z</time>
      </trkpt>
      <trkpt lat="44.27414" lon="5.853">
        <ele>608.6518555</ele>
        <time>2016-03-10T11:53:53Z</time>
      </trkpt>
      <trkpt lat="44.27375" lon="5.85287">
        <ele>606.2485352</ele>
        <time>2016-03-10T11:54:05Z</time>
      </trkpt>
      <trkpt lat="44.27341" lon="5.85271">
        <ele>605.7680664</ele>
        <time>2016-03-10T11:54:12Z</time>
      </trkpt>
      <trkpt lat="44.27321" lon="5.85261">
        <ele>605.2873535</ele>
        <time>2016-03-10T11:54:16Z</time>
      </trkpt>
      <trkpt lat="44.27306" lon="5.85247">
        <ele>604.3261719</ele>
        <time>2016-03-10T11:54:19Z</time>
      </trkpt>
      <trkpt lat="44.27275" lon="5.85213">
        <ele>603.8452148</ele>
        <time>2016-03-10T11:54:25Z</time>
      </trkpt>
      <trkpt lat="44.27253" lon="5.85196">
        <ele>602.8837891</ele>
        <time>2016-03-10T11:54:29Z</time>
      </trkpt>
      <trkpt lat="44.27234" lon="5.85178">
        <ele>601.4418945</ele>
        <time>2016-03-10T11:54:33Z</time>
      </trkpt>
      <trkpt lat="44.27204" lon="5.85153">
        <ele>602.4030762</ele>
        <time>2016-03-10T11:54:39Z</time>
      </trkpt>
      <trkpt lat="44.27189" lon="5.8514">
        <ele>601.4418945</ele>
        <time>2016-03-10T11:54:42Z</time>
      </trkpt>
      <trkpt lat="44.27179" lon="5.85134">
        <ele>600</ele>
        <time>2016-03-10T11:54:44Z</time>
      </trkpt>
      <trkpt lat="44.27159" lon="5.8512">
        <ele>600.4807129</ele>
        <time>2016-03-10T11:54:48Z</time>
      </trkpt>
      <trkpt lat="44.27151" lon="5.85116">
        <ele>600.4807129</ele>
        <time>2016-03-10T11:54:50Z</time>
      </trkpt>
      <trkpt lat="44.27124" lon="5.851">
        <ele>600</ele>
        <time>2016-03-10T11:54:56Z</time>
      </trkpt>
      <trkpt lat="44.27106" lon="5.85082">
        <ele>601.4418945</ele>
        <time>2016-03-10T11:55:01Z</time>
      </trkpt>
      <trkpt lat="44.27093" lon="5.85071">
        <ele>601.9226074</ele>
        <time>2016-03-10T11:55:05Z</time>
      </trkpt>
      <trkpt lat="44.27055" lon="5.85051">
        <ele>600</ele>
        <time>2016-03-10T11:55:15Z</time>
      </trkpt>
      <trkpt lat="44.27042" lon="5.85048">
        <ele>600</ele>
        <time>2016-03-10T11:55:18Z</time>
      </trkpt>
      <trkpt lat="44.26981" lon="5.85027">
        <ele>600.4807129</ele>
        <time>2016-03-10T11:55:33Z</time>
      </trkpt>
      <trkpt lat="44.2695" lon="5.85018">
        <ele>601.9226074</ele>
        <time>2016-03-10T11:55:42Z</time>
      </trkpt>
      <trkpt lat="44.26927" lon="5.85016">
        <ele>603.364502</ele>
        <time>2016-03-10T11:55:49Z</time>
      </trkpt>
      <trkpt lat="44.26906" lon="5.85022">
        <ele>603.8452148</ele>
        <time>2016-03-10T11:56:02Z</time>
      </trkpt>
      <trkpt lat="44.26905" lon="5.85021">
        <ele>604.3261719</ele>
        <time>2016-03-10T11:56:21Z</time>
      </trkpt>
      <trkpt lat="44.26898" lon="5.85016">
        <ele>604.8066406</ele>
        <time>2016-03-10T11:56:26Z</time>
      </trkpt>
      <trkpt lat="44.26887" lon="5.85003">
        <ele>606.729248</ele>
        <time>2016-03-10T11:56:31Z</time>
      </trkpt>
      <trkpt lat="44.26884" lon="5.85">
        <ele>605.7680664</ele>
        <time>2016-03-10T11:56:33Z</time>
      </trkpt>
      <trkpt lat="44.26875" lon="5.84996">
        <ele>606.729248</ele>
        <time>2016-03-10T11:56:37Z</time>
      </trkpt>
      <trkpt lat="44.26865" lon="5.84989">
        <ele>607.6906738</ele>
        <time>2016-03-10T11:56:42Z</time>
      </trkpt>
      <trkpt lat="44.2686" lon="5.84981">
        <ele>607.6906738</ele>
        <time>2016-03-10T11:56:45Z</time>
      </trkpt>
      <trkpt lat="44.26833" lon="5.84962">
        <ele>610.09375</ele>
        <time>2016-03-10T11:56:57Z</time>
      </trkpt>
      <trkpt lat="44.2682" lon="5.84948">
        <ele>609.6132813</ele>
        <time>2016-03-10T11:57:04Z</time>
      </trkpt>
      <trkpt lat="44.26798" lon="5.84935">
        <ele>610.5744629</ele>
        <time>2016-03-10T11:57:15Z</time>
      </trkpt>
      <trkpt lat="44.26787" lon="5.84927">
        <ele>612.4970703</ele>
        <time>2016-03-10T11:57:20Z</time>
      </trkpt>
      <trkpt lat="44.26755" lon="5.84912">
        <ele>612.4970703</ele>
        <time>2016-03-10T11:57:33Z</time>
      </trkpt>
      <trkpt lat="44.26747" lon="5.8491">
        <ele>614.4196777</ele>
        <time>2016-03-10T11:57:36Z</time>
      </trkpt>
      <trkpt lat="44.26724" lon="5.84897">
        <ele>615.3811035</ele>
        <time>2016-03-10T11:57:48Z</time>
      </trkpt>
      <trkpt lat="44.2672" lon="5.84894">
        <ele>616.3422852</ele>
        <time>2016-03-10T11:57:50Z</time>
      </trkpt>
      <trkpt lat="44.267" lon="5.84878">
        <ele>617.7841797</ele>
        <time>2016-03-10T11:58:01Z</time>
      </trkpt>
      <trkpt lat="44.26691" lon="5.84872">
        <ele>618.2648926</ele>
        <time>2016-03-10T11:58:06Z</time>
      </trkpt>
      <trkpt lat="44.26681" lon="5.84864">
        <ele>618.2648926</ele>
        <time>2016-03-10T11:58:13Z</time>
      </trkpt>
      <trkpt lat="44.26665" lon="5.84854">
        <ele>619.2263184</ele>
        <time>2016-03-10T11:58:22Z</time>
      </trkpt>
      <trkpt lat="44.26633" lon="5.84834">
        <ele>621.1491699</ele>
        <time>2016-03-10T11:58:39Z</time>
      </trkpt>
      <trkpt lat="44.26613" lon="5.84812">
        <ele>623.0717773</ele>
        <time>2016-03-10T11:58:53Z</time>
      </trkpt>
      <trkpt lat="44.26598" lon="5.84794">
        <ele>624.032959</ele>
        <time>2016-03-10T11:59:04Z</time>
      </trkpt>
      <trkpt lat="44.26594" lon="5.84792">
        <ele>624.032959</ele>
        <time>2016-03-10T11:59:06Z</time>
      </trkpt>
      <trkpt lat="44.26586" lon="5.84772">
        <ele>625.4748535</ele>
        <time>2016-03-10T11:59:17Z</time>
      </trkpt>
      <trkpt lat="44.26585" lon="5.8477">
        <ele>624.9943848</ele>
        <time>2016-03-10T11:59:22Z</time>
      </trkpt>
      <trkpt lat="44.26587" lon="5.8476">
        <ele>625.4748535</ele>
        <time>2016-03-10T11:59:28Z</time>
      </trkpt>
      <trkpt lat="44.26598" lon="5.84715">
        <ele>627.8781738</ele>
        <time>2016-03-10T11:59:45Z</time>
      </trkpt>
      <trkpt lat="44.26615" lon="5.84682">
        <ele>629.8007813</ele>
        <time>2016-03-10T11:59:58Z</time>
      </trkpt>
      <trkpt lat="44.26629" lon="5.84663">
        <ele>630.2814941</ele>
        <time>2016-03-10T12:00:07Z</time>
      </trkpt>
      <trkpt lat="44.26651" lon="5.8463">
        <ele>631.7233887</ele>
        <time>2016-03-10T12:00:21Z</time>
      </trkpt>
      <trkpt lat="44.2666" lon="5.84614">
        <ele>632.2041016</ele>
        <time>2016-03-10T12:00:27Z</time>
      </trkpt>
      <trkpt lat="44.26661" lon="5.84579">
        <ele>632.6848145</ele>
        <time>2016-03-10T12:00:37Z</time>
      </trkpt>
      <trkpt lat="44.26673" lon="5.84528">
        <ele>633.6459961</ele>
        <time>2016-03-10T12:00:53Z</time>
      </trkpt>
      <trkpt lat="44.26669" lon="5.84484">
        <ele>635.0881348</ele>
        <time>2016-03-10T12:01:06Z</time>
      </trkpt>
      <trkpt lat="44.26667" lon="5.8445">
        <ele>635.5686035</ele>
        <time>2016-03-10T12:01:15Z</time>
      </trkpt>
      <trkpt lat="44.26669" lon="5.8444">
        <ele>636.0495605</ele>
        <time>2016-03-10T12:01:18Z</time>
      </trkpt>
      <trkpt lat="44.26665" lon="5.84418">
        <ele>636.0495605</ele>
        <time>2016-03-10T12:01:23Z</time>
      </trkpt>
      <trkpt lat="44.26665" lon="5.84395">
        <ele>636.0495605</ele>
        <time>2016-03-10T12:01:29Z</time>
      </trkpt>
      <trkpt lat="44.26656" lon="5.84342">
        <ele>635.5686035</ele>
        <time>2016-03-10T12:01:42Z</time>
      </trkpt>
      <trkpt lat="44.26619" lon="5.84315">
        <ele>637.4914551</ele>
        <time>2016-03-10T12:01:56Z</time>
      </trkpt>
      <trkpt lat="44.26609" lon="5.84311">
        <ele>637.4914551</ele>
        <time>2016-03-10T12:02:00Z</time>
      </trkpt>
      <trkpt lat="44.26573" lon="5.84282">
        <ele>639.4140625</ele>
        <time>2016-03-10T12:02:16Z</time>
      </trkpt>
      <trkpt lat="44.26565" lon="5.84273">
        <ele>639.8947754</ele>
        <time>2016-03-10T12:02:21Z</time>
      </trkpt>
      <trkpt lat="44.26542" lon="5.84251">
        <ele>640.855957</ele>
        <time>2016-03-10T12:02:33Z</time>
      </trkpt>
      <trkpt lat="44.26535" lon="5.84242">
        <ele>641.8173828</ele>
        <time>2016-03-10T12:02:37Z</time>
      </trkpt>
      <trkpt lat="44.26515" lon="5.8421">
        <ele>641.8173828</ele>
        <time>2016-03-10T12:02:52Z</time>
      </trkpt>
      <trkpt lat="44.26502" lon="5.84195">
        <ele>642.2980957</ele>
        <time>2016-03-10T12:03:00Z</time>
      </trkpt>
      <trkpt lat="44.26479" lon="5.84164">
        <ele>644.2207031</ele>
        <time>2016-03-10T12:03:15Z</time>
      </trkpt>
      <trkpt lat="44.26474" lon="5.84148">
        <ele>644.2207031</ele>
        <time>2016-03-10T12:03:20Z</time>
      </trkpt>
      <trkpt lat="44.26463" lon="5.84129">
        <ele>644.7011719</ele>
        <time>2016-03-10T12:03:27Z</time>
      </trkpt>
      <trkpt lat="44.2646" lon="5.8412">
        <ele>644.7011719</ele>
        <time>2016-03-10T12:03:31Z</time>
      </trkpt>
      <trkpt lat="44.26455" lon="5.84112">
        <ele>645.1818848</ele>
        <time>2016-03-10T12:03:35Z</time>
      </trkpt>
      <trkpt lat="44.26452" lon="5.84092">
        <ele>646.1433105</ele>
        <time>2016-03-10T12:03:40Z</time>
      </trkpt>
      <trkpt lat="44.26448" lon="5.8408">
        <ele>646.1433105</ele>
        <time>2016-03-10T12:03:47Z</time>
      </trkpt>
      <trkpt lat="44.26437" lon="5.84075">
        <ele>647.5852051</ele>
        <time>2016-03-10T12:03:56Z</time>
      </trkpt>
      <trkpt lat="44.26411" lon="5.84061">
        <ele>648.5463867</ele>
        <time>2016-03-10T12:04:08Z</time>
      </trkpt>
      <trkpt lat="44.26404" lon="5.84057">
        <ele>647.5852051</ele>
        <time>2016-03-10T12:04:44Z</time>
      </trkpt>
      <trkpt lat="44.26404" lon="5.84057">
        <ele>647.1044922</ele>
        <time>2016-03-10T12:04:53Z</time>
      </trkpt>
      <trkpt lat="44.2641" lon="5.84037">
        <ele>649.9885254</ele>
        <time>2016-03-10T12:05:17Z</time>
      </trkpt>
      <trkpt lat="44.26412" lon="5.8403">
        <ele>649.9885254</ele>
        <time>2016-03-10T12:05:21Z</time>
      </trkpt>
      <trkpt lat="44.26422" lon="5.84006">
        <ele>651.4304199</ele>
        <time>2016-03-10T12:05:40Z</time>
      </trkpt>
      <trkpt lat="44.26429" lon="5.83985">
        <ele>652.3918457</ele>
        <time>2016-03-10T12:06:01Z</time>
      </trkpt>
      <trkpt lat="44.26446" lon="5.83963">
        <ele>652.3918457</ele>
        <time>2016-03-10T12:06:24Z</time>
      </trkpt>
      <trkpt lat="44.26453" lon="5.83935">
        <ele>652.3918457</ele>
        <time>2016-03-10T12:06:51Z</time>
      </trkpt>
      <trkpt lat="44.26451" lon="5.83927">
        <ele>652.8725586</ele>
        <time>2016-03-10T12:07:18Z</time>
      </trkpt>
      <trkpt lat="44.26451" lon="5.83915">
        <ele>652.3918457</ele>
        <time>2016-03-10T12:07:39Z</time>
      </trkpt>
      <trkpt lat="44.26433" lon="5.83877">
        <ele>652.3918457</ele>
        <time>2016-03-10T12:07:54Z</time>
      </trkpt>
      <trkpt lat="44.26415" lon="5.83875">
        <ele>654.3146973</ele>
        <time>2016-03-10T12:08:05Z</time>
      </trkpt>
      <trkpt lat="44.26403" lon="5.83881">
        <ele>654.3146973</ele>
        <time>2016-03-10T12:08:25Z</time>
      </trkpt>
      <trkpt lat="44.26377" lon="5.83886">
        <ele>656.7177734</ele>
        <time>2016-03-10T12:08:52Z</time>
      </trkpt>
      <trkpt lat="44.26358" lon="5.83889">
        <ele>657.1984863</ele>
        <time>2016-03-10T12:09:15Z</time>
      </trkpt>
      <trkpt lat="44.26338" lon="5.83884">
        <ele>656.7177734</ele>
        <time>2016-03-10T12:09:38Z</time>
      </trkpt>
      <trkpt lat="44.26321" lon="5.83893">
        <ele>654.795166</ele>
        <time>2016-03-10T12:09:58Z</time>
      </trkpt>
      <trkpt lat="44.26312" lon="5.83892">
        <ele>653.8339844</ele>
        <time>2016-03-10T12:10:10Z</time>
      </trkpt>
      <trkpt lat="44.26293" lon="5.83898">
        <ele>651.9111328</ele>
        <time>2016-03-10T12:10:29Z</time>
      </trkpt>
      <trkpt lat="44.26278" lon="5.83908">
        <ele>651.4304199</ele>
        <time>2016-03-10T12:10:46Z</time>
      </trkpt>
      <trkpt lat="44.26273" lon="5.83917">
        <ele>651.4304199</ele>
        <time>2016-03-10T12:10:57Z</time>
      </trkpt>
      <trkpt lat="44.26273" lon="5.83923">
        <ele>651.4304199</ele>
        <time>2016-03-10T12:11:00Z</time>
      </trkpt>
      <trkpt lat="44.2627" lon="5.83931">
        <ele>650.949707</ele>
        <time>2016-03-10T12:11:06Z</time>
      </trkpt>
      <trkpt lat="44.26263" lon="5.83935">
        <ele>652.3918457</ele>
        <time>2016-03-10T12:11:21Z</time>
      </trkpt>
      <trkpt lat="44.26267" lon="5.83956">
        <ele>651.4304199</ele>
        <time>2016-03-10T12:11:35Z</time>
      </trkpt>
      <trkpt lat="44.2627" lon="5.83973">
        <ele>649.5078125</ele>
        <time>2016-03-10T12:11:52Z</time>
      </trkpt>
      <trkpt lat="44.26277" lon="5.83993">
        <ele>648.065918</ele>
        <time>2016-03-10T12:12:13Z</time>
      </trkpt>
      <trkpt lat="44.26282" lon="5.8401">
        <ele>646.6240234</ele>
        <time>2016-03-10T12:12:30Z</time>
      </trkpt>
      <trkpt lat="44.26283" lon="5.84014">
        <ele>646.1433105</ele>
        <time>2016-03-10T12:12:34Z</time>
      </trkpt>
      <trkpt lat="44.26285" lon="5.84021">
        <ele>645.6625977</ele>
        <time>2016-03-10T12:12:47Z</time>
      </trkpt>
      <trkpt lat="44.2629" lon="5.84023">
        <ele>645.1818848</ele>
        <time>2016-03-10T12:12:56Z</time>
      </trkpt>
      <trkpt lat="44.26312" lon="5.84046">
        <ele>646.1433105</ele>
        <time>2016-03-10T12:13:09Z</time>
      </trkpt>
      <trkpt lat="44.2632" lon="5.84056">
        <ele>646.6240234</ele>
        <time>2016-03-10T12:13:15Z</time>
      </trkpt>
      <trkpt lat="44.26323" lon="5.84055">
        <ele>646.6240234</ele>
        <time>2016-03-10T12:13:17Z</time>
      </trkpt>
      <trkpt lat="44.26332" lon="5.84059">
        <ele>646.6240234</ele>
        <time>2016-03-10T12:13:20Z</time>
      </trkpt>
      <trkpt lat="44.26358" lon="5.84064">
        <ele>647.5852051</ele>
        <time>2016-03-10T12:13:34Z</time>
      </trkpt>
      <trkpt lat="44.2639" lon="5.84063">
        <ele>646.6240234</ele>
        <time>2016-03-10T12:13:46Z</time>
      </trkpt>
      <trkpt lat="44.2641" lon="5.84063">
        <ele>647.1044922</ele>
        <time>2016-03-10T12:13:55Z</time>
      </trkpt>
      <trkpt lat="44.26413" lon="5.84065">
        <ele>646.6240234</ele>
        <time>2016-03-10T12:13:56Z</time>
      </trkpt>
      <trkpt lat="44.26422" lon="5.84069">
        <ele>646.6240234</ele>
        <time>2016-03-10T12:13:58Z</time>
      </trkpt>
      <trkpt lat="44.26441" lon="5.84084">
        <ele>644.7011719</ele>
        <time>2016-03-10T12:14:04Z</time>
      </trkpt>
      <trkpt lat="44.26441" lon="5.84099">
        <ele>644.7011719</ele>
        <time>2016-03-10T12:14:09Z</time>
      </trkpt>
      <trkpt lat="44.26441" lon="5.84104">
        <ele>642.7788086</ele>
        <time>2016-03-10T12:14:24Z</time>
      </trkpt>
      <trkpt lat="44.26426" lon="5.84146">
        <ele>639.8947754</ele>
        <time>2016-03-10T12:14:35Z</time>
      </trkpt>
      <trkpt lat="44.2642" lon="5.84156">
        <ele>638.9335938</ele>
        <time>2016-03-10T12:14:45Z</time>
      </trkpt>
      <trkpt lat="44.26419" lon="5.84163">
        <ele>637.972168</ele>
        <time>2016-03-10T12:15:07Z</time>
      </trkpt>
      <trkpt lat="44.26433" lon="5.84128">
        <ele>640.3754883</ele>
        <time>2016-03-10T12:15:20Z</time>
      </trkpt>
      <trkpt lat="44.26435" lon="5.84123">
        <ele>639.8947754</ele>
        <time>2016-03-10T12:15:22Z</time>
      </trkpt>
      <trkpt lat="44.26438" lon="5.84111">
        <ele>641.3366699</ele>
        <time>2016-03-10T12:15:27Z</time>
      </trkpt>
      <trkpt lat="44.26443" lon="5.84105">
        <ele>642.2980957</ele>
        <time>2016-03-10T12:15:30Z</time>
      </trkpt>
      <trkpt lat="44.26451" lon="5.84106">
        <ele>643.2592773</ele>
        <time>2016-03-10T12:15:34Z</time>
      </trkpt>
      <trkpt lat="44.26464" lon="5.84134">
        <ele>641.3366699</ele>
        <time>2016-03-10T12:15:46Z</time>
      </trkpt>
      <trkpt lat="44.26468" lon="5.84147">
        <ele>641.3366699</ele>
        <time>2016-03-10T12:15:51Z</time>
      </trkpt>
      <trkpt lat="44.26498" lon="5.8419">
        <ele>641.3366699</ele>
        <time>2016-03-10T12:16:04Z</time>
      </trkpt>
      <trkpt lat="44.26499" lon="5.84192">
        <ele>641.3366699</ele>
        <time>2016-03-10T12:16:05Z</time>
      </trkpt>
      <trkpt lat="44.265" lon="5.84197">
        <ele>639.4140625</ele>
        <time>2016-03-10T12:16:07Z</time>
      </trkpt>
      <trkpt lat="44.265" lon="5.84203">
        <ele>639.4140625</ele>
        <time>2016-03-10T12:16:21Z</time>
      </trkpt>
      <trkpt lat="44.265" lon="5.84202">
        <ele>638.9335938</ele>
        <time>2016-03-10T12:16:28Z</time>
      </trkpt>
      <trkpt lat="44.265" lon="5.84203">
        <ele>638.4528809</ele>
        <time>2016-03-10T12:16:31Z</time>
      </trkpt>
      <trkpt lat="44.26504" lon="5.84205">
        <ele>638.9335938</ele>
        <time>2016-03-10T12:16:35Z</time>
      </trkpt>
      <trkpt lat="44.2651" lon="5.84216">
        <ele>638.4528809</ele>
        <time>2016-03-10T12:16:41Z</time>
      </trkpt>
      <trkpt lat="44.26528" lon="5.84243">
        <ele>637.972168</ele>
        <time>2016-03-10T12:16:52Z</time>
      </trkpt>
      <trkpt lat="44.26539" lon="5.84257">
        <ele>639.4140625</ele>
        <time>2016-03-10T12:16:58Z</time>
      </trkpt>
      <trkpt lat="44.26563" lon="5.84278">
        <ele>639.4140625</ele>
        <time>2016-03-10T12:17:08Z</time>
      </trkpt>
      <trkpt lat="44.26585" lon="5.8429">
        <ele>639.4140625</ele>
        <time>2016-03-10T12:17:13Z</time>
      </trkpt>
      <trkpt lat="44.26605" lon="5.84305">
        <ele>637.972168</ele>
        <time>2016-03-10T12:17:17Z</time>
      </trkpt>
      <trkpt lat="44.26616" lon="5.8431">
        <ele>638.4528809</ele>
        <time>2016-03-10T12:17:19Z</time>
      </trkpt>
      <trkpt lat="44.26635" lon="5.84322">
        <ele>635.0881348</ele>
        <time>2016-03-10T12:17:23Z</time>
      </trkpt>
      <trkpt lat="44.26644" lon="5.84329">
        <ele>635.5686035</ele>
        <time>2016-03-10T12:17:25Z</time>
      </trkpt>
      <trkpt lat="44.26656" lon="5.84347">
        <ele>634.6074219</ele>
        <time>2016-03-10T12:17:33Z</time>
      </trkpt>
      <trkpt lat="44.26656" lon="5.84348">
        <ele>633.6459961</ele>
        <time>2016-03-10T12:17:43Z</time>
      </trkpt>
      <trkpt lat="44.26657" lon="5.84364">
        <ele>633.6459961</ele>
        <time>2016-03-10T12:17:49Z</time>
      </trkpt>
      <trkpt lat="44.26662" lon="5.84389">
        <ele>633.6459961</ele>
        <time>2016-03-10T12:17:56Z</time>
      </trkpt>
      <trkpt lat="44.26665" lon="5.84474">
        <ele>635.0881348</ele>
        <time>2016-03-10T12:18:13Z</time>
      </trkpt>
      <trkpt lat="44.26667" lon="5.84515">
        <ele>633.6459961</ele>
        <time>2016-03-10T12:18:21Z</time>
      </trkpt>
      <trkpt lat="44.26666" lon="5.84541">
        <ele>633.6459961</ele>
        <time>2016-03-10T12:18:26Z</time>
      </trkpt>
      <trkpt lat="44.26656" lon="5.84562">
        <ele>632.2041016</ele>
        <time>2016-03-10T12:18:36Z</time>
      </trkpt>
      <trkpt lat="44.26656" lon="5.84564">
        <ele>632.2041016</ele>
        <time>2016-03-10T12:18:54Z</time>
      </trkpt>
      <trkpt lat="44.26658" lon="5.84616">
        <ele>630.762207</ele>
        <time>2016-03-10T12:19:07Z</time>
      </trkpt>
      <trkpt lat="44.26657" lon="5.84621">
        <ele>630.762207</ele>
        <time>2016-03-10T12:19:08Z</time>
      </trkpt>
      <trkpt lat="44.26648" lon="5.84644">
        <ele>630.2814941</ele>
        <time>2016-03-10T12:19:12Z</time>
      </trkpt>
      <trkpt lat="44.26636" lon="5.84659">
        <ele>630.2814941</ele>
        <time>2016-03-10T12:19:15Z</time>
      </trkpt>
      <trkpt lat="44.26591" lon="5.8473">
        <ele>626.9169922</ele>
        <time>2016-03-10T12:19:27Z</time>
      </trkpt>
      <trkpt lat="44.26587" lon="5.84745">
        <ele>626.4362793</ele>
        <time>2016-03-10T12:19:29Z</time>
      </trkpt>
      <trkpt lat="44.26581" lon="5.84766">
        <ele>625.4748535</ele>
        <time>2016-03-10T12:19:38Z</time>
      </trkpt>
      <trkpt lat="44.26581" lon="5.84767">
        <ele>624.9943848</ele>
        <time>2016-03-10T12:19:54Z</time>
      </trkpt>
      <trkpt lat="44.26586" lon="5.84765">
        <ele>624.5136719</ele>
        <time>2016-03-10T12:19:59Z</time>
      </trkpt>
      <trkpt lat="44.26594" lon="5.8474">
        <ele>624.9943848</ele>
        <time>2016-03-10T12:20:08Z</time>
      </trkpt>
      <trkpt lat="44.26608" lon="5.84702">
        <ele>627.8781738</ele>
        <time>2016-03-10T12:20:19Z</time>
      </trkpt>
      <trkpt lat="44.2661" lon="5.847">
        <ele>627.8781738</ele>
        <time>2016-03-10T12:20:20Z</time>
      </trkpt>
      <trkpt lat="44.26635" lon="5.84668">
        <ele>628.8395996</ele>
        <time>2016-03-10T12:20:34Z</time>
      </trkpt>
      <trkpt lat="44.26663" lon="5.84625">
        <ele>630.762207</ele>
        <time>2016-03-10T12:20:53Z</time>
      </trkpt>
      <trkpt lat="44.26665" lon="5.84577">
        <ele>631.7233887</ele>
        <time>2016-03-10T12:21:08Z</time>
      </trkpt>
      <trkpt lat="44.26669" lon="5.84554">
        <ele>632.2041016</ele>
        <time>2016-03-10T12:21:14Z</time>
      </trkpt>
      <trkpt lat="44.26672" lon="5.8451">
        <ele>633.1652832</ele>
        <time>2016-03-10T12:21:25Z</time>
      </trkpt>
      <trkpt lat="44.26671" lon="5.8449">
        <ele>633.1652832</ele>
        <time>2016-03-10T12:21:32Z</time>
      </trkpt>
      <trkpt lat="44.26667" lon="5.84452">
        <ele>634.6074219</ele>
        <time>2016-03-10T12:21:43Z</time>
      </trkpt>
      <trkpt lat="44.26668" lon="5.84406">
        <ele>635.5686035</ele>
        <time>2016-03-10T12:21:56Z</time>
      </trkpt>
      <trkpt lat="44.26663" lon="5.84357">
        <ele>636.0495605</ele>
        <time>2016-03-10T12:22:07Z</time>
      </trkpt>
      <trkpt lat="44.26656" lon="5.84344">
        <ele>635.5686035</ele>
        <time>2016-03-10T12:22:10Z</time>
      </trkpt>
      <trkpt lat="44.26593" lon="5.84294">
        <ele>637.972168</ele>
        <time>2016-03-10T12:22:29Z</time>
      </trkpt>
      <trkpt lat="44.26567" lon="5.84277">
        <ele>639.8947754</ele>
        <time>2016-03-10T12:22:42Z</time>
      </trkpt>
      <trkpt lat="44.26558" lon="5.84272">
        <ele>640.855957</ele>
        <time>2016-03-10T12:22:47Z</time>
      </trkpt>
      <trkpt lat="44.26526" lon="5.84238">
        <ele>641.3366699</ele>
        <time>2016-03-10T12:23:03Z</time>
      </trkpt>
      <trkpt lat="44.26501" lon="5.84201">
        <ele>642.2980957</ele>
        <time>2016-03-10T12:23:16Z</time>
      </trkpt>
      <trkpt lat="44.26479" lon="5.84172">
        <ele>643.2592773</ele>
        <time>2016-03-10T12:23:29Z</time>
      </trkpt>
      <trkpt lat="44.26468" lon="5.84162">
        <ele>643.7399902</ele>
        <time>2016-03-10T12:23:36Z</time>
      </trkpt>
      <trkpt lat="44.26449" lon="5.84115">
        <ele>644.2207031</ele>
        <time>2016-03-10T12:23:50Z</time>
      </trkpt>
      <trkpt lat="44.26444" lon="5.84097">
        <ele>644.2207031</ele>
        <time>2016-03-10T12:23:56Z</time>
      </trkpt>
      <trkpt lat="44.26444" lon="5.84087">
        <ele>645.1818848</ele>
        <time>2016-03-10T12:24:01Z</time>
      </trkpt>
      <trkpt lat="44.26441" lon="5.84083">
        <ele>645.1818848</ele>
        <time>2016-03-10T12:24:03Z</time>
      </trkpt>
      <trkpt lat="44.26429" lon="5.84076">
        <ele>645.1818848</ele>
        <time>2016-03-10T12:24:09Z</time>
      </trkpt>
      <trkpt lat="44.26402" lon="5.84066">
        <ele>648.065918</ele>
        <time>2016-03-10T12:24:21Z</time>
      </trkpt>
      <trkpt lat="44.26401" lon="5.84066">
        <ele>648.065918</ele>
        <time>2016-03-10T12:24:22Z</time>
      </trkpt>
      <trkpt lat="44.26394" lon="5.8407">
        <ele>648.065918</ele>
        <time>2016-03-10T12:24:34Z</time>
      </trkpt>
      <trkpt lat="44.26395" lon="5.84067">
        <ele>647.1044922</ele>
        <time>2016-03-10T12:24:52Z</time>
      </trkpt>
      <trkpt lat="44.26401" lon="5.84065">
        <ele>645.6625977</ele>
        <time>2016-03-10T12:24:55Z</time>
      </trkpt>
      <trkpt lat="44.26404" lon="5.84064">
        <ele>646.1433105</ele>
        <time>2016-03-10T12:24:57Z</time>
      </trkpt>
      <trkpt lat="44.26411" lon="5.84067">
        <ele>647.5852051</ele>
        <time>2016-03-10T12:25:00Z</time>
      </trkpt>
      <trkpt lat="44.26434" lon="5.84079">
        <ele>645.6625977</ele>
        <time>2016-03-10T12:25:07Z</time>
      </trkpt>
      <trkpt lat="44.26442" lon="5.84088">
        <ele>645.1818848</ele>
        <time>2016-03-10T12:25:10Z</time>
      </trkpt>
      <trkpt lat="44.26444" lon="5.84101">
        <ele>644.2207031</ele>
        <time>2016-03-10T12:25:15Z</time>
      </trkpt>
      <trkpt lat="44.26431" lon="5.84138">
        <ele>643.2592773</ele>
        <time>2016-03-10T12:25:21Z</time>
      </trkpt>
      <trkpt lat="44.26423" lon="5.84152">
        <ele>641.8173828</ele>
        <time>2016-03-10T12:25:23Z</time>
      </trkpt>
      <trkpt lat="44.26415" lon="5.84167">
        <ele>642.2980957</ele>
        <time>2016-03-10T12:25:25Z</time>
      </trkpt>
      <trkpt lat="44.26409" lon="5.84184">
        <ele>640.855957</ele>
        <time>2016-03-10T12:25:27Z</time>
      </trkpt>
      <trkpt lat="44.26401" lon="5.84205">
        <ele>638.4528809</ele>
        <time>2016-03-10T12:25:30Z</time>
      </trkpt>
      <trkpt lat="44.26384" lon="5.84238">
        <ele>636.5302734</ele>
        <time>2016-03-10T12:25:35Z</time>
      </trkpt>
      <trkpt lat="44.26374" lon="5.84287">
        <ele>634.6074219</ele>
        <time>2016-03-10T12:25:43Z</time>
      </trkpt>
      <trkpt lat="44.26375" lon="5.8429">
        <ele>634.6074219</ele>
        <time>2016-03-10T12:25:52Z</time>
      </trkpt>
      <trkpt lat="44.26376" lon="5.8429">
        <ele>633.6459961</ele>
        <time>2016-03-10T12:25:55Z</time>
      </trkpt>
      <trkpt lat="44.26373" lon="5.84304">
        <ele>634.6074219</ele>
        <time>2016-03-10T12:26:00Z</time>
      </trkpt>
      <trkpt lat="44.26361" lon="5.84361">
        <ele>632.2041016</ele>
        <time>2016-03-10T12:26:10Z</time>
      </trkpt>
      <trkpt lat="44.26337" lon="5.84443">
        <ele>629.3200684</ele>
        <time>2016-03-10T12:26:21Z</time>
      </trkpt>
      <trkpt lat="44.26318" lon="5.84495">
        <ele>625.4748535</ele>
        <time>2016-03-10T12:26:27Z</time>
      </trkpt>
      <trkpt lat="44.26315" lon="5.84503">
        <ele>625.4748535</ele>
        <time>2016-03-10T12:26:28Z</time>
      </trkpt>
      <trkpt lat="44.26295" lon="5.84578">
        <ele>622.5910645</ele>
        <time>2016-03-10T12:26:37Z</time>
      </trkpt>
      <trkpt lat="44.26293" lon="5.84588">
        <ele>621.6296387</ele>
        <time>2016-03-10T12:26:38Z</time>
      </trkpt>
      <trkpt lat="44.26276" lon="5.8463">
        <ele>618.2648926</ele>
        <time>2016-03-10T12:26:43Z</time>
      </trkpt>
      <trkpt lat="44.26273" lon="5.84638">
        <ele>618.2648926</ele>
        <time>2016-03-10T12:26:44Z</time>
      </trkpt>
      <trkpt lat="44.26265" lon="5.84652">
        <ele>616.822998</ele>
        <time>2016-03-10T12:26:46Z</time>
      </trkpt>
      <trkpt lat="44.26261" lon="5.84659">
        <ele>616.3422852</ele>
        <time>2016-03-10T12:26:47Z</time>
      </trkpt>
      <trkpt lat="44.26253" lon="5.84669">
        <ele>615.3811035</ele>
        <time>2016-03-10T12:26:49Z</time>
      </trkpt>
      <trkpt lat="44.26243" lon="5.84673">
        <ele>614.4196777</ele>
        <time>2016-03-10T12:26:51Z</time>
      </trkpt>
      <trkpt lat="44.26219" lon="5.84663">
        <ele>611.5358887</ele>
        <time>2016-03-10T12:26:55Z</time>
      </trkpt>
      <trkpt lat="44.26208" lon="5.84655">
        <ele>611.0551758</ele>
        <time>2016-03-10T12:26:57Z</time>
      </trkpt>
      <trkpt lat="44.26174" lon="5.84655">
        <ele>608.6518555</ele>
        <time>2016-03-10T12:27:02Z</time>
      </trkpt>
      <trkpt lat="44.26162" lon="5.84661">
        <ele>606.729248</ele>
        <time>2016-03-10T12:27:04Z</time>
      </trkpt>
      <trkpt lat="44.26149" lon="5.84681">
        <ele>605.7680664</ele>
        <time>2016-03-10T12:27:07Z</time>
      </trkpt>
      <trkpt lat="44.26143" lon="5.84696">
        <ele>604.3261719</ele>
        <time>2016-03-10T12:27:09Z</time>
      </trkpt>
      <trkpt lat="44.26137" lon="5.84714">
        <ele>602.4030762</ele>
        <time>2016-03-10T12:27:11Z</time>
      </trkpt>
      <trkpt lat="44.26127" lon="5.84766">
        <ele>599.0385742</ele>
        <time>2016-03-10T12:27:17Z</time>
      </trkpt>
      <trkpt lat="44.26125" lon="5.84772">
        <ele>598.5578613</ele>
        <time>2016-03-10T12:27:18Z</time>
      </trkpt>
      <trkpt lat="44.26115" lon="5.84788">
        <ele>597.5966797</ele>
        <time>2016-03-10T12:27:22Z</time>
      </trkpt>
      <trkpt lat="44.26102" lon="5.84801">
        <ele>594.7126465</ele>
        <time>2016-03-10T12:27:26Z</time>
      </trkpt>
      <trkpt lat="44.26096" lon="5.84806">
        <ele>593.270752</ele>
        <time>2016-03-10T12:27:27Z</time>
      </trkpt>
      <trkpt lat="44.26062" lon="5.84802">
        <ele>590.3869629</ele>
        <time>2016-03-10T12:27:32Z</time>
      </trkpt>
      <trkpt lat="44.26057" lon="5.84798">
        <ele>590.3869629</ele>
        <time>2016-03-10T12:27:33Z</time>
      </trkpt>
      <trkpt lat="44.26053" lon="5.84794">
        <ele>589.90625</ele>
        <time>2016-03-10T12:27:34Z</time>
      </trkpt>
      <trkpt lat="44.26042" lon="5.84786">
        <ele>588.9450684</ele>
        <time>2016-03-10T12:27:36Z</time>
      </trkpt>
      <trkpt lat="44.2603" lon="5.8478">
        <ele>588.4643555</ele>
        <time>2016-03-10T12:27:38Z</time>
      </trkpt>
      <trkpt lat="44.26008" lon="5.84779">
        <ele>586.060791</ele>
        <time>2016-03-10T12:27:42Z</time>
      </trkpt>
      <trkpt lat="44.25996" lon="5.8478">
        <ele>585.0996094</ele>
        <time>2016-03-10T12:27:44Z</time>
      </trkpt>
      <trkpt lat="44.25984" lon="5.84777">
        <ele>583.6574707</ele>
        <time>2016-03-10T12:27:46Z</time>
      </trkpt>
      <trkpt lat="44.25975" lon="5.84774">
        <ele>581.7348633</ele>
        <time>2016-03-10T12:27:48Z</time>
      </trkpt>
      <trkpt lat="44.25937" lon="5.84798">
        <ele>578.3703613</ele>
        <time>2016-03-10T12:27:55Z</time>
      </trkpt>
      <trkpt lat="44.25933" lon="5.84801">
        <ele>578.3703613</ele>
        <time>2016-03-10T12:27:56Z</time>
      </trkpt>
      <trkpt lat="44.25902" lon="5.84818">
        <ele>574.0444336</ele>
        <time>2016-03-10T12:28:02Z</time>
      </trkpt>
      <trkpt lat="44.25895" lon="5.84821">
        <ele>574.0444336</ele>
        <time>2016-03-10T12:28:03Z</time>
      </trkpt>
      <trkpt lat="44.25882" lon="5.84826">
        <ele>572.6025391</ele>
        <time>2016-03-10T12:28:05Z</time>
      </trkpt>
      <trkpt lat="44.25877" lon="5.84827">
        <ele>570.6796875</ele>
        <time>2016-03-10T12:28:06Z</time>
      </trkpt>
      <trkpt lat="44.25862" lon="5.84843">
        <ele>568.7570801</ele>
        <time>2016-03-10T12:28:10Z</time>
      </trkpt>
      <trkpt lat="44.25831" lon="5.84851">
        <ele>565.873291</ele>
        <time>2016-03-10T12:28:15Z</time>
      </trkpt>
      <trkpt lat="44.25815" lon="5.84854">
        <ele>564.4311523</ele>
        <time>2016-03-10T12:28:17Z</time>
      </trkpt>
      <trkpt lat="44.25811" lon="5.84853">
        <ele>563.4699707</ele>
        <time>2016-03-10T12:28:18Z</time>
      </trkpt>
      <trkpt lat="44.25791" lon="5.84866">
        <ele>562.0280762</ele>
        <time>2016-03-10T12:28:22Z</time>
      </trkpt>
      <trkpt lat="44.25764" lon="5.84873">
        <ele>559.6247559</ele>
        <time>2016-03-10T12:28:26Z</time>
      </trkpt>
      <trkpt lat="44.2574" lon="5.84872">
        <ele>556.7407227</ele>
        <time>2016-03-10T12:28:30Z</time>
      </trkpt>
      <trkpt lat="44.2572" lon="5.84871">
        <ele>554.8178711</ele>
        <time>2016-03-10T12:28:33Z</time>
      </trkpt>
      <trkpt lat="44.25702" lon="5.8487">
        <ele>553.3759766</ele>
        <time>2016-03-10T12:28:36Z</time>
      </trkpt>
      <trkpt lat="44.25677" lon="5.84879">
        <ele>551.4533691</ele>
        <time>2016-03-10T12:28:40Z</time>
      </trkpt>
      <trkpt lat="44.25632" lon="5.84913">
        <ele>547.6081543</ele>
        <time>2016-03-10T12:28:47Z</time>
      </trkpt>
      <trkpt lat="44.25592" lon="5.84943">
        <ele>544.2436523</ele>
        <time>2016-03-10T12:28:53Z</time>
      </trkpt>
      <trkpt lat="44.25586" lon="5.8495">
        <ele>544.2436523</ele>
        <time>2016-03-10T12:28:54Z</time>
      </trkpt>
      <trkpt lat="44.25559" lon="5.84983">
        <ele>541.84021</ele>
        <time>2016-03-10T12:28:58Z</time>
      </trkpt>
      <trkpt lat="44.25547" lon="5.85">
        <ele>537.9949951</ele>
        <time>2016-03-10T12:29:00Z</time>
      </trkpt>
      <trkpt lat="44.25541" lon="5.85008">
        <ele>537.9949951</ele>
        <time>2016-03-10T12:29:01Z</time>
      </trkpt>
      <trkpt lat="44.2553" lon="5.85018">
        <ele>535.5915527</ele>
        <time>2016-03-10T12:29:03Z</time>
      </trkpt>
      <trkpt lat="44.25528" lon="5.85021">
        <ele>534.1496582</ele>
        <time>2016-03-10T12:29:08Z</time>
      </trkpt>
      <trkpt lat="44.25526" lon="5.85022">
        <ele>536.0723877</ele>
        <time>2016-03-10T12:29:31Z</time>
      </trkpt>
      <trkpt lat="44.25505" lon="5.85039">
        <ele>535.5915527</ele>
        <time>2016-03-10T12:29:43Z</time>
      </trkpt>
      <trkpt lat="44.2549" lon="5.85059">
        <ele>535.1109619</ele>
        <time>2016-03-10T12:29:52Z</time>
      </trkpt>
      <trkpt lat="44.25486" lon="5.85062">
        <ele>534.6303711</ele>
        <time>2016-03-10T12:29:53Z</time>
      </trkpt>
      <trkpt lat="44.25426" lon="5.8508">
        <ele>536.5531006</ele>
        <time>2016-03-10T12:30:07Z</time>
      </trkpt>
      <trkpt lat="44.25392" lon="5.85095">
        <ele>536.5531006</ele>
        <time>2016-03-10T12:30:16Z</time>
      </trkpt>
      <trkpt lat="44.25372" lon="5.85104">
        <ele>534.6303711</ele>
        <time>2016-03-10T12:30:22Z</time>
      </trkpt>
      <trkpt lat="44.25365" lon="5.85108">
        <ele>536.0723877</ele>
        <time>2016-03-10T12:30:24Z</time>
      </trkpt>
      <trkpt lat="44.25327" lon="5.85144">
        <ele>537.0336914</ele>
        <time>2016-03-10T12:30:37Z</time>
      </trkpt>
      <trkpt lat="44.25288" lon="5.85188">
        <ele>536.0723877</ele>
        <time>2016-03-10T12:30:51Z</time>
      </trkpt>
      <trkpt lat="44.25281" lon="5.85196">
        <ele>535.5915527</ele>
        <time>2016-03-10T12:30:53Z</time>
      </trkpt>
      <trkpt lat="44.25266" lon="5.8521">
        <ele>536.0723877</ele>
        <time>2016-03-10T12:30:58Z</time>
      </trkpt>
      <trkpt lat="44.25238" lon="5.85232">
        <ele>536.0723877</ele>
        <time>2016-03-10T12:31:06Z</time>
      </trkpt>
      <trkpt lat="44.25212" lon="5.85259">
        <ele>534.6303711</ele>
        <time>2016-03-10T12:31:14Z</time>
      </trkpt>
      <trkpt lat="44.25207" lon="5.85263">
        <ele>534.6303711</ele>
        <time>2016-03-10T12:31:15Z</time>
      </trkpt>
      <trkpt lat="44.25183" lon="5.85275">
        <ele>533.1883545</ele>
        <time>2016-03-10T12:31:22Z</time>
      </trkpt>
      <trkpt lat="44.25147" lon="5.85302">
        <ele>532.2270508</ele>
        <time>2016-03-10T12:31:32Z</time>
      </trkpt>
      <trkpt lat="44.2511" lon="5.85354">
        <ele>531.7463379</ele>
        <time>2016-03-10T12:31:43Z</time>
      </trkpt>
      <trkpt lat="44.25087" lon="5.85381">
        <ele>532.2270508</ele>
        <time>2016-03-10T12:31:51Z</time>
      </trkpt>
      <trkpt lat="44.2504" lon="5.85427">
        <ele>531.2657471</ele>
        <time>2016-03-10T12:32:05Z</time>
      </trkpt>
      <trkpt lat="44.2501" lon="5.85453">
        <ele>529.3431396</ele>
        <time>2016-03-10T12:32:14Z</time>
      </trkpt>
      <trkpt lat="44.24996" lon="5.85479">
        <ele>529.8237305</ele>
        <time>2016-03-10T12:32:19Z</time>
      </trkpt>
      <trkpt lat="44.25019" lon="5.85534">
        <ele>531.2657471</ele>
        <time>2016-03-10T12:32:33Z</time>
      </trkpt>
      <trkpt lat="44.25048" lon="5.85569">
        <ele>531.7463379</ele>
        <time>2016-03-10T12:32:47Z</time>
      </trkpt>
      <trkpt lat="44.25048" lon="5.85579">
        <ele>532.7077637</ele>
        <time>2016-03-10T12:32:51Z</time>
      </trkpt>
      <trkpt lat="44.25042" lon="5.85589">
        <ele>533.1883545</ele>
        <time>2016-03-10T12:32:55Z</time>
      </trkpt>
      <trkpt lat="44.25032" lon="5.85606">
        <ele>533.6689453</ele>
        <time>2016-03-10T12:33:04Z</time>
      </trkpt>
      <trkpt lat="44.2502" lon="5.85625">
        <ele>534.6303711</ele>
        <time>2016-03-10T12:33:13Z</time>
      </trkpt>
      <trkpt lat="44.25008" lon="5.85649">
        <ele>536.0723877</ele>
        <time>2016-03-10T12:33:24Z</time>
      </trkpt>
      <trkpt lat="44.24993" lon="5.85676">
        <ele>537.9949951</ele>
        <time>2016-03-10T12:33:39Z</time>
      </trkpt>
      <trkpt lat="44.24978" lon="5.85697">
        <ele>539.9176025</ele>
        <time>2016-03-10T12:33:50Z</time>
      </trkpt>
      <trkpt lat="44.24978" lon="5.8571">
        <ele>541.3594971</ele>
        <time>2016-03-10T12:33:57Z</time>
      </trkpt>
      <trkpt lat="44.24981" lon="5.85723">
        <ele>542.8015137</ele>
        <time>2016-03-10T12:34:02Z</time>
      </trkpt>
      <trkpt lat="44.24984" lon="5.85729">
        <ele>543.2821045</ele>
        <time>2016-03-10T12:34:06Z</time>
      </trkpt>
      <trkpt lat="44.24998" lon="5.85754">
        <ele>547.1274414</ele>
        <time>2016-03-10T12:34:23Z</time>
      </trkpt>
      <trkpt lat="44.25" lon="5.85755">
        <ele>547.6081543</ele>
        <time>2016-03-10T12:34:24Z</time>
      </trkpt>
      <trkpt lat="44.2501" lon="5.85779">
        <ele>550.0114746</ele>
        <time>2016-03-10T12:34:40Z</time>
      </trkpt>
      <trkpt lat="44.25015" lon="5.85788">
        <ele>551.4533691</ele>
        <time>2016-03-10T12:34:46Z</time>
      </trkpt>
      <trkpt lat="44.25025" lon="5.85796">
        <ele>552.8952637</ele>
        <time>2016-03-10T12:34:55Z</time>
      </trkpt>
      <trkpt lat="44.25038" lon="5.85809">
        <ele>555.298584</ele>
        <time>2016-03-10T12:35:09Z</time>
      </trkpt>
      <trkpt lat="44.25043" lon="5.85811">
        <ele>555.298584</ele>
        <time>2016-03-10T12:35:12Z</time>
      </trkpt>
      <trkpt lat="44.25051" lon="5.85811">
        <ele>556.7407227</ele>
        <time>2016-03-10T12:35:18Z</time>
      </trkpt>
      <trkpt lat="44.25064" lon="5.85823">
        <ele>558.1828613</ele>
        <time>2016-03-10T12:35:34Z</time>
      </trkpt>
      <trkpt lat="44.25077" lon="5.85831">
        <ele>560.1052246</ele>
        <time>2016-03-10T12:35:46Z</time>
      </trkpt>
      <trkpt lat="44.25095" lon="5.85837">
        <ele>562.5085449</ele>
        <time>2016-03-10T12:36:02Z</time>
      </trkpt>
      <trkpt lat="44.25099" lon="5.8584">
        <ele>563.4699707</ele>
        <time>2016-03-10T12:36:06Z</time>
      </trkpt>
      <trkpt lat="44.25105" lon="5.85842">
        <ele>563.4699707</ele>
        <time>2016-03-10T12:36:10Z</time>
      </trkpt>
      <trkpt lat="44.2511" lon="5.85842">
        <ele>563.9504395</ele>
        <time>2016-03-10T12:36:13Z</time>
      </trkpt>
      <trkpt lat="44.25126" lon="5.85849">
        <ele>564.9118652</ele>
        <time>2016-03-10T12:36:23Z</time>
      </trkpt>
      <trkpt lat="44.25129" lon="5.85853">
        <ele>565.3925781</ele>
        <time>2016-03-10T12:36:26Z</time>
      </trkpt>
      <trkpt lat="44.25146" lon="5.85873">
        <ele>565.873291</ele>
        <time>2016-03-10T12:36:38Z</time>
      </trkpt>
      <trkpt lat="44.2515" lon="5.85882">
        <ele>566.3537598</ele>
        <time>2016-03-10T12:36:42Z</time>
      </trkpt>
      <trkpt lat="44.25157" lon="5.85897">
        <ele>566.3537598</ele>
        <time>2016-03-10T12:36:47Z</time>
      </trkpt>
      <trkpt lat="44.252" lon="5.8594">
        <ele>565.3925781</ele>
        <time>2016-03-10T12:37:00Z</time>
      </trkpt>
      <trkpt lat="44.25226" lon="5.85966">
        <ele>565.3925781</ele>
        <time>2016-03-10T12:37:07Z</time>
      </trkpt>
      <trkpt lat="44.25241" lon="5.85983">
        <ele>564.9118652</ele>
        <time>2016-03-10T12:37:11Z</time>
      </trkpt>
      <trkpt lat="44.25276" lon="5.86012">
        <ele>565.3925781</ele>
        <time>2016-03-10T12:37:22Z</time>
      </trkpt>
      <trkpt lat="44.2528" lon="5.86012">
        <ele>565.3925781</ele>
        <time>2016-03-10T12:37:36Z</time>
      </trkpt>
      <trkpt lat="44.25281" lon="5.86012">
        <ele>564.9118652</ele>
        <time>2016-03-10T12:38:02Z</time>
      </trkpt>
      <trkpt lat="44.25288" lon="5.86004">
        <ele>565.3925781</ele>
        <time>2016-03-10T12:38:07Z</time>
      </trkpt>
      <trkpt lat="44.25299" lon="5.86004">
        <ele>565.873291</ele>
        <time>2016-03-10T12:38:11Z</time>
      </trkpt>
      <trkpt lat="44.2531" lon="5.86009">
        <ele>565.873291</ele>
        <time>2016-03-10T12:38:22Z</time>
      </trkpt>
      <trkpt lat="44.2529" lon="5.86002">
        <ele>566.3537598</ele>
        <time>2016-03-10T12:38:32Z</time>
      </trkpt>
      <trkpt lat="44.25266" lon="5.86036">
        <ele>565.3925781</ele>
        <time>2016-03-10T12:38:42Z</time>
      </trkpt>
      <trkpt lat="44.25263" lon="5.86053">
        <ele>565.3925781</ele>
        <time>2016-03-10T12:38:46Z</time>
      </trkpt>
      <trkpt lat="44.25259" lon="5.86059">
        <ele>564.4311523</ele>
        <time>2016-03-10T12:38:56Z</time>
      </trkpt>
      <trkpt lat="44.25258" lon="5.86066">
        <ele>563.4699707</ele>
        <time>2016-03-10T12:39:12Z</time>
      </trkpt>
      <trkpt lat="44.25239" lon="5.86118">
        <ele>565.873291</ele>
        <time>2016-03-10T12:39:25Z</time>
      </trkpt>
      <trkpt lat="44.25213" lon="5.86139">
        <ele>568.2763672</ele>
        <time>2016-03-10T12:39:36Z</time>
      </trkpt>
      <trkpt lat="44.25211" lon="5.86147">
        <ele>569.7185059</ele>
        <time>2016-03-10T12:39:39Z</time>
      </trkpt>
      <trkpt lat="44.25213" lon="5.8615">
        <ele>568.7570801</ele>
        <time>2016-03-10T12:39:49Z</time>
      </trkpt>
      <trkpt lat="44.25215" lon="5.86152">
        <ele>568.7570801</ele>
        <time>2016-03-10T12:40:03Z</time>
      </trkpt>
      <trkpt lat="44.25235" lon="5.86147">
        <ele>570.6796875</ele>
        <time>2016-03-10T12:40:12Z</time>
      </trkpt>
      <trkpt lat="44.25259" lon="5.86159">
        <ele>571.6408691</ele>
        <time>2016-03-10T12:40:21Z</time>
      </trkpt>
      <trkpt lat="44.25293" lon="5.86196">
        <ele>571.6408691</ele>
        <time>2016-03-10T12:40:38Z</time>
      </trkpt>
      <trkpt lat="44.25313" lon="5.86215">
        <ele>573.5639648</ele>
        <time>2016-03-10T12:40:47Z</time>
      </trkpt>
      <trkpt lat="44.25343" lon="5.86247">
        <ele>574.0444336</ele>
        <time>2016-03-10T12:40:59Z</time>
      </trkpt>
      <trkpt lat="44.25392" lon="5.86301">
        <ele>573.5639648</ele>
        <time>2016-03-10T12:41:19Z</time>
      </trkpt>
      <trkpt lat="44.25433" lon="5.86339">
        <ele>575.0058594</ele>
        <time>2016-03-10T12:41:36Z</time>
      </trkpt>
      <trkpt lat="44.2545" lon="5.8635">
        <ele>575.967041</ele>
        <time>2016-03-10T12:41:44Z</time>
      </trkpt>
      <trkpt lat="44.25475" lon="5.86368">
        <ele>577.8896484</ele>
        <time>2016-03-10T12:41:56Z</time>
      </trkpt>
      <trkpt lat="44.25493" lon="5.86394">
        <ele>580.2929688</ele>
        <time>2016-03-10T12:42:09Z</time>
      </trkpt>
      <trkpt lat="44.25495" lon="5.86397">
        <ele>580.7736816</ele>
        <time>2016-03-10T12:42:11Z</time>
      </trkpt>
      <trkpt lat="44.25502" lon="5.86405">
        <ele>581.2543945</ele>
        <time>2016-03-10T12:42:15Z</time>
      </trkpt>
      <trkpt lat="44.25531" lon="5.86433">
        <ele>582.6962891</ele>
        <time>2016-03-10T12:42:31Z</time>
      </trkpt>
      <trkpt lat="44.25558" lon="5.86482">
        <ele>583.1767578</ele>
        <time>2016-03-10T12:42:47Z</time>
      </trkpt>
      <trkpt lat="44.25571" lon="5.86529">
        <ele>581.7348633</ele>
        <time>2016-03-10T12:42:57Z</time>
      </trkpt>
      <trkpt lat="44.25604" lon="5.86598">
        <ele>581.7348633</ele>
        <time>2016-03-10T12:43:12Z</time>
      </trkpt>
      <trkpt lat="44.2564" lon="5.86627">
        <ele>584.6188965</ele>
        <time>2016-03-10T12:43:28Z</time>
      </trkpt>
      <trkpt lat="44.25677" lon="5.86634">
        <ele>585.5800781</ele>
        <time>2016-03-10T12:43:42Z</time>
      </trkpt>
      <trkpt lat="44.25712" lon="5.86644">
        <ele>586.5415039</ele>
        <time>2016-03-10T12:43:56Z</time>
      </trkpt>
      <trkpt lat="44.25719" lon="5.86644">
        <ele>586.5415039</ele>
        <time>2016-03-10T12:43:59Z</time>
      </trkpt>
      <trkpt lat="44.25756" lon="5.86656">
        <ele>588.4643555</ele>
        <time>2016-03-10T12:44:15Z</time>
      </trkpt>
      <trkpt lat="44.25796" lon="5.86673">
        <ele>590.8674316</ele>
        <time>2016-03-10T12:44:35Z</time>
      </trkpt>
      <trkpt lat="44.25807" lon="5.86677">
        <ele>592.3095703</ele>
        <time>2016-03-10T12:44:41Z</time>
      </trkpt>
      <trkpt lat="44.25846" lon="5.86686">
        <ele>589.90625</ele>
        <time>2016-03-10T12:44:55Z</time>
      </trkpt>
      <trkpt lat="44.2585" lon="5.86689">
        <ele>589.4255371</ele>
        <time>2016-03-10T12:44:57Z</time>
      </trkpt>
      <trkpt lat="44.2587" lon="5.86713">
        <ele>588.9450684</ele>
        <time>2016-03-10T12:45:07Z</time>
      </trkpt>
      <trkpt lat="44.25885" lon="5.86738">
        <ele>590.3869629</ele>
        <time>2016-03-10T12:45:17Z</time>
      </trkpt>
      <trkpt lat="44.25914" lon="5.8678">
        <ele>590.3869629</ele>
        <time>2016-03-10T12:45:33Z</time>
      </trkpt>
      <trkpt lat="44.25933" lon="5.86813">
        <ele>590.8674316</ele>
        <time>2016-03-10T12:45:47Z</time>
      </trkpt>
      <trkpt lat="44.2595" lon="5.86838">
        <ele>591.8288574</ele>
        <time>2016-03-10T12:45:58Z</time>
      </trkpt>
      <trkpt lat="44.25955" lon="5.86842">
        <ele>592.7902832</ele>
        <time>2016-03-10T12:46:01Z</time>
      </trkpt>
      <trkpt lat="44.25974" lon="5.86861">
        <ele>594.2321777</ele>
        <time>2016-03-10T12:46:13Z</time>
      </trkpt>
      <trkpt lat="44.25996" lon="5.86882">
        <ele>596.635498</ele>
        <time>2016-03-10T12:46:26Z</time>
      </trkpt>
      <trkpt lat="44.26013" lon="5.86907">
        <ele>598.5578613</ele>
        <time>2016-03-10T12:46:40Z</time>
      </trkpt>
      <trkpt lat="44.26019" lon="5.86915">
        <ele>599.5192871</ele>
        <time>2016-03-10T12:46:45Z</time>
      </trkpt>
      <trkpt lat="44.2603" lon="5.86933">
        <ele>600.9611816</ele>
        <time>2016-03-10T12:46:55Z</time>
      </trkpt>
      <trkpt lat="44.26035" lon="5.8694">
        <ele>600.9611816</ele>
        <time>2016-03-10T12:46:59Z</time>
      </trkpt>
      <trkpt lat="44.26041" lon="5.86955">
        <ele>601.9226074</ele>
        <time>2016-03-10T12:47:06Z</time>
      </trkpt>
      <trkpt lat="44.26048" lon="5.86968">
        <ele>601.9226074</ele>
        <time>2016-03-10T12:47:12Z</time>
      </trkpt>
      <trkpt lat="44.2605" lon="5.86974">
        <ele>601.4418945</ele>
        <time>2016-03-10T12:47:15Z</time>
      </trkpt>
      <trkpt lat="44.26065" lon="5.87001">
        <ele>601.9226074</ele>
        <time>2016-03-10T12:47:26Z</time>
      </trkpt>
      <trkpt lat="44.26084" lon="5.87057">
        <ele>601.4418945</ele>
        <time>2016-03-10T12:47:43Z</time>
      </trkpt>
      <trkpt lat="44.26086" lon="5.87069">
        <ele>600.9611816</ele>
        <time>2016-03-10T12:47:45Z</time>
      </trkpt>
      <trkpt lat="44.26096" lon="5.87146">
        <ele>600</ele>
        <time>2016-03-10T12:47:56Z</time>
      </trkpt>
      <trkpt lat="44.26125" lon="5.87198">
        <ele>599.5192871</ele>
        <time>2016-03-10T12:48:08Z</time>
      </trkpt>
      <trkpt lat="44.26132" lon="5.87271">
        <ele>597.1159668</ele>
        <time>2016-03-10T12:48:20Z</time>
      </trkpt>
      <trkpt lat="44.26146" lon="5.87376">
        <ele>593.270752</ele>
        <time>2016-03-10T12:48:31Z</time>
      </trkpt>
      <trkpt lat="44.26149" lon="5.87388">
        <ele>593.270752</ele>
        <time>2016-03-10T12:48:32Z</time>
      </trkpt>
      <trkpt lat="44.26152" lon="5.874">
        <ele>591.8288574</ele>
        <time>2016-03-10T12:48:33Z</time>
      </trkpt>
      <trkpt lat="44.26158" lon="5.87428">
        <ele>589.4255371</ele>
        <time>2016-03-10T12:48:36Z</time>
      </trkpt>
      <trkpt lat="44.26172" lon="5.87488">
        <ele>585.0996094</ele>
        <time>2016-03-10T12:48:43Z</time>
      </trkpt>
      <trkpt lat="44.26173" lon="5.87493">
        <ele>585.0996094</ele>
        <time>2016-03-10T12:48:44Z</time>
      </trkpt>
      <trkpt lat="44.26168" lon="5.87536">
        <ele>581.7348633</ele>
        <time>2016-03-10T12:48:54Z</time>
      </trkpt>
      <trkpt lat="44.26132" lon="5.87613">
        <ele>579.8122559</ele>
        <time>2016-03-10T12:49:08Z</time>
      </trkpt>
      <trkpt lat="44.26125" lon="5.87668">
        <ele>582.2155762</ele>
        <time>2016-03-10T12:49:20Z</time>
      </trkpt>
      <trkpt lat="44.26161" lon="5.87698">
        <ele>581.2543945</ele>
        <time>2016-03-10T12:49:31Z</time>
      </trkpt>
      <trkpt lat="44.26216" lon="5.87725">
        <ele>580.2929688</ele>
        <time>2016-03-10T12:49:44Z</time>
      </trkpt>
      <trkpt lat="44.26234" lon="5.87736">
        <ele>580.2929688</ele>
        <time>2016-03-10T12:49:48Z</time>
      </trkpt>
      <trkpt lat="44.2626" lon="5.87756">
        <ele>579.331543</ele>
        <time>2016-03-10T12:49:54Z</time>
      </trkpt>
      <trkpt lat="44.26336" lon="5.8782">
        <ele>577.8896484</ele>
        <time>2016-03-10T12:50:12Z</time>
      </trkpt>
      <trkpt lat="44.26348" lon="5.87844">
        <ele>577.8896484</ele>
        <time>2016-03-10T12:50:16Z</time>
      </trkpt>
      <trkpt lat="44.2635" lon="5.87882">
        <ele>577.4091797</ele>
        <time>2016-03-10T12:50:21Z</time>
      </trkpt>
      <trkpt lat="44.26343" lon="5.87925">
        <ele>575.967041</ele>
        <time>2016-03-10T12:50:27Z</time>
      </trkpt>
      <trkpt lat="44.26352" lon="5.87965">
        <ele>576.9284668</ele>
        <time>2016-03-10T12:50:32Z</time>
      </trkpt>
      <trkpt lat="44.26356" lon="5.87972">
        <ele>575.967041</ele>
        <time>2016-03-10T12:50:33Z</time>
      </trkpt>
      <trkpt lat="44.26367" lon="5.87994">
        <ele>574.5251465</ele>
        <time>2016-03-10T12:50:36Z</time>
      </trkpt>
      <trkpt lat="44.26407" lon="5.88028">
        <ele>571.6408691</ele>
        <time>2016-03-10T12:50:43Z</time>
      </trkpt>
      <trkpt lat="44.26431" lon="5.88035">
        <ele>569.7185059</ele>
        <time>2016-03-10T12:50:46Z</time>
      </trkpt>
      <trkpt lat="44.26458" lon="5.88042">
        <ele>567.3151855</ele>
        <time>2016-03-10T12:50:49Z</time>
      </trkpt>
      <trkpt lat="44.26476" lon="5.88046">
        <ele>569.7185059</ele>
        <time>2016-03-10T12:50:51Z</time>
      </trkpt>
      <trkpt lat="44.26484" lon="5.8805">
        <ele>565.873291</ele>
        <time>2016-03-10T12:50:52Z</time>
      </trkpt>
      <trkpt lat="44.26492" lon="5.88053">
        <ele>565.873291</ele>
        <time>2016-03-10T12:50:53Z</time>
      </trkpt>
      <trkpt lat="44.26516" lon="5.8807">
        <ele>563.9504395</ele>
        <time>2016-03-10T12:50:56Z</time>
      </trkpt>
      <trkpt lat="44.26531" lon="5.88082">
        <ele>562.9892578</ele>
        <time>2016-03-10T12:50:58Z</time>
      </trkpt>
      <trkpt lat="44.26539" lon="5.88089">
        <ele>559.6247559</ele>
        <time>2016-03-10T12:50:59Z</time>
      </trkpt>
      <trkpt lat="44.26546" lon="5.88097">
        <ele>559.6247559</ele>
        <time>2016-03-10T12:51:00Z</time>
      </trkpt>
      <trkpt lat="44.26605" lon="5.88181">
        <ele>557.2214355</ele>
        <time>2016-03-10T12:51:10Z</time>
      </trkpt>
      <trkpt lat="44.26615" lon="5.88195">
        <ele>559.144043</ele>
        <time>2016-03-10T12:51:12Z</time>
      </trkpt>
      <trkpt lat="44.26619" lon="5.88202">
        <ele>556.2600098</ele>
        <time>2016-03-10T12:51:13Z</time>
      </trkpt>
      <trkpt lat="44.26647" lon="5.88238">
        <ele>554.3374023</ele>
        <time>2016-03-10T12:51:19Z</time>
      </trkpt>
      <trkpt lat="44.2666" lon="5.88253">
        <ele>553.8566895</ele>
        <time>2016-03-10T12:51:22Z</time>
      </trkpt>
      <trkpt lat="44.26703" lon="5.88288">
        <ele>554.3374023</ele>
        <time>2016-03-10T12:51:33Z</time>
      </trkpt>
      <trkpt lat="44.26748" lon="5.88306">
        <ele>554.8178711</ele>
        <time>2016-03-10T12:51:46Z</time>
      </trkpt>
      <trkpt lat="44.26795" lon="5.88335">
        <ele>552.8952637</ele>
        <time>2016-03-10T12:51:58Z</time>
      </trkpt>
      <trkpt lat="44.26835" lon="5.88366">
        <ele>552.4145508</ele>
        <time>2016-03-10T12:52:09Z</time>
      </trkpt>
      <trkpt lat="44.26838" lon="5.88368">
        <ele>552.4145508</ele>
        <time>2016-03-10T12:52:10Z</time>
      </trkpt>
      <trkpt lat="44.2687" lon="5.88388">
        <ele>552.4145508</ele>
        <time>2016-03-10T12:52:18Z</time>
      </trkpt>
      <trkpt lat="44.26896" lon="5.88419">
        <ele>550.4921875</ele>
        <time>2016-03-10T12:52:24Z</time>
      </trkpt>
      <trkpt lat="44.26917" lon="5.88435">
        <ele>550.4921875</ele>
        <time>2016-03-10T12:52:28Z</time>
      </trkpt>
      <trkpt lat="44.26946" lon="5.88447">
        <ele>550.4921875</ele>
        <time>2016-03-10T12:52:33Z</time>
      </trkpt>
      <trkpt lat="44.27016" lon="5.88453">
        <ele>550.4921875</ele>
        <time>2016-03-10T12:52:48Z</time>
      </trkpt>
      <trkpt lat="44.27078" lon="5.8847">
        <ele>550.0114746</ele>
        <time>2016-03-10T12:53:04Z</time>
      </trkpt>
      <trkpt lat="44.27148" lon="5.8851">
        <ele>549.0500488</ele>
        <time>2016-03-10T12:53:21Z</time>
      </trkpt>
      <trkpt lat="44.27165" lon="5.88512">
        <ele>549.0500488</ele>
        <time>2016-03-10T12:53:25Z</time>
      </trkpt>
      <trkpt lat="44.27244" lon="5.8852">
        <ele>549.0500488</ele>
        <time>2016-03-10T12:53:44Z</time>
      </trkpt>
      <trkpt lat="44.27294" lon="5.88531">
        <ele>550.0114746</ele>
        <time>2016-03-10T12:53:59Z</time>
      </trkpt>
      <trkpt lat="44.273" lon="5.88533">
        <ele>550.9726563</ele>
        <time>2016-03-10T12:54:01Z</time>
      </trkpt>
      <trkpt lat="44.27354" lon="5.88557">
        <ele>550.4921875</ele>
        <time>2016-03-10T12:54:16Z</time>
      </trkpt>
      <trkpt lat="44.2741" lon="5.88587">
        <ele>550.4921875</ele>
        <time>2016-03-10T12:54:32Z</time>
      </trkpt>
      <trkpt lat="44.2744" lon="5.88592">
        <ele>551.4533691</ele>
        <time>2016-03-10T12:54:41Z</time>
      </trkpt>
      <trkpt lat="44.275" lon="5.88602">
        <ele>551.934082</ele>
        <time>2016-03-10T12:54:58Z</time>
      </trkpt>
      <trkpt lat="44.27556" lon="5.88611">
        <ele>553.3759766</ele>
        <time>2016-03-10T12:55:16Z</time>
      </trkpt>
      <trkpt lat="44.27561" lon="5.88619">
        <ele>552.4145508</ele>
        <time>2016-03-10T12:55:18Z</time>
      </trkpt>
      <trkpt lat="44.27584" lon="5.88672">
        <ele>550.0114746</ele>
        <time>2016-03-10T12:55:27Z</time>
      </trkpt>
      <trkpt lat="44.27588" lon="5.88683">
        <ele>551.4533691</ele>
        <time>2016-03-10T12:55:29Z</time>
      </trkpt>
      <trkpt lat="44.27622" lon="5.88747">
        <ele>553.3759766</ele>
        <time>2016-03-10T12:55:44Z</time>
      </trkpt>
      <trkpt lat="44.27667" lon="5.88768">
        <ele>551.934082</ele>
        <time>2016-03-10T12:55:56Z</time>
      </trkpt>
      <trkpt lat="44.27714" lon="5.88803">
        <ele>551.934082</ele>
        <time>2016-03-10T12:56:13Z</time>
      </trkpt>
      <trkpt lat="44.27765" lon="5.88831">
        <ele>552.4145508</ele>
        <time>2016-03-10T12:56:30Z</time>
      </trkpt>
      <trkpt lat="44.27811" lon="5.8886">
        <ele>553.3759766</ele>
        <time>2016-03-10T12:56:48Z</time>
      </trkpt>
      <trkpt lat="44.27834" lon="5.88902">
        <ele>554.3374023</ele>
        <time>2016-03-10T12:57:01Z</time>
      </trkpt>
      <trkpt lat="44.2786" lon="5.88943">
        <ele>555.298584</ele>
        <time>2016-03-10T12:57:15Z</time>
      </trkpt>
      <trkpt lat="44.27894" lon="5.88976">
        <ele>556.7407227</ele>
        <time>2016-03-10T12:57:29Z</time>
      </trkpt>
      <trkpt lat="44.27909" lon="5.89024">
        <ele>556.2600098</ele>
        <time>2016-03-10T12:57:42Z</time>
      </trkpt>
      <trkpt lat="44.27945" lon="5.89024">
        <ele>557.2214355</ele>
        <time>2016-03-10T12:57:54Z</time>
      </trkpt>
      <trkpt lat="44.2803" lon="5.89029">
        <ele>559.144043</ele>
        <time>2016-03-10T12:58:24Z</time>
      </trkpt>
      <trkpt lat="44.28083" lon="5.89021">
        <ele>560.1052246</ele>
        <time>2016-03-10T12:58:44Z</time>
      </trkpt>
      <trkpt lat="44.28121" lon="5.89">
        <ele>560.1052246</ele>
        <time>2016-03-10T12:58:59Z</time>
      </trkpt>
      <trkpt lat="44.2815" lon="5.89006">
        <ele>561.0666504</ele>
        <time>2016-03-10T12:59:11Z</time>
      </trkpt>
      <trkpt lat="44.28164" lon="5.89069">
        <ele>563.4699707</ele>
        <time>2016-03-10T12:59:29Z</time>
      </trkpt>
      <trkpt lat="44.28164" lon="5.89072">
        <ele>563.4699707</ele>
        <time>2016-03-10T12:59:30Z</time>
      </trkpt>
      <trkpt lat="44.28164" lon="5.8908">
        <ele>563.9504395</ele>
        <time>2016-03-10T12:59:33Z</time>
      </trkpt>
      <trkpt lat="44.28171" lon="5.89091">
        <ele>564.4311523</ele>
        <time>2016-03-10T12:59:41Z</time>
      </trkpt>
      <trkpt lat="44.28173" lon="5.89093">
        <ele>564.4311523</ele>
        <time>2016-03-10T12:59:57Z</time>
      </trkpt>
      <trkpt lat="44.28178" lon="5.89089">
        <ele>566.3537598</ele>
        <time>2016-03-10T13:00:01Z</time>
      </trkpt>
      <trkpt lat="44.28211" lon="5.89076">
        <ele>566.3537598</ele>
        <time>2016-03-10T13:00:15Z</time>
      </trkpt>
      <trkpt lat="44.28232" lon="5.8907">
        <ele>566.3537598</ele>
        <time>2016-03-10T13:00:23Z</time>
      </trkpt>
      <trkpt lat="44.28251" lon="5.89113">
        <ele>568.2763672</ele>
        <time>2016-03-10T13:00:38Z</time>
      </trkpt>
      <trkpt lat="44.28285" lon="5.89157">
        <ele>569.237793</ele>
        <time>2016-03-10T13:00:56Z</time>
      </trkpt>
      <trkpt lat="44.28323" lon="5.89184">
        <ele>570.6796875</ele>
        <time>2016-03-10T13:01:14Z</time>
      </trkpt>
      <trkpt lat="44.28366" lon="5.89213">
        <ele>571.6408691</ele>
        <time>2016-03-10T13:01:32Z</time>
      </trkpt>
      <trkpt lat="44.28379" lon="5.89224">
        <ele>571.1604004</ele>
        <time>2016-03-10T13:01:37Z</time>
      </trkpt>
      <trkpt lat="44.28409" lon="5.8925">
        <ele>569.237793</ele>
        <time>2016-03-10T13:01:46Z</time>
      </trkpt>
      <trkpt lat="44.28428" lon="5.89261">
        <ele>571.6408691</ele>
        <time>2016-03-10T13:01:51Z</time>
      </trkpt>
      <trkpt lat="44.28454" lon="5.89275">
        <ele>569.237793</ele>
        <time>2016-03-10T13:01:58Z</time>
      </trkpt>
      <trkpt lat="44.28493" lon="5.89298">
        <ele>568.2763672</ele>
        <time>2016-03-10T13:02:07Z</time>
      </trkpt>
      <trkpt lat="44.28537" lon="5.89345">
        <ele>568.2763672</ele>
        <time>2016-03-10T13:02:19Z</time>
      </trkpt>
      <trkpt lat="44.28605" lon="5.89386">
        <ele>567.3151855</ele>
        <time>2016-03-10T13:02:37Z</time>
      </trkpt>
      <trkpt lat="44.28647" lon="5.89434">
        <ele>566.8344727</ele>
        <time>2016-03-10T13:02:52Z</time>
      </trkpt>
      <trkpt lat="44.28698" lon="5.89462">
        <ele>567.3151855</ele>
        <time>2016-03-10T13:03:09Z</time>
      </trkpt>
      <trkpt lat="44.28705" lon="5.89467">
        <ele>567.7956543</ele>
        <time>2016-03-10T13:03:12Z</time>
      </trkpt>
      <trkpt lat="44.28711" lon="5.89485">
        <ele>569.7185059</ele>
        <time>2016-03-10T13:03:17Z</time>
      </trkpt>
      <trkpt lat="44.28709" lon="5.89586">
        <ele>569.237793</ele>
        <time>2016-03-10T13:03:41Z</time>
      </trkpt>
      <trkpt lat="44.2871" lon="5.89644">
        <ele>571.6408691</ele>
        <time>2016-03-10T13:03:59Z</time>
      </trkpt>
      <trkpt lat="44.28711" lon="5.89674">
        <ele>573.5639648</ele>
        <time>2016-03-10T13:04:10Z</time>
      </trkpt>
      <trkpt lat="44.28714" lon="5.89717">
        <ele>575.4863281</ele>
        <time>2016-03-10T13:04:25Z</time>
      </trkpt>
      <trkpt lat="44.28712" lon="5.89751">
        <ele>577.4091797</ele>
        <time>2016-03-10T13:04:39Z</time>
      </trkpt>
      <trkpt lat="44.28709" lon="5.89788">
        <ele>578.8510742</ele>
        <time>2016-03-10T13:04:55Z</time>
      </trkpt>
      <trkpt lat="44.28738" lon="5.89792">
        <ele>579.8122559</ele>
        <time>2016-03-10T13:05:10Z</time>
      </trkpt>
      <trkpt lat="44.2878" lon="5.89793">
        <ele>578.8510742</ele>
        <time>2016-03-10T13:05:30Z</time>
      </trkpt>
      <trkpt lat="44.28784" lon="5.89792">
        <ele>578.8510742</ele>
        <time>2016-03-10T13:05:45Z</time>
      </trkpt>
      <trkpt lat="44.28784" lon="5.89792">
        <ele>578.3703613</ele>
        <time>2016-03-10T13:06:03Z</time>
      </trkpt>
      <trkpt lat="44.28785" lon="5.89792">
        <ele>578.8510742</ele>
        <time>2016-03-10T13:06:25Z</time>
      </trkpt>
      <trkpt lat="44.28803" lon="5.89785">
        <ele>580.2929688</ele>
        <time>2016-03-10T13:06:34Z</time>
      </trkpt>
      <trkpt lat="44.28846" lon="5.89777">
        <ele>580.7736816</ele>
        <time>2016-03-10T13:06:47Z</time>
      </trkpt>
      <trkpt lat="44.28869" lon="5.89772">
        <ele>578.8510742</ele>
        <time>2016-03-10T13:06:54Z</time>
      </trkpt>
      <trkpt lat="44.28938" lon="5.89762">
        <ele>579.8122559</ele>
        <time>2016-03-10T13:07:13Z</time>
      </trkpt>
      <trkpt lat="44.28954" lon="5.89761">
        <ele>578.8510742</ele>
        <time>2016-03-10T13:07:17Z</time>
      </trkpt>
      <trkpt lat="44.29024" lon="5.8976">
        <ele>577.4091797</ele>
        <time>2016-03-10T13:07:36Z</time>
      </trkpt>
      <trkpt lat="44.29043" lon="5.89759">
        <ele>579.331543</ele>
        <time>2016-03-10T13:07:43Z</time>
      </trkpt>
      <trkpt lat="44.2906" lon="5.8976">
        <ele>581.7348633</ele>
        <time>2016-03-10T13:07:50Z</time>
      </trkpt>
      <trkpt lat="44.29096" lon="5.89762">
        <ele>583.1767578</ele>
        <time>2016-03-10T13:08:06Z</time>
      </trkpt>
      <trkpt lat="44.29127" lon="5.89764">
        <ele>583.6574707</ele>
        <time>2016-03-10T13:08:22Z</time>
      </trkpt>
      <trkpt lat="44.29151" lon="5.89764">
        <ele>585.5800781</ele>
        <time>2016-03-10T13:08:34Z</time>
      </trkpt>
      <trkpt lat="44.29153" lon="5.89765">
        <ele>585.5800781</ele>
        <time>2016-03-10T13:08:35Z</time>
      </trkpt>
      <trkpt lat="44.29168" lon="5.89762">
        <ele>587.0219727</ele>
        <time>2016-03-10T13:08:43Z</time>
      </trkpt>
      <trkpt lat="44.29188" lon="5.89744">
        <ele>588.4643555</ele>
        <time>2016-03-10T13:08:55Z</time>
      </trkpt>
      <trkpt lat="44.29208" lon="5.89708">
        <ele>591.3481445</ele>
        <time>2016-03-10T13:09:12Z</time>
      </trkpt>
      <trkpt lat="44.29228" lon="5.89674">
        <ele>592.3095703</ele>
        <time>2016-03-10T13:09:25Z</time>
      </trkpt>
      <trkpt lat="44.29259" lon="5.89635">
        <ele>593.270752</ele>
        <time>2016-03-10T13:09:42Z</time>
      </trkpt>
      <trkpt lat="44.29296" lon="5.89609">
        <ele>593.270752</ele>
        <time>2016-03-10T13:09:56Z</time>
      </trkpt>
      <trkpt lat="44.29305" lon="5.89603">
        <ele>594.7126465</ele>
        <time>2016-03-10T13:09:59Z</time>
      </trkpt>
      <trkpt lat="44.29366" lon="5.89584">
        <ele>593.270752</ele>
        <time>2016-03-10T13:10:17Z</time>
      </trkpt>
      <trkpt lat="44.29433" lon="5.89577">
        <ele>593.270752</ele>
        <time>2016-03-10T13:10:36Z</time>
      </trkpt>
      <trkpt lat="44.29483" lon="5.89571">
        <ele>592.7902832</ele>
        <time>2016-03-10T13:10:50Z</time>
      </trkpt>
      <trkpt lat="44.29549" lon="5.89543">
        <ele>592.3095703</ele>
        <time>2016-03-10T13:11:02Z</time>
      </trkpt>
      <trkpt lat="44.29606" lon="5.89522">
        <ele>589.4255371</ele>
        <time>2016-03-10T13:11:09Z</time>
      </trkpt>
      <trkpt lat="44.29676" lon="5.89523">
        <ele>586.060791</ele>
        <time>2016-03-10T13:11:17Z</time>
      </trkpt>
      <trkpt lat="44.29727" lon="5.89526">
        <ele>582.6962891</ele>
        <time>2016-03-10T13:11:24Z</time>
      </trkpt>
      <trkpt lat="44.29744" lon="5.89527">
        <ele>584.1381836</ele>
        <time>2016-03-10T13:11:27Z</time>
      </trkpt>
      <trkpt lat="44.29753" lon="5.89527">
        <ele>584.1381836</ele>
        <time>2016-03-10T13:11:29Z</time>
      </trkpt>
      <trkpt lat="44.29819" lon="5.89527">
        <ele>585.5800781</ele>
        <time>2016-03-10T13:11:48Z</time>
      </trkpt>
      <trkpt lat="44.29853" lon="5.89519">
        <ele>585.0996094</ele>
        <time>2016-03-10T13:11:57Z</time>
      </trkpt>
      <trkpt lat="44.29865" lon="5.89514">
        <ele>584.6188965</ele>
        <time>2016-03-10T13:12:00Z</time>
      </trkpt>
      <trkpt lat="44.29958" lon="5.89488">
        <ele>584.1381836</ele>
        <time>2016-03-10T13:12:22Z</time>
      </trkpt>
      <trkpt lat="44.30059" lon="5.89455">
        <ele>583.1767578</ele>
        <time>2016-03-10T13:12:44Z</time>
      </trkpt>
      <trkpt lat="44.30132" lon="5.89435">
        <ele>581.2543945</ele>
        <time>2016-03-10T13:13:00Z</time>
      </trkpt>
      <trkpt lat="44.3021" lon="5.8941">
        <ele>581.7348633</ele>
        <time>2016-03-10T13:13:19Z</time>
      </trkpt>
      <trkpt lat="44.30244" lon="5.89398">
        <ele>581.2543945</ele>
        <time>2016-03-10T13:13:27Z</time>
      </trkpt>
      <trkpt lat="44.30287" lon="5.89389">
        <ele>581.7348633</ele>
        <time>2016-03-10T13:13:38Z</time>
      </trkpt>
      <trkpt lat="44.30352" lon="5.89365">
        <ele>583.1767578</ele>
        <time>2016-03-10T13:13:58Z</time>
      </trkpt>
      <trkpt lat="44.30404" lon="5.89351">
        <ele>585.0996094</ele>
        <time>2016-03-10T13:14:17Z</time>
      </trkpt>
      <trkpt lat="44.30458" lon="5.89332">
        <ele>585.5800781</ele>
        <time>2016-03-10T13:14:34Z</time>
      </trkpt>
      <trkpt lat="44.30475" lon="5.89329">
        <ele>586.060791</ele>
        <time>2016-03-10T13:14:38Z</time>
      </trkpt>
      <trkpt lat="44.30527" lon="5.89314">
        <ele>584.6188965</ele>
        <time>2016-03-10T13:14:50Z</time>
      </trkpt>
      <trkpt lat="44.30577" lon="5.89302">
        <ele>584.1381836</ele>
        <time>2016-03-10T13:15:03Z</time>
      </trkpt>
      <trkpt lat="44.306" lon="5.89295">
        <ele>584.1381836</ele>
        <time>2016-03-10T13:15:09Z</time>
      </trkpt>
      <trkpt lat="44.30612" lon="5.89294">
        <ele>583.6574707</ele>
        <time>2016-03-10T13:15:12Z</time>
      </trkpt>
      <trkpt lat="44.30692" lon="5.89268">
        <ele>584.1381836</ele>
        <time>2016-03-10T13:15:33Z</time>
      </trkpt>
      <trkpt lat="44.30735" lon="5.89256">
        <ele>583.6574707</ele>
        <time>2016-03-10T13:15:45Z</time>
      </trkpt>
      <trkpt lat="44.30739" lon="5.89255">
        <ele>584.1381836</ele>
        <time>2016-03-10T13:15:46Z</time>
      </trkpt>
      <trkpt lat="44.30799" lon="5.89239">
        <ele>585.0996094</ele>
        <time>2016-03-10T13:16:02Z</time>
      </trkpt>
      <trkpt lat="44.30809" lon="5.89237">
        <ele>586.5415039</ele>
        <time>2016-03-10T13:16:05Z</time>
      </trkpt>
      <trkpt lat="44.30837" lon="5.89228">
        <ele>588.4643555</ele>
        <time>2016-03-10T13:16:15Z</time>
      </trkpt>
      <trkpt lat="44.3088" lon="5.89213">
        <ele>588.9450684</ele>
        <time>2016-03-10T13:16:32Z</time>
      </trkpt>
      <trkpt lat="44.30916" lon="5.89201">
        <ele>590.3869629</ele>
        <time>2016-03-10T13:16:48Z</time>
      </trkpt>
      <trkpt lat="44.30961" lon="5.89187">
        <ele>593.270752</ele>
        <time>2016-03-10T13:17:07Z</time>
      </trkpt>
      <trkpt lat="44.31005" lon="5.89175">
        <ele>594.7126465</ele>
        <time>2016-03-10T13:17:26Z</time>
      </trkpt>
      <trkpt lat="44.31057" lon="5.8917">
        <ele>596.1547852</ele>
        <time>2016-03-10T13:17:43Z</time>
      </trkpt>
      <trkpt lat="44.31111" lon="5.89161">
        <ele>596.635498</ele>
        <time>2016-03-10T13:17:58Z</time>
      </trkpt>
      <trkpt lat="44.3118" lon="5.89148">
        <ele>595.6740723</ele>
        <time>2016-03-10T13:18:19Z</time>
      </trkpt>
      <trkpt lat="44.31227" lon="5.8914">
        <ele>595.6740723</ele>
        <time>2016-03-10T13:18:34Z</time>
      </trkpt>
      <trkpt lat="44.31271" lon="5.8913">
        <ele>596.635498</ele>
        <time>2016-03-10T13:18:48Z</time>
      </trkpt>
      <trkpt lat="44.31314" lon="5.89123">
        <ele>595.6740723</ele>
        <time>2016-03-10T13:19:01Z</time>
      </trkpt>
      <trkpt lat="44.31339" lon="5.89121">
        <ele>595.6740723</ele>
        <time>2016-03-10T13:19:08Z</time>
      </trkpt>
      <trkpt lat="44.31343" lon="5.89122">
        <ele>596.635498</ele>
        <time>2016-03-10T13:19:09Z</time>
      </trkpt>
      <trkpt lat="44.3139" lon="5.89113">
        <ele>594.7126465</ele>
        <time>2016-03-10T13:19:20Z</time>
      </trkpt>
      <trkpt lat="44.3142" lon="5.89109">
        <ele>596.635498</ele>
        <time>2016-03-10T13:19:27Z</time>
      </trkpt>
      <trkpt lat="44.31476" lon="5.89104">
        <ele>594.2321777</ele>
        <time>2016-03-10T13:19:40Z</time>
      </trkpt>
      <trkpt lat="44.31489" lon="5.89102">
        <ele>596.1547852</ele>
        <time>2016-03-10T13:19:43Z</time>
      </trkpt>
      <trkpt lat="44.31557" lon="5.89102">
        <ele>594.2321777</ele>
        <time>2016-03-10T13:19:59Z</time>
      </trkpt>
      <trkpt lat="44.31567" lon="5.891">
        <ele>593.7514648</ele>
        <time>2016-03-10T13:20:01Z</time>
      </trkpt>
      <trkpt lat="44.31595" lon="5.89102">
        <ele>592.3095703</ele>
        <time>2016-03-10T13:20:06Z</time>
      </trkpt>
      <trkpt lat="44.31625" lon="5.89104">
        <ele>594.2321777</ele>
        <time>2016-03-10T13:20:11Z</time>
      </trkpt>
      <trkpt lat="44.31637" lon="5.89104">
        <ele>592.7902832</ele>
        <time>2016-03-10T13:20:13Z</time>
      </trkpt>
      <trkpt lat="44.31704" lon="5.89098">
        <ele>589.90625</ele>
        <time>2016-03-10T13:20:24Z</time>
      </trkpt>
      <trkpt lat="44.3171" lon="5.89097">
        <ele>589.90625</ele>
        <time>2016-03-10T13:20:25Z</time>
      </trkpt>
      <trkpt lat="44.31774" lon="5.89066">
        <ele>588.9450684</ele>
        <time>2016-03-10T13:20:36Z</time>
      </trkpt>
      <trkpt lat="44.31809" lon="5.89042">
        <ele>587.0219727</ele>
        <time>2016-03-10T13:20:42Z</time>
      </trkpt>
      <trkpt lat="44.31846" lon="5.89015">
        <ele>586.060791</ele>
        <time>2016-03-10T13:20:48Z</time>
      </trkpt>
      <trkpt lat="44.3193" lon="5.88999">
        <ele>584.1381836</ele>
        <time>2016-03-10T13:20:59Z</time>
      </trkpt>
      <trkpt lat="44.3198" lon="5.89024">
        <ele>582.6962891</ele>
        <time>2016-03-10T13:21:07Z</time>
      </trkpt>
      <trkpt lat="44.3199" lon="5.89032">
        <ele>582.6962891</ele>
        <time>2016-03-10T13:21:09Z</time>
      </trkpt>
      <trkpt lat="44.32075" lon="5.89066">
        <ele>578.8510742</ele>
        <time>2016-03-10T13:21:24Z</time>
      </trkpt>
      <trkpt lat="44.32081" lon="5.89067">
        <ele>578.8510742</ele>
        <time>2016-03-10T13:21:25Z</time>
      </trkpt>
      <trkpt lat="44.32125" lon="5.89076">
        <ele>577.4091797</ele>
        <time>2016-03-10T13:21:32Z</time>
      </trkpt>
      <trkpt lat="44.32154" lon="5.89083">
        <ele>577.8896484</ele>
        <time>2016-03-10T13:21:37Z</time>
      </trkpt>
      <trkpt lat="44.32202" lon="5.89098">
        <ele>575.967041</ele>
        <time>2016-03-10T13:21:46Z</time>
      </trkpt>
      <trkpt lat="44.32221" lon="5.89104">
        <ele>576.9284668</ele>
        <time>2016-03-10T13:21:50Z</time>
      </trkpt>
      <trkpt lat="44.32273" lon="5.8912">
        <ele>577.8896484</ele>
        <time>2016-03-10T13:22:01Z</time>
      </trkpt>
      <trkpt lat="44.32287" lon="5.89123">
        <ele>577.4091797</ele>
        <time>2016-03-10T13:22:04Z</time>
      </trkpt>
      <trkpt lat="44.32345" lon="5.89142">
        <ele>576.9284668</ele>
        <time>2016-03-10T13:22:17Z</time>
      </trkpt>
      <trkpt lat="44.32358" lon="5.89148">
        <ele>578.3703613</ele>
        <time>2016-03-10T13:22:20Z</time>
      </trkpt>
      <trkpt lat="44.32442" lon="5.89176">
        <ele>577.8896484</ele>
        <time>2016-03-10T13:22:39Z</time>
      </trkpt>
      <trkpt lat="44.32473" lon="5.89184">
        <ele>578.8510742</ele>
        <time>2016-03-10T13:22:46Z</time>
      </trkpt>
      <trkpt lat="44.32482" lon="5.89186">
        <ele>577.4091797</ele>
        <time>2016-03-10T13:22:48Z</time>
      </trkpt>
      <trkpt lat="44.32499" lon="5.89193">
        <ele>577.8896484</ele>
        <time>2016-03-10T13:22:52Z</time>
      </trkpt>
      <trkpt lat="44.32582" lon="5.89228">
        <ele>576.4477539</ele>
        <time>2016-03-10T13:23:14Z</time>
      </trkpt>
      <trkpt lat="44.3259" lon="5.89231">
        <ele>578.3703613</ele>
        <time>2016-03-10T13:23:16Z</time>
      </trkpt>
      <trkpt lat="44.3264" lon="5.89252">
        <ele>576.9284668</ele>
        <time>2016-03-10T13:23:31Z</time>
      </trkpt>
      <trkpt lat="44.32652" lon="5.89268">
        <ele>579.331543</ele>
        <time>2016-03-10T13:23:36Z</time>
      </trkpt>
      <trkpt lat="44.32696" lon="5.89305">
        <ele>578.3703613</ele>
        <time>2016-03-10T13:23:47Z</time>
      </trkpt>
      <trkpt lat="44.32775" lon="5.89363">
        <ele>577.8896484</ele>
        <time>2016-03-10T13:24:08Z</time>
      </trkpt>
      <trkpt lat="44.32845" lon="5.89415">
        <ele>577.4091797</ele>
        <time>2016-03-10T13:24:26Z</time>
      </trkpt>
      <trkpt lat="44.32917" lon="5.89464">
        <ele>579.331543</ele>
        <time>2016-03-10T13:24:44Z</time>
      </trkpt>
      <trkpt lat="44.32936" lon="5.89476">
        <ele>578.3703613</ele>
        <time>2016-03-10T13:24:49Z</time>
      </trkpt>
      <trkpt lat="44.33001" lon="5.89509">
        <ele>578.3703613</ele>
        <time>2016-03-10T13:25:05Z</time>
      </trkpt>
      <trkpt lat="44.33006" lon="5.89511">
        <ele>578.8510742</ele>
        <time>2016-03-10T13:25:06Z</time>
      </trkpt>
      <trkpt lat="44.33032" lon="5.89519">
        <ele>578.3703613</ele>
        <time>2016-03-10T13:25:12Z</time>
      </trkpt>
      <trkpt lat="44.33054" lon="5.89524">
        <ele>577.8896484</ele>
        <time>2016-03-10T13:25:17Z</time>
      </trkpt>
      <trkpt lat="44.33068" lon="5.89527">
        <ele>577.8896484</ele>
        <time>2016-03-10T13:25:20Z</time>
      </trkpt>
      <trkpt lat="44.33122" lon="5.89542">
        <ele>577.8896484</ele>
        <time>2016-03-10T13:25:33Z</time>
      </trkpt>
      <trkpt lat="44.3318" lon="5.89565">
        <ele>577.8896484</ele>
        <time>2016-03-10T13:25:48Z</time>
      </trkpt>
      <trkpt lat="44.33244" lon="5.89587">
        <ele>577.4091797</ele>
        <time>2016-03-10T13:26:04Z</time>
      </trkpt>
      <trkpt lat="44.33307" lon="5.8961">
        <ele>577.8896484</ele>
        <time>2016-03-10T13:26:20Z</time>
      </trkpt>
      <trkpt lat="44.3336" lon="5.89636">
        <ele>577.8896484</ele>
        <time>2016-03-10T13:26:35Z</time>
      </trkpt>
      <trkpt lat="44.33451" lon="5.89678">
        <ele>578.8510742</ele>
        <time>2016-03-10T13:26:59Z</time>
      </trkpt>
      <trkpt lat="44.33518" lon="5.89711">
        <ele>576.9284668</ele>
        <time>2016-03-10T13:27:17Z</time>
      </trkpt>
      <trkpt lat="44.33579" lon="5.89739">
        <ele>576.9284668</ele>
        <time>2016-03-10T13:27:33Z</time>
      </trkpt>
      <trkpt lat="44.33618" lon="5.89759">
        <ele>575.967041</ele>
        <time>2016-03-10T13:27:44Z</time>
      </trkpt>
      <trkpt lat="44.33672" lon="5.8979">
        <ele>577.8896484</ele>
        <time>2016-03-10T13:28:01Z</time>
      </trkpt>
      <trkpt lat="44.33713" lon="5.89811">
        <ele>575.0058594</ele>
        <time>2016-03-10T13:28:13Z</time>
      </trkpt>
      <trkpt lat="44.33776" lon="5.8986">
        <ele>575.0058594</ele>
        <time>2016-03-10T13:28:29Z</time>
      </trkpt>
      <trkpt lat="44.33808" lon="5.89888">
        <ele>575.967041</ele>
        <time>2016-03-10T13:28:42Z</time>
      </trkpt>
      <trkpt lat="44.3382" lon="5.89895">
        <ele>577.4091797</ele>
        <time>2016-03-10T13:28:47Z</time>
      </trkpt>
      <trkpt lat="44.3385" lon="5.89918">
        <ele>579.331543</ele>
        <time>2016-03-10T13:29:03Z</time>
      </trkpt>
      <trkpt lat="44.33853" lon="5.89922">
        <ele>580.7736816</ele>
        <time>2016-03-10T13:29:05Z</time>
      </trkpt>
      <trkpt lat="44.33866" lon="5.89934">
        <ele>580.7736816</ele>
        <time>2016-03-10T13:29:12Z</time>
      </trkpt>
      <trkpt lat="44.33885" lon="5.89948">
        <ele>580.7736816</ele>
        <time>2016-03-10T13:29:21Z</time>
      </trkpt>
      <trkpt lat="44.33914" lon="5.89982">
        <ele>581.2543945</ele>
        <time>2016-03-10T13:29:37Z</time>
      </trkpt>
      <trkpt lat="44.33962" lon="5.90036">
        <ele>581.2543945</ele>
        <time>2016-03-10T13:29:55Z</time>
      </trkpt>
      <trkpt lat="44.34008" lon="5.90081">
        <ele>581.7348633</ele>
        <time>2016-03-10T13:30:10Z</time>
      </trkpt>
      <trkpt lat="44.34029" lon="5.90097">
        <ele>584.1381836</ele>
        <time>2016-03-10T13:30:19Z</time>
      </trkpt>
      <trkpt lat="44.3405" lon="5.9012">
        <ele>584.1381836</ele>
        <time>2016-03-10T13:30:30Z</time>
      </trkpt>
      <trkpt lat="44.34056" lon="5.90124">
        <ele>585.0996094</ele>
        <time>2016-03-10T13:30:33Z</time>
      </trkpt>
      <trkpt lat="44.34065" lon="5.90131">
        <ele>586.060791</ele>
        <time>2016-03-10T13:30:38Z</time>
      </trkpt>
      <trkpt lat="44.34091" lon="5.90154">
        <ele>587.9833984</ele>
        <time>2016-03-10T13:30:53Z</time>
      </trkpt>
      <trkpt lat="44.34094" lon="5.90156">
        <ele>587.9833984</ele>
        <time>2016-03-10T13:30:55Z</time>
      </trkpt>
      <trkpt lat="44.34121" lon="5.90185">
        <ele>589.4255371</ele>
        <time>2016-03-10T13:31:10Z</time>
      </trkpt>
      <trkpt lat="44.34156" lon="5.90225">
        <ele>590.8674316</ele>
        <time>2016-03-10T13:31:28Z</time>
      </trkpt>
      <trkpt lat="44.34159" lon="5.90228">
        <ele>590.8674316</ele>
        <time>2016-03-10T13:31:29Z</time>
      </trkpt>
      <trkpt lat="44.34165" lon="5.90236">
        <ele>588.9450684</ele>
        <time>2016-03-10T13:31:31Z</time>
      </trkpt>
      <trkpt lat="44.34172" lon="5.90245">
        <ele>585.0996094</ele>
        <time>2016-03-10T13:31:33Z</time>
      </trkpt>
      <trkpt lat="44.34176" lon="5.9025">
        <ele>585.0996094</ele>
        <time>2016-03-10T13:31:34Z</time>
      </trkpt>
      <trkpt lat="44.34192" lon="5.90271">
        <ele>583.1767578</ele>
        <time>2016-03-10T13:31:38Z</time>
      </trkpt>
      <trkpt lat="44.34202" lon="5.90282">
        <ele>588.4643555</ele>
        <time>2016-03-10T13:31:40Z</time>
      </trkpt>
      <trkpt lat="44.34207" lon="5.90288">
        <ele>588.4643555</ele>
        <time>2016-03-10T13:31:41Z</time>
      </trkpt>
      <trkpt lat="44.34274" lon="5.90375">
        <ele>584.6188965</ele>
        <time>2016-03-10T13:31:54Z</time>
      </trkpt>
      <trkpt lat="44.3428" lon="5.90382">
        <ele>584.6188965</ele>
        <time>2016-03-10T13:31:55Z</time>
      </trkpt>
      <trkpt lat="44.34292" lon="5.90395">
        <ele>583.1767578</ele>
        <time>2016-03-10T13:31:57Z</time>
      </trkpt>
      <trkpt lat="44.34303" lon="5.90407">
        <ele>581.2543945</ele>
        <time>2016-03-10T13:31:59Z</time>
      </trkpt>
      <trkpt lat="44.34308" lon="5.90412">
        <ele>574.0444336</ele>
        <time>2016-03-10T13:32:00Z</time>
      </trkpt>
      <trkpt lat="44.34314" lon="5.90416">
        <ele>574.0444336</ele>
        <time>2016-03-10T13:32:01Z</time>
      </trkpt>
      <trkpt lat="44.34318" lon="5.9042">
        <ele>583.6574707</ele>
        <time>2016-03-10T13:32:02Z</time>
      </trkpt>
      <trkpt lat="44.34323" lon="5.90424">
        <ele>580.2929688</ele>
        <time>2016-03-10T13:32:03Z</time>
      </trkpt>
      <trkpt lat="44.34332" lon="5.90429">
        <ele>579.331543</ele>
        <time>2016-03-10T13:32:05Z</time>
      </trkpt>
      <trkpt lat="44.34341" lon="5.90437">
        <ele>577.8896484</ele>
        <time>2016-03-10T13:32:08Z</time>
      </trkpt>
      <trkpt lat="44.34366" lon="5.90448">
        <ele>576.9284668</ele>
        <time>2016-03-10T13:32:17Z</time>
      </trkpt>
      <trkpt lat="44.34374" lon="5.90452">
        <ele>578.3703613</ele>
        <time>2016-03-10T13:32:21Z</time>
      </trkpt>
      <trkpt lat="44.34382" lon="5.90456">
        <ele>579.331543</ele>
        <time>2016-03-10T13:32:25Z</time>
      </trkpt>
      <trkpt lat="44.34409" lon="5.90479">
        <ele>580.7736816</ele>
        <time>2016-03-10T13:32:38Z</time>
      </trkpt>
      <trkpt lat="44.34415" lon="5.90493">
        <ele>582.2155762</ele>
        <time>2016-03-10T13:32:41Z</time>
      </trkpt>
      <trkpt lat="44.34426" lon="5.90511">
        <ele>580.7736816</ele>
        <time>2016-03-10T13:32:45Z</time>
      </trkpt>
      <trkpt lat="44.34446" lon="5.90532">
        <ele>581.2543945</ele>
        <time>2016-03-10T13:32:50Z</time>
      </trkpt>
      <trkpt lat="44.34512" lon="5.90585">
        <ele>579.8122559</ele>
        <time>2016-03-10T13:33:06Z</time>
      </trkpt>
      <trkpt lat="44.34522" lon="5.90594">
        <ele>576.9284668</ele>
        <time>2016-03-10T13:33:09Z</time>
      </trkpt>
      <trkpt lat="44.34592" lon="5.90652">
        <ele>575.967041</ele>
        <time>2016-03-10T13:33:29Z</time>
      </trkpt>
      <trkpt lat="44.34646" lon="5.90691">
        <ele>575.0058594</ele>
        <time>2016-03-10T13:33:43Z</time>
      </trkpt>
      <trkpt lat="44.34663" lon="5.90702">
        <ele>576.4477539</ele>
        <time>2016-03-10T13:33:46Z</time>
      </trkpt>
      <trkpt lat="44.34683" lon="5.90716">
        <ele>572.1218262</ele>
        <time>2016-03-10T13:33:49Z</time>
      </trkpt>
      <trkpt lat="44.3469" lon="5.9072">
        <ele>572.1218262</ele>
        <time>2016-03-10T13:33:50Z</time>
      </trkpt>
      <trkpt lat="44.34726" lon="5.90744">
        <ele>570.6796875</ele>
        <time>2016-03-10T13:33:55Z</time>
      </trkpt>
      <trkpt lat="44.3476" lon="5.90771">
        <ele>569.237793</ele>
        <time>2016-03-10T13:34:00Z</time>
      </trkpt>
      <trkpt lat="44.34767" lon="5.90777">
        <ele>567.7956543</ele>
        <time>2016-03-10T13:34:01Z</time>
      </trkpt>
      <trkpt lat="44.34851" lon="5.90843">
        <ele>568.2763672</ele>
        <time>2016-03-10T13:34:14Z</time>
      </trkpt>
      <trkpt lat="44.34891" lon="5.90873">
        <ele>566.8344727</ele>
        <time>2016-03-10T13:34:21Z</time>
      </trkpt>
      <trkpt lat="44.34984" lon="5.90949">
        <ele>564.9118652</ele>
        <time>2016-03-10T13:34:38Z</time>
      </trkpt>
      <trkpt lat="44.35008" lon="5.90971">
        <ele>565.873291</ele>
        <time>2016-03-10T13:34:44Z</time>
      </trkpt>
      <trkpt lat="44.35068" lon="5.91029">
        <ele>566.8344727</ele>
        <time>2016-03-10T13:35:04Z</time>
      </trkpt>
      <trkpt lat="44.35116" lon="5.91074">
        <ele>568.7570801</ele>
        <time>2016-03-10T13:35:25Z</time>
      </trkpt>
      <trkpt lat="44.35158" lon="5.91113">
        <ele>570.1989746</ele>
        <time>2016-03-10T13:35:45Z</time>
      </trkpt>
      <trkpt lat="44.35197" lon="5.91151">
        <ele>571.1604004</ele>
        <time>2016-03-10T13:36:04Z</time>
      </trkpt>
      <trkpt lat="44.3523" lon="5.91181">
        <ele>573.083252</ele>
        <time>2016-03-10T13:36:19Z</time>
      </trkpt>
      <trkpt lat="44.35273" lon="5.9122">
        <ele>573.5639648</ele>
        <time>2016-03-10T13:36:38Z</time>
      </trkpt>
      <trkpt lat="44.35325" lon="5.9126">
        <ele>574.5251465</ele>
        <time>2016-03-10T13:36:58Z</time>
      </trkpt>
      <trkpt lat="44.35372" lon="5.91298">
        <ele>575.0058594</ele>
        <time>2016-03-10T13:37:17Z</time>
      </trkpt>
      <trkpt lat="44.35439" lon="5.91346">
        <ele>575.0058594</ele>
        <time>2016-03-10T13:37:40Z</time>
      </trkpt>
      <trkpt lat="44.35505" lon="5.9139">
        <ele>576.4477539</ele>
        <time>2016-03-10T13:38:04Z</time>
      </trkpt>
      <trkpt lat="44.35528" lon="5.91404">
        <ele>576.9284668</ele>
        <time>2016-03-10T13:38:12Z</time>
      </trkpt>
      <trkpt lat="44.35564" lon="5.91425">
        <ele>574.5251465</ele>
        <time>2016-03-10T13:38:23Z</time>
      </trkpt>
      <trkpt lat="44.3558" lon="5.91438">
        <ele>575.4863281</ele>
        <time>2016-03-10T13:38:28Z</time>
      </trkpt>
      <trkpt lat="44.35593" lon="5.91449">
        <ele>574.5251465</ele>
        <time>2016-03-10T13:38:32Z</time>
      </trkpt>
      <trkpt lat="44.35672" lon="5.91499">
        <ele>574.5251465</ele>
        <time>2016-03-10T13:38:51Z</time>
      </trkpt>
      <trkpt lat="44.3568" lon="5.91505">
        <ele>573.083252</ele>
        <time>2016-03-10T13:38:53Z</time>
      </trkpt>
      <trkpt lat="44.35752" lon="5.91556">
        <ele>575.0058594</ele>
        <time>2016-03-10T13:39:11Z</time>
      </trkpt>
      <trkpt lat="44.35806" lon="5.91594">
        <ele>572.6025391</ele>
        <time>2016-03-10T13:39:28Z</time>
      </trkpt>
      <trkpt lat="44.35814" lon="5.91599">
        <ele>574.5251465</ele>
        <time>2016-03-10T13:39:31Z</time>
      </trkpt>
      <trkpt lat="44.35886" lon="5.91651">
        <ele>573.5639648</ele>
        <time>2016-03-10T13:39:55Z</time>
      </trkpt>
      <trkpt lat="44.35905" lon="5.91664">
        <ele>575.4863281</ele>
        <time>2016-03-10T13:40:01Z</time>
      </trkpt>
      <trkpt lat="44.35971" lon="5.91708">
        <ele>574.0444336</ele>
        <time>2016-03-10T13:40:22Z</time>
      </trkpt>
      <trkpt lat="44.36034" lon="5.91753">
        <ele>572.6025391</ele>
        <time>2016-03-10T13:40:41Z</time>
      </trkpt>
      <trkpt lat="44.36088" lon="5.91791">
        <ele>572.6025391</ele>
        <time>2016-03-10T13:40:59Z</time>
      </trkpt>
      <trkpt lat="44.36132" lon="5.91821">
        <ele>573.5639648</ele>
        <time>2016-03-10T13:41:14Z</time>
      </trkpt>
      <trkpt lat="44.36155" lon="5.91837">
        <ele>571.6408691</ele>
        <time>2016-03-10T13:41:22Z</time>
      </trkpt>
      <trkpt lat="44.36176" lon="5.91851">
        <ele>573.083252</ele>
        <time>2016-03-10T13:41:29Z</time>
      </trkpt>
      <trkpt lat="44.36212" lon="5.91875">
        <ele>572.6025391</ele>
        <time>2016-03-10T13:41:42Z</time>
      </trkpt>
      <trkpt lat="44.36214" lon="5.91877">
        <ele>572.6025391</ele>
        <time>2016-03-10T13:41:43Z</time>
      </trkpt>
      <trkpt lat="44.36275" lon="5.91917">
        <ele>571.6408691</ele>
        <time>2016-03-10T13:42:01Z</time>
      </trkpt>
      <trkpt lat="44.36288" lon="5.91927">
        <ele>574.5251465</ele>
        <time>2016-03-10T13:42:05Z</time>
      </trkpt>
      <trkpt lat="44.36291" lon="5.91929">
        <ele>574.5251465</ele>
        <time>2016-03-10T13:42:06Z</time>
      </trkpt>
      <trkpt lat="44.36344" lon="5.91966">
        <ele>574.5251465</ele>
        <time>2016-03-10T13:42:22Z</time>
      </trkpt>
      <trkpt lat="44.36365" lon="5.9198">
        <ele>573.083252</ele>
        <time>2016-03-10T13:42:29Z</time>
      </trkpt>
      <trkpt lat="44.36432" lon="5.92025">
        <ele>574.5251465</ele>
        <time>2016-03-10T13:42:50Z</time>
      </trkpt>
      <trkpt lat="44.36444" lon="5.92033">
        <ele>573.083252</ele>
        <time>2016-03-10T13:42:54Z</time>
      </trkpt>
      <trkpt lat="44.36494" lon="5.92067">
        <ele>572.6025391</ele>
        <time>2016-03-10T13:43:11Z</time>
      </trkpt>
      <trkpt lat="44.36542" lon="5.92098">
        <ele>572.6025391</ele>
        <time>2016-03-10T13:43:27Z</time>
      </trkpt>
      <trkpt lat="44.36563" lon="5.92113">
        <ele>571.1604004</ele>
        <time>2016-03-10T13:43:34Z</time>
      </trkpt>
      <trkpt lat="44.36606" lon="5.92139">
        <ele>572.1218262</ele>
        <time>2016-03-10T13:43:48Z</time>
      </trkpt>
      <trkpt lat="44.36633" lon="5.92151">
        <ele>572.6025391</ele>
        <time>2016-03-10T13:43:57Z</time>
      </trkpt>
      <trkpt lat="44.36686" lon="5.92163">
        <ele>571.6408691</ele>
        <time>2016-03-10T13:44:15Z</time>
      </trkpt>
      <trkpt lat="44.36704" lon="5.92167">
        <ele>571.1604004</ele>
        <time>2016-03-10T13:44:21Z</time>
      </trkpt>
      <trkpt lat="44.36767" lon="5.9219">
        <ele>571.1604004</ele>
        <time>2016-03-10T13:44:41Z</time>
      </trkpt>
      <trkpt lat="44.36797" lon="5.92204">
        <ele>572.6025391</ele>
        <time>2016-03-10T13:44:55Z</time>
      </trkpt>
      <trkpt lat="44.36818" lon="5.92217">
        <ele>575.0058594</ele>
        <time>2016-03-10T13:45:07Z</time>
      </trkpt>
      <trkpt lat="44.36818" lon="5.92228">
        <ele>575.4863281</ele>
        <time>2016-03-10T13:45:12Z</time>
      </trkpt>
      <trkpt lat="44.36784" lon="5.92283">
        <ele>575.967041</ele>
        <time>2016-03-10T13:45:30Z</time>
      </trkpt>
      <trkpt lat="44.36731" lon="5.92278">
        <ele>575.4863281</ele>
        <time>2016-03-10T13:45:46Z</time>
      </trkpt>
      <trkpt lat="44.36707" lon="5.92308">
        <ele>574.0444336</ele>
        <time>2016-03-10T13:45:56Z</time>
      </trkpt>
      <trkpt lat="44.36693" lon="5.9234">
        <ele>573.5639648</ele>
        <time>2016-03-10T13:46:03Z</time>
      </trkpt>
      <trkpt lat="44.36685" lon="5.9236">
        <ele>574.0444336</ele>
        <time>2016-03-10T13:46:07Z</time>
      </trkpt>
      <trkpt lat="44.36673" lon="5.92385">
        <ele>574.0444336</ele>
        <time>2016-03-10T13:46:12Z</time>
      </trkpt>
      <trkpt lat="44.36627" lon="5.92409">
        <ele>575.967041</ele>
        <time>2016-03-10T13:46:21Z</time>
      </trkpt>
      <trkpt lat="44.36621" lon="5.92407">
        <ele>576.9284668</ele>
        <time>2016-03-10T13:46:22Z</time>
      </trkpt>
      <trkpt lat="44.36598" lon="5.92393">
        <ele>574.0444336</ele>
        <time>2016-03-10T13:46:26Z</time>
      </trkpt>
      <trkpt lat="44.36592" lon="5.9239">
        <ele>574.0444336</ele>
        <time>2016-03-10T13:46:27Z</time>
      </trkpt>
      <trkpt lat="44.36581" lon="5.92382">
        <ele>572.6025391</ele>
        <time>2016-03-10T13:46:29Z</time>
      </trkpt>
      <trkpt lat="44.36566" lon="5.92369">
        <ele>571.1604004</ele>
        <time>2016-03-10T13:46:32Z</time>
      </trkpt>
      <trkpt lat="44.36555" lon="5.92352">
        <ele>569.237793</ele>
        <time>2016-03-10T13:46:35Z</time>
      </trkpt>
      <trkpt lat="44.36545" lon="5.92358">
        <ele>567.3151855</ele>
        <time>2016-03-10T13:46:41Z</time>
      </trkpt>
      <trkpt lat="44.36563" lon="5.92384">
        <ele>566.8344727</ele>
        <time>2016-03-10T13:46:47Z</time>
      </trkpt>
      <trkpt lat="44.36614" lon="5.92429">
        <ele>569.7185059</ele>
        <time>2016-03-10T13:47:02Z</time>
      </trkpt>
      <trkpt lat="44.3662" lon="5.92431">
        <ele>568.2763672</ele>
        <time>2016-03-10T13:47:04Z</time>
      </trkpt>
      <trkpt lat="44.36672" lon="5.92416">
        <ele>568.2763672</ele>
        <time>2016-03-10T13:47:20Z</time>
      </trkpt>
      <trkpt lat="44.36722" lon="5.92387">
        <ele>567.7956543</ele>
        <time>2016-03-10T13:47:38Z</time>
      </trkpt>
      <trkpt lat="44.36746" lon="5.92397">
        <ele>567.7956543</ele>
        <time>2016-03-10T13:47:48Z</time>
      </trkpt>
      <trkpt lat="44.36754" lon="5.92394">
        <ele>567.7956543</ele>
        <time>2016-03-10T13:47:59Z</time>
      </trkpt>
      <trkpt lat="44.36754" lon="5.92394">
        <ele>567.3151855</ele>
        <time>2016-03-10T13:48:10Z</time>
      </trkpt>
    </trkseg>
  </trk>
</gpx>